<?xml version="1.0" encoding="UTF-8" standalone="no" ?>
<gpx xmlns="http://www.topografix.com/GPX/1/1" xmlns:xsi="http://www.w3.org/2001/XMLSchema-instance" xsi:schemaLocation="http://www.topografix.com/GPX/1/1 http://www.topografix.com/GPX/1/1/gpx.xsd" version="1.1" creator="VisuGPX - https://www.visugpx.com">
  <metadata>
    <name>Roc des Boeufs</name>
    <desc><![CDATA[Depart de Mt Derrière , monter par la piste forestière jusqu\'au chalets du Sollier . Au chalet, prendre main droite , sur le tracé pointillé du sentier d\'été. Attention à la barre rocheuse , bien estimer la stabilité de la neige avant de décidder de monter les 30 ou 50 derniers mètres (exposition à 2 sur 4)
Plus de détails et de photos sur outdoor-diots.blogspot.com]]></desc>
  </metadata>
  <trk>
    <name><![CDATA[ROC4-02-01 15:48:02]]></name>
    <trkseg>
      <trkpt lat="45.73631" lon="6.16022">
        <ele>1008.56</ele>
        <time>2014-02-01T09:27:28Z</time>
      </trkpt>
      <trkpt lat="45.73632" lon="6.16023">
        <ele>1009.04</ele>
        <time>2014-02-01T09:27:39Z</time>
      </trkpt>
      <trkpt lat="45.7363" lon="6.16023">
        <ele>1006.16</ele>
        <time>2014-02-01T09:27:54Z</time>
      </trkpt>
      <trkpt lat="45.7363" lon="6.16023">
        <ele>1010</ele>
        <time>2014-02-01T09:27:55Z</time>
      </trkpt>
      <trkpt lat="45.7363" lon="6.16023">
        <ele>1010</ele>
        <time>2014-02-01T09:27:56Z</time>
      </trkpt>
      <trkpt lat="45.73631" lon="6.16023">
        <ele>1008.08</ele>
        <time>2014-02-01T09:27:58Z</time>
      </trkpt>
      <trkpt lat="45.73632" lon="6.16019">
        <ele>1008.08</ele>
        <time>2014-02-01T09:28:13Z</time>
      </trkpt>
      <trkpt lat="45.7363" lon="6.1602">
        <ele>1007.12</ele>
        <time>2014-02-01T09:28:33Z</time>
      </trkpt>
      <trkpt lat="45.73629" lon="6.1602">
        <ele>1007.12</ele>
        <time>2014-02-01T09:28:51Z</time>
      </trkpt>
      <trkpt lat="45.7363" lon="6.16019">
        <ele>1007.6</ele>
        <time>2014-02-01T09:29:20Z</time>
      </trkpt>
      <trkpt lat="45.7363" lon="6.16021">
        <ele>1008.56</ele>
        <time>2014-02-01T09:29:44Z</time>
      </trkpt>
      <trkpt lat="45.7363" lon="6.16021">
        <ele>1009.04</ele>
        <time>2014-02-01T09:30:02Z</time>
      </trkpt>
      <trkpt lat="45.7363" lon="6.16019">
        <ele>1009.04</ele>
        <time>2014-02-01T09:30:14Z</time>
      </trkpt>
      <trkpt lat="45.73632" lon="6.1602">
        <ele>1009.04</ele>
        <time>2014-02-01T09:30:16Z</time>
      </trkpt>
      <trkpt lat="45.73634" lon="6.16019">
        <ele>1009.04</ele>
        <time>2014-02-01T09:30:18Z</time>
      </trkpt>
      <trkpt lat="45.73643" lon="6.16013">
        <ele>1007.6</ele>
        <time>2014-02-01T09:30:34Z</time>
      </trkpt>
      <trkpt lat="45.73644" lon="6.16011">
        <ele>1008.08</ele>
        <time>2014-02-01T09:31:12Z</time>
      </trkpt>
      <trkpt lat="45.73643" lon="6.16011">
        <ele>1008.08</ele>
        <time>2014-02-01T09:31:16Z</time>
      </trkpt>
      <trkpt lat="45.73661" lon="6.16014">
        <ele>1008.08</ele>
        <time>2014-02-01T09:31:31Z</time>
      </trkpt>
      <trkpt lat="45.73673" lon="6.16012">
        <ele>1009.52</ele>
        <time>2014-02-01T09:31:41Z</time>
      </trkpt>
      <trkpt lat="45.73678" lon="6.16011">
        <ele>1010</ele>
        <time>2014-02-01T09:31:49Z</time>
      </trkpt>
      <trkpt lat="45.73683" lon="6.1601">
        <ele>1010</ele>
        <time>2014-02-01T09:31:53Z</time>
      </trkpt>
      <trkpt lat="45.73698" lon="6.16012">
        <ele>1010.96</ele>
        <time>2014-02-01T09:32:05Z</time>
      </trkpt>
      <trkpt lat="45.73703" lon="6.16009">
        <ele>1011.44</ele>
        <time>2014-02-01T09:32:10Z</time>
      </trkpt>
      <trkpt lat="45.73709" lon="6.16011">
        <ele>1012.41</ele>
        <time>2014-02-01T09:32:17Z</time>
      </trkpt>
      <trkpt lat="45.73713" lon="6.16009">
        <ele>1012.41</ele>
        <time>2014-02-01T09:32:21Z</time>
      </trkpt>
      <trkpt lat="45.73717" lon="6.16009">
        <ele>1012.89</ele>
        <time>2014-02-01T09:32:24Z</time>
      </trkpt>
      <trkpt lat="45.73734" lon="6.16008">
        <ele>1013.85</ele>
        <time>2014-02-01T09:32:40Z</time>
      </trkpt>
      <trkpt lat="45.73751" lon="6.16008">
        <ele>1015.77</ele>
        <time>2014-02-01T09:32:56Z</time>
      </trkpt>
      <trkpt lat="45.73764" lon="6.16008">
        <ele>1016.73</ele>
        <time>2014-02-01T09:33:10Z</time>
      </trkpt>
      <trkpt lat="45.73768" lon="6.16006">
        <ele>1017.21</ele>
        <time>2014-02-01T09:33:36Z</time>
      </trkpt>
      <trkpt lat="45.7377" lon="6.16005">
        <ele>1017.21</ele>
        <time>2014-02-01T09:33:57Z</time>
      </trkpt>
      <trkpt lat="45.73783" lon="6.1601">
        <ele>1019.13</ele>
        <time>2014-02-01T09:34:12Z</time>
      </trkpt>
      <trkpt lat="45.73798" lon="6.16012">
        <ele>1020.58</ele>
        <time>2014-02-01T09:34:28Z</time>
      </trkpt>
      <trkpt lat="45.73809" lon="6.16012">
        <ele>1022.02</ele>
        <time>2014-02-01T09:34:41Z</time>
      </trkpt>
      <trkpt lat="45.73819" lon="6.16007">
        <ele>1022.98</ele>
        <time>2014-02-01T09:34:51Z</time>
      </trkpt>
      <trkpt lat="45.73832" lon="6.15983">
        <ele>1023.94</ele>
        <time>2014-02-01T09:35:09Z</time>
      </trkpt>
      <trkpt lat="45.73835" lon="6.15975">
        <ele>1024.42</ele>
        <time>2014-02-01T09:35:16Z</time>
      </trkpt>
      <trkpt lat="45.73846" lon="6.15962">
        <ele>1024.9</ele>
        <time>2014-02-01T09:35:29Z</time>
      </trkpt>
      <trkpt lat="45.7385" lon="6.15958">
        <ele>1025.86</ele>
        <time>2014-02-01T09:35:34Z</time>
      </trkpt>
      <trkpt lat="45.73865" lon="6.15954">
        <ele>1028.27</ele>
        <time>2014-02-01T09:35:51Z</time>
      </trkpt>
      <trkpt lat="45.73867" lon="6.15954">
        <ele>1028.75</ele>
        <time>2014-02-01T09:35:54Z</time>
      </trkpt>
      <trkpt lat="45.7387" lon="6.15955">
        <ele>1029.23</ele>
        <time>2014-02-01T09:35:58Z</time>
      </trkpt>
      <trkpt lat="45.73876" lon="6.15954">
        <ele>1029.71</ele>
        <time>2014-02-01T09:36:03Z</time>
      </trkpt>
      <trkpt lat="45.73893" lon="6.15948">
        <ele>1031.63</ele>
        <time>2014-02-01T09:36:19Z</time>
      </trkpt>
      <trkpt lat="45.73896" lon="6.15947">
        <ele>1032.11</ele>
        <time>2014-02-01T09:36:22Z</time>
      </trkpt>
      <trkpt lat="45.73905" lon="6.1594">
        <ele>1032.59</ele>
        <time>2014-02-01T09:36:30Z</time>
      </trkpt>
      <trkpt lat="45.73916" lon="6.15922">
        <ele>1033.55</ele>
        <time>2014-02-01T09:36:44Z</time>
      </trkpt>
      <trkpt lat="45.7392" lon="6.15917">
        <ele>1034.52</ele>
        <time>2014-02-01T09:36:50Z</time>
      </trkpt>
      <trkpt lat="45.73924" lon="6.15915">
        <ele>1035</ele>
        <time>2014-02-01T09:36:55Z</time>
      </trkpt>
      <trkpt lat="45.73935" lon="6.15913">
        <ele>1036.44</ele>
        <time>2014-02-01T09:37:06Z</time>
      </trkpt>
      <trkpt lat="45.73945" lon="6.15912">
        <ele>1037.88</ele>
        <time>2014-02-01T09:37:16Z</time>
      </trkpt>
      <trkpt lat="45.73949" lon="6.15913">
        <ele>1038.36</ele>
        <time>2014-02-01T09:37:20Z</time>
      </trkpt>
      <trkpt lat="45.73958" lon="6.15912">
        <ele>1039.8</ele>
        <time>2014-02-01T09:37:30Z</time>
      </trkpt>
      <trkpt lat="45.73971" lon="6.15911">
        <ele>1042.69</ele>
        <time>2014-02-01T09:37:47Z</time>
      </trkpt>
      <trkpt lat="45.73976" lon="6.15908">
        <ele>1043.17</ele>
        <time>2014-02-01T09:38:09Z</time>
      </trkpt>
      <trkpt lat="45.73981" lon="6.15906">
        <ele>1044.61</ele>
        <time>2014-02-01T09:38:16Z</time>
      </trkpt>
      <trkpt lat="45.73991" lon="6.15905">
        <ele>1046.53</ele>
        <time>2014-02-01T09:38:29Z</time>
      </trkpt>
      <trkpt lat="45.73997" lon="6.15907">
        <ele>1047.49</ele>
        <time>2014-02-01T09:38:42Z</time>
      </trkpt>
      <trkpt lat="45.74" lon="6.15907">
        <ele>1047.97</ele>
        <time>2014-02-01T09:38:54Z</time>
      </trkpt>
      <trkpt lat="45.74006" lon="6.15907">
        <ele>1049.9</ele>
        <time>2014-02-01T09:39:09Z</time>
      </trkpt>
      <trkpt lat="45.74014" lon="6.159">
        <ele>1051.34</ele>
        <time>2014-02-01T09:39:24Z</time>
      </trkpt>
      <trkpt lat="45.74021" lon="6.15899">
        <ele>1052.3</ele>
        <time>2014-02-01T09:39:40Z</time>
      </trkpt>
      <trkpt lat="45.74029" lon="6.159">
        <ele>1054.22</ele>
        <time>2014-02-01T09:39:53Z</time>
      </trkpt>
      <trkpt lat="45.74043" lon="6.15902">
        <ele>1056.63</ele>
        <time>2014-02-01T09:40:09Z</time>
      </trkpt>
      <trkpt lat="45.74056" lon="6.15903">
        <ele>1058.55</ele>
        <time>2014-02-01T09:40:24Z</time>
      </trkpt>
      <trkpt lat="45.74068" lon="6.15904">
        <ele>1061.91</ele>
        <time>2014-02-01T09:40:39Z</time>
      </trkpt>
      <trkpt lat="45.74081" lon="6.15906">
        <ele>1063.84</ele>
        <time>2014-02-01T09:40:55Z</time>
      </trkpt>
      <trkpt lat="45.7409" lon="6.15907">
        <ele>1065.76</ele>
        <time>2014-02-01T09:41:10Z</time>
      </trkpt>
      <trkpt lat="45.74091" lon="6.15907">
        <ele>1066.24</ele>
        <time>2014-02-01T09:41:23Z</time>
      </trkpt>
      <trkpt lat="45.74099" lon="6.15911">
        <ele>1066.72</ele>
        <time>2014-02-01T09:41:40Z</time>
      </trkpt>
      <trkpt lat="45.74101" lon="6.15913">
        <ele>1066.72</ele>
        <time>2014-02-01T09:42:10Z</time>
      </trkpt>
      <trkpt lat="45.74102" lon="6.15908">
        <ele>1066.72</ele>
        <time>2014-02-01T09:42:40Z</time>
      </trkpt>
      <trkpt lat="45.74103" lon="6.15908">
        <ele>1066.72</ele>
        <time>2014-02-01T09:43:03Z</time>
      </trkpt>
      <trkpt lat="45.74097" lon="6.1591">
        <ele>1066.72</ele>
        <time>2014-02-01T09:43:16Z</time>
      </trkpt>
      <trkpt lat="45.74097" lon="6.15909">
        <ele>1066.72</ele>
        <time>2014-02-01T09:43:45Z</time>
      </trkpt>
      <trkpt lat="45.74098" lon="6.15912">
        <ele>1067.2</ele>
        <time>2014-02-01T09:44:10Z</time>
      </trkpt>
      <trkpt lat="45.74099" lon="6.15912">
        <ele>1067.2</ele>
        <time>2014-02-01T09:44:45Z</time>
      </trkpt>
      <trkpt lat="45.74101" lon="6.15909">
        <ele>1067.68</ele>
        <time>2014-02-01T09:45:13Z</time>
      </trkpt>
      <trkpt lat="45.74103" lon="6.15913">
        <ele>1067.68</ele>
        <time>2014-02-01T09:45:42Z</time>
      </trkpt>
      <trkpt lat="45.74103" lon="6.15907">
        <ele>1067.68</ele>
        <time>2014-02-01T09:46:02Z</time>
      </trkpt>
      <trkpt lat="45.74101" lon="6.15902">
        <ele>1066.72</ele>
        <time>2014-02-01T09:46:26Z</time>
      </trkpt>
      <trkpt lat="45.74103" lon="6.159">
        <ele>1066.72</ele>
        <time>2014-02-01T09:46:50Z</time>
      </trkpt>
      <trkpt lat="45.74102" lon="6.15901">
        <ele>1066.72</ele>
        <time>2014-02-01T09:47:13Z</time>
      </trkpt>
      <trkpt lat="45.74102" lon="6.15901">
        <ele>1066.72</ele>
        <time>2014-02-01T09:47:15Z</time>
      </trkpt>
      <trkpt lat="45.74105" lon="6.15908">
        <ele>1068.16</ele>
        <time>2014-02-01T09:47:21Z</time>
      </trkpt>
      <trkpt lat="45.74113" lon="6.15918">
        <ele>1072.01</ele>
        <time>2014-02-01T09:47:34Z</time>
      </trkpt>
      <trkpt lat="45.74123" lon="6.15925">
        <ele>1074.41</ele>
        <time>2014-02-01T09:47:46Z</time>
      </trkpt>
      <trkpt lat="45.74126" lon="6.15927">
        <ele>1075.37</ele>
        <time>2014-02-01T09:47:49Z</time>
      </trkpt>
      <trkpt lat="45.7413" lon="6.15929">
        <ele>1075.85</ele>
        <time>2014-02-01T09:47:53Z</time>
      </trkpt>
      <trkpt lat="45.74144" lon="6.1593">
        <ele>1079.22</ele>
        <time>2014-02-01T09:48:08Z</time>
      </trkpt>
      <trkpt lat="45.74151" lon="6.15927">
        <ele>1081.14</ele>
        <time>2014-02-01T09:48:16Z</time>
      </trkpt>
      <trkpt lat="45.74156" lon="6.15923">
        <ele>1082.1</ele>
        <time>2014-02-01T09:48:31Z</time>
      </trkpt>
      <trkpt lat="45.74161" lon="6.15919">
        <ele>1083.06</ele>
        <time>2014-02-01T09:48:57Z</time>
      </trkpt>
      <trkpt lat="45.74162" lon="6.15916">
        <ele>1084.02</ele>
        <time>2014-02-01T09:49:09Z</time>
      </trkpt>
      <trkpt lat="45.74165" lon="6.15913">
        <ele>1084.99</ele>
        <time>2014-02-01T09:49:18Z</time>
      </trkpt>
      <trkpt lat="45.74169" lon="6.15913">
        <ele>1085.95</ele>
        <time>2014-02-01T09:49:22Z</time>
      </trkpt>
      <trkpt lat="45.74181" lon="6.15914">
        <ele>1088.83</ele>
        <time>2014-02-01T09:49:38Z</time>
      </trkpt>
      <trkpt lat="45.74181" lon="6.15914">
        <ele>1089.31</ele>
        <time>2014-02-01T09:49:39Z</time>
      </trkpt>
      <trkpt lat="45.74192" lon="6.15913">
        <ele>1091.71</ele>
        <time>2014-02-01T09:49:53Z</time>
      </trkpt>
      <trkpt lat="45.74202" lon="6.15915">
        <ele>1095.08</ele>
        <time>2014-02-01T09:50:05Z</time>
      </trkpt>
      <trkpt lat="45.74214" lon="6.15916">
        <ele>1097.96</ele>
        <time>2014-02-01T09:50:19Z</time>
      </trkpt>
      <trkpt lat="45.74228" lon="6.15917">
        <ele>1101.33</ele>
        <time>2014-02-01T09:50:35Z</time>
      </trkpt>
      <trkpt lat="45.74242" lon="6.15916">
        <ele>1104.21</ele>
        <time>2014-02-01T09:50:50Z</time>
      </trkpt>
      <trkpt lat="45.74254" lon="6.15915">
        <ele>1107.1</ele>
        <time>2014-02-01T09:51:03Z</time>
      </trkpt>
      <trkpt lat="45.74265" lon="6.15916">
        <ele>1109.98</ele>
        <time>2014-02-01T09:51:17Z</time>
      </trkpt>
      <trkpt lat="45.74277" lon="6.15919">
        <ele>1112.86</ele>
        <time>2014-02-01T09:51:31Z</time>
      </trkpt>
      <trkpt lat="45.74286" lon="6.15925">
        <ele>1115.75</ele>
        <time>2014-02-01T09:51:45Z</time>
      </trkpt>
      <trkpt lat="45.74293" lon="6.15936">
        <ele>1116.71</ele>
        <time>2014-02-01T09:51:59Z</time>
      </trkpt>
      <trkpt lat="45.74297" lon="6.1595">
        <ele>1118.63</ele>
        <time>2014-02-01T09:52:10Z</time>
      </trkpt>
      <trkpt lat="45.74297" lon="6.15958">
        <ele>1119.59</ele>
        <time>2014-02-01T09:52:24Z</time>
      </trkpt>
      <trkpt lat="45.74298" lon="6.15957">
        <ele>1118.63</ele>
        <time>2014-02-01T09:52:38Z</time>
      </trkpt>
      <trkpt lat="45.74307" lon="6.15955">
        <ele>1118.63</ele>
        <time>2014-02-01T09:53:07Z</time>
      </trkpt>
      <trkpt lat="45.74301" lon="6.15954">
        <ele>1118.15</ele>
        <time>2014-02-01T09:53:26Z</time>
      </trkpt>
      <trkpt lat="45.74297" lon="6.15959">
        <ele>1118.15</ele>
        <time>2014-02-01T09:53:58Z</time>
      </trkpt>
      <trkpt lat="45.74298" lon="6.1596">
        <ele>1118.15</ele>
        <time>2014-02-01T09:54:31Z</time>
      </trkpt>
      <trkpt lat="45.743" lon="6.15963">
        <ele>1118.15</ele>
        <time>2014-02-01T09:55:06Z</time>
      </trkpt>
      <trkpt lat="45.74301" lon="6.15962">
        <ele>1117.67</ele>
        <time>2014-02-01T09:55:29Z</time>
      </trkpt>
      <trkpt lat="45.74301" lon="6.15961">
        <ele>1120.07</ele>
        <time>2014-02-01T09:55:40Z</time>
      </trkpt>
      <trkpt lat="45.74301" lon="6.15961">
        <ele>1118.63</ele>
        <time>2014-02-01T09:55:42Z</time>
      </trkpt>
      <trkpt lat="45.74301" lon="6.15961">
        <ele>1118.63</ele>
        <time>2014-02-01T09:55:58Z</time>
      </trkpt>
      <trkpt lat="45.743" lon="6.15962">
        <ele>1118.63</ele>
        <time>2014-02-01T09:56:14Z</time>
      </trkpt>
      <trkpt lat="45.74298" lon="6.15961">
        <ele>1118.63</ele>
        <time>2014-02-01T09:56:27Z</time>
      </trkpt>
      <trkpt lat="45.74299" lon="6.15962">
        <ele>1118.63</ele>
        <time>2014-02-01T09:56:43Z</time>
      </trkpt>
      <trkpt lat="45.743" lon="6.15961">
        <ele>1118.63</ele>
        <time>2014-02-01T09:57:04Z</time>
      </trkpt>
      <trkpt lat="45.74301" lon="6.15956">
        <ele>1118.63</ele>
        <time>2014-02-01T09:57:33Z</time>
      </trkpt>
      <trkpt lat="45.743" lon="6.1596">
        <ele>1118.63</ele>
        <time>2014-02-01T09:57:46Z</time>
      </trkpt>
      <trkpt lat="45.74299" lon="6.1596">
        <ele>1120.07</ele>
        <time>2014-02-01T09:58:03Z</time>
      </trkpt>
      <trkpt lat="45.74298" lon="6.1597">
        <ele>1122</ele>
        <time>2014-02-01T09:58:15Z</time>
      </trkpt>
      <trkpt lat="45.74298" lon="6.15976">
        <ele>1123.44</ele>
        <time>2014-02-01T09:58:28Z</time>
      </trkpt>
      <trkpt lat="45.74297" lon="6.15981">
        <ele>1123.92</ele>
        <time>2014-02-01T09:58:34Z</time>
      </trkpt>
      <trkpt lat="45.74293" lon="6.15997">
        <ele>1125.84</ele>
        <time>2014-02-01T09:58:47Z</time>
      </trkpt>
      <trkpt lat="45.7429" lon="6.16012">
        <ele>1127.28</ele>
        <time>2014-02-01T09:58:59Z</time>
      </trkpt>
      <trkpt lat="45.74285" lon="6.16025">
        <ele>1129.69</ele>
        <time>2014-02-01T09:59:12Z</time>
      </trkpt>
      <trkpt lat="45.74279" lon="6.16038">
        <ele>1131.61</ele>
        <time>2014-02-01T09:59:26Z</time>
      </trkpt>
      <trkpt lat="45.74274" lon="6.16048">
        <ele>1133.05</ele>
        <time>2014-02-01T09:59:38Z</time>
      </trkpt>
      <trkpt lat="45.74269" lon="6.1606">
        <ele>1134.97</ele>
        <time>2014-02-01T09:59:49Z</time>
      </trkpt>
      <trkpt lat="45.74265" lon="6.16075">
        <ele>1137.38</ele>
        <time>2014-02-01T10:00:03Z</time>
      </trkpt>
      <trkpt lat="45.74262" lon="6.1609">
        <ele>1139.78</ele>
        <time>2014-02-01T10:00:17Z</time>
      </trkpt>
      <trkpt lat="45.7426" lon="6.16107">
        <ele>1141.7</ele>
        <time>2014-02-01T10:00:30Z</time>
      </trkpt>
      <trkpt lat="45.74259" lon="6.16113">
        <ele>1142.66</ele>
        <time>2014-02-01T10:00:41Z</time>
      </trkpt>
      <trkpt lat="45.74259" lon="6.16127">
        <ele>1144.11</ele>
        <time>2014-02-01T10:00:53Z</time>
      </trkpt>
      <trkpt lat="45.7426" lon="6.16135">
        <ele>1145.55</ele>
        <time>2014-02-01T10:01:05Z</time>
      </trkpt>
      <trkpt lat="45.74262" lon="6.16137">
        <ele>1145.55</ele>
        <time>2014-02-01T10:01:07Z</time>
      </trkpt>
      <trkpt lat="45.74265" lon="6.16139">
        <ele>1146.03</ele>
        <time>2014-02-01T10:01:10Z</time>
      </trkpt>
      <trkpt lat="45.74275" lon="6.1613">
        <ele>1147.95</ele>
        <time>2014-02-01T10:01:26Z</time>
      </trkpt>
      <trkpt lat="45.74283" lon="6.16119">
        <ele>1150.35</ele>
        <time>2014-02-01T10:01:42Z</time>
      </trkpt>
      <trkpt lat="45.74292" lon="6.16114">
        <ele>1152.76</ele>
        <time>2014-02-01T10:01:56Z</time>
      </trkpt>
      <trkpt lat="45.74301" lon="6.16115">
        <ele>1155.16</ele>
        <time>2014-02-01T10:02:12Z</time>
      </trkpt>
      <trkpt lat="45.74312" lon="6.16112">
        <ele>1157.56</ele>
        <time>2014-02-01T10:02:27Z</time>
      </trkpt>
      <trkpt lat="45.74321" lon="6.1611">
        <ele>1159.49</ele>
        <time>2014-02-01T10:02:39Z</time>
      </trkpt>
      <trkpt lat="45.74325" lon="6.1611">
        <ele>1160.93</ele>
        <time>2014-02-01T10:02:51Z</time>
      </trkpt>
      <trkpt lat="45.74334" lon="6.1611">
        <ele>1162.37</ele>
        <time>2014-02-01T10:03:03Z</time>
      </trkpt>
      <trkpt lat="45.74347" lon="6.16107">
        <ele>1164.77</ele>
        <time>2014-02-01T10:03:19Z</time>
      </trkpt>
      <trkpt lat="45.74351" lon="6.16109">
        <ele>1165.74</ele>
        <time>2014-02-01T10:03:34Z</time>
      </trkpt>
      <trkpt lat="45.7436" lon="6.16104">
        <ele>1168.14</ele>
        <time>2014-02-01T10:03:51Z</time>
      </trkpt>
      <trkpt lat="45.7437" lon="6.16097">
        <ele>1171.02</ele>
        <time>2014-02-01T10:04:06Z</time>
      </trkpt>
      <trkpt lat="45.74378" lon="6.1609">
        <ele>1173.43</ele>
        <time>2014-02-01T10:04:19Z</time>
      </trkpt>
      <trkpt lat="45.74384" lon="6.16078">
        <ele>1173.91</ele>
        <time>2014-02-01T10:04:32Z</time>
      </trkpt>
      <trkpt lat="45.74388" lon="6.16068">
        <ele>1172.47</ele>
        <time>2014-02-01T10:05:05Z</time>
      </trkpt>
      <trkpt lat="45.74387" lon="6.1607">
        <ele>1174.39</ele>
        <time>2014-02-01T10:05:39Z</time>
      </trkpt>
      <trkpt lat="45.74384" lon="6.16072">
        <ele>1172.95</ele>
        <time>2014-02-01T10:05:57Z</time>
      </trkpt>
      <trkpt lat="45.74385" lon="6.16073">
        <ele>1174.39</ele>
        <time>2014-02-01T10:06:08Z</time>
      </trkpt>
      <trkpt lat="45.74382" lon="6.16077">
        <ele>1174.39</ele>
        <time>2014-02-01T10:06:29Z</time>
      </trkpt>
      <trkpt lat="45.74388" lon="6.1608">
        <ele>1175.35</ele>
        <time>2014-02-01T10:06:51Z</time>
      </trkpt>
      <trkpt lat="45.7439" lon="6.16082">
        <ele>1175.83</ele>
        <time>2014-02-01T10:07:09Z</time>
      </trkpt>
      <trkpt lat="45.74399" lon="6.16083">
        <ele>1178.71</ele>
        <time>2014-02-01T10:07:24Z</time>
      </trkpt>
      <trkpt lat="45.74406" lon="6.16082">
        <ele>1180.64</ele>
        <time>2014-02-01T10:07:42Z</time>
      </trkpt>
      <trkpt lat="45.74414" lon="6.16082">
        <ele>1182.08</ele>
        <time>2014-02-01T10:07:58Z</time>
      </trkpt>
      <trkpt lat="45.74421" lon="6.16083">
        <ele>1182.56</ele>
        <time>2014-02-01T10:08:18Z</time>
      </trkpt>
      <trkpt lat="45.74428" lon="6.16085">
        <ele>1184</ele>
        <time>2014-02-01T10:08:34Z</time>
      </trkpt>
      <trkpt lat="45.74436" lon="6.16082">
        <ele>1186.88</ele>
        <time>2014-02-01T10:08:48Z</time>
      </trkpt>
      <trkpt lat="45.74443" lon="6.16079">
        <ele>1189.77</ele>
        <time>2014-02-01T10:09:01Z</time>
      </trkpt>
      <trkpt lat="45.74449" lon="6.16077">
        <ele>1190.73</ele>
        <time>2014-02-01T10:09:10Z</time>
      </trkpt>
      <trkpt lat="45.74461" lon="6.16077">
        <ele>1193.61</ele>
        <time>2014-02-01T10:09:25Z</time>
      </trkpt>
      <trkpt lat="45.7447" lon="6.16076">
        <ele>1196.5</ele>
        <time>2014-02-01T10:09:40Z</time>
      </trkpt>
      <trkpt lat="45.74481" lon="6.16076">
        <ele>1198.9</ele>
        <time>2014-02-01T10:09:55Z</time>
      </trkpt>
      <trkpt lat="45.7449" lon="6.16073">
        <ele>1201.79</ele>
        <time>2014-02-01T10:10:11Z</time>
      </trkpt>
      <trkpt lat="45.74502" lon="6.16066">
        <ele>1204.67</ele>
        <time>2014-02-01T10:10:27Z</time>
      </trkpt>
      <trkpt lat="45.74512" lon="6.16063">
        <ele>1208.03</ele>
        <time>2014-02-01T10:10:44Z</time>
      </trkpt>
      <trkpt lat="45.7452" lon="6.16058">
        <ele>1210.44</ele>
        <time>2014-02-01T10:11:00Z</time>
      </trkpt>
      <trkpt lat="45.7453" lon="6.16051">
        <ele>1213.32</ele>
        <time>2014-02-01T10:11:15Z</time>
      </trkpt>
      <trkpt lat="45.74539" lon="6.16049">
        <ele>1216.69</ele>
        <time>2014-02-01T10:11:31Z</time>
      </trkpt>
      <trkpt lat="45.74541" lon="6.16048">
        <ele>1218.13</ele>
        <time>2014-02-01T10:11:46Z</time>
      </trkpt>
      <trkpt lat="45.74549" lon="6.16046">
        <ele>1220.05</ele>
        <time>2014-02-01T10:12:01Z</time>
      </trkpt>
      <trkpt lat="45.74559" lon="6.16044">
        <ele>1221.97</ele>
        <time>2014-02-01T10:12:15Z</time>
      </trkpt>
      <trkpt lat="45.74568" lon="6.16041">
        <ele>1224.38</ele>
        <time>2014-02-01T10:12:29Z</time>
      </trkpt>
      <trkpt lat="45.74575" lon="6.16037">
        <ele>1225.82</ele>
        <time>2014-02-01T10:12:44Z</time>
      </trkpt>
      <trkpt lat="45.74587" lon="6.16036">
        <ele>1228.7</ele>
        <time>2014-02-01T10:12:59Z</time>
      </trkpt>
      <trkpt lat="45.74595" lon="6.16031">
        <ele>1231.11</ele>
        <time>2014-02-01T10:13:13Z</time>
      </trkpt>
      <trkpt lat="45.74603" lon="6.16024">
        <ele>1233.51</ele>
        <time>2014-02-01T10:13:28Z</time>
      </trkpt>
      <trkpt lat="45.74611" lon="6.16018">
        <ele>1236.87</ele>
        <time>2014-02-01T10:13:44Z</time>
      </trkpt>
      <trkpt lat="45.7462" lon="6.16017">
        <ele>1238.8</ele>
        <time>2014-02-01T10:13:59Z</time>
      </trkpt>
      <trkpt lat="45.74624" lon="6.16022">
        <ele>1238.8</ele>
        <time>2014-02-01T10:14:27Z</time>
      </trkpt>
      <trkpt lat="45.74626" lon="6.16019">
        <ele>1239.28</ele>
        <time>2014-02-01T10:14:57Z</time>
      </trkpt>
      <trkpt lat="45.74636" lon="6.16014">
        <ele>1241.68</ele>
        <time>2014-02-01T10:15:13Z</time>
      </trkpt>
      <trkpt lat="45.74639" lon="6.16011">
        <ele>1242.16</ele>
        <time>2014-02-01T10:15:34Z</time>
      </trkpt>
      <trkpt lat="45.74644" lon="6.16005">
        <ele>1243.6</ele>
        <time>2014-02-01T10:15:50Z</time>
      </trkpt>
      <trkpt lat="45.74654" lon="6.16">
        <ele>1246.49</ele>
        <time>2014-02-01T10:16:07Z</time>
      </trkpt>
      <trkpt lat="45.74666" lon="6.15994">
        <ele>1249.37</ele>
        <time>2014-02-01T10:16:22Z</time>
      </trkpt>
      <trkpt lat="45.74668" lon="6.15988">
        <ele>1250.33</ele>
        <time>2014-02-01T10:16:33Z</time>
      </trkpt>
      <trkpt lat="45.74666" lon="6.16">
        <ele>1251.77</ele>
        <time>2014-02-01T10:16:48Z</time>
      </trkpt>
      <trkpt lat="45.74661" lon="6.16011">
        <ele>1253.7</ele>
        <time>2014-02-01T10:17:02Z</time>
      </trkpt>
      <trkpt lat="45.74658" lon="6.16019">
        <ele>1255.14</ele>
        <time>2014-02-01T10:17:10Z</time>
      </trkpt>
      <trkpt lat="45.74653" lon="6.16034">
        <ele>1257.06</ele>
        <time>2014-02-01T10:17:25Z</time>
      </trkpt>
      <trkpt lat="45.74652" lon="6.16033">
        <ele>1258.02</ele>
        <time>2014-02-01T10:17:39Z</time>
      </trkpt>
      <trkpt lat="45.74659" lon="6.1604">
        <ele>1258.02</ele>
        <time>2014-02-01T10:18:01Z</time>
      </trkpt>
      <trkpt lat="45.74657" lon="6.16041">
        <ele>1258.02</ele>
        <time>2014-02-01T10:18:03Z</time>
      </trkpt>
      <trkpt lat="45.74647" lon="6.16059">
        <ele>1260.43</ele>
        <time>2014-02-01T10:18:15Z</time>
      </trkpt>
      <trkpt lat="45.74649" lon="6.16066">
        <ele>1261.87</ele>
        <time>2014-02-01T10:18:23Z</time>
      </trkpt>
      <trkpt lat="45.74658" lon="6.16066">
        <ele>1264.27</ele>
        <time>2014-02-01T10:18:37Z</time>
      </trkpt>
      <trkpt lat="45.74667" lon="6.16062">
        <ele>1266.67</ele>
        <time>2014-02-01T10:18:51Z</time>
      </trkpt>
      <trkpt lat="45.74678" lon="6.16054">
        <ele>1269.08</ele>
        <time>2014-02-01T10:19:05Z</time>
      </trkpt>
      <trkpt lat="45.74693" lon="6.16042">
        <ele>1271</ele>
        <time>2014-02-01T10:19:21Z</time>
      </trkpt>
      <trkpt lat="45.74696" lon="6.1604">
        <ele>1271.48</ele>
        <time>2014-02-01T10:19:24Z</time>
      </trkpt>
      <trkpt lat="45.74711" lon="6.16029">
        <ele>1273.4</ele>
        <time>2014-02-01T10:19:40Z</time>
      </trkpt>
      <trkpt lat="45.74721" lon="6.16021">
        <ele>1276.77</ele>
        <time>2014-02-01T10:19:54Z</time>
      </trkpt>
      <trkpt lat="45.74734" lon="6.16012">
        <ele>1279.65</ele>
        <time>2014-02-01T10:20:10Z</time>
      </trkpt>
      <trkpt lat="45.74746" lon="6.16002">
        <ele>1282.54</ele>
        <time>2014-02-01T10:20:26Z</time>
      </trkpt>
      <trkpt lat="45.74759" lon="6.15992">
        <ele>1284.46</ele>
        <time>2014-02-01T10:20:42Z</time>
      </trkpt>
      <trkpt lat="45.7476" lon="6.15984">
        <ele>1284.94</ele>
        <time>2014-02-01T10:20:59Z</time>
      </trkpt>
      <trkpt lat="45.74759" lon="6.15983">
        <ele>1284.94</ele>
        <time>2014-02-01T10:21:24Z</time>
      </trkpt>
      <trkpt lat="45.7476" lon="6.15987">
        <ele>1284.94</ele>
        <time>2014-02-01T10:22:07Z</time>
      </trkpt>
      <trkpt lat="45.74767" lon="6.1599">
        <ele>1285.9</ele>
        <time>2014-02-01T10:22:33Z</time>
      </trkpt>
      <trkpt lat="45.74778" lon="6.15973">
        <ele>1289.27</ele>
        <time>2014-02-01T10:22:49Z</time>
      </trkpt>
      <trkpt lat="45.74789" lon="6.1596">
        <ele>1292.15</ele>
        <time>2014-02-01T10:23:05Z</time>
      </trkpt>
      <trkpt lat="45.74797" lon="6.15951">
        <ele>1294.07</ele>
        <time>2014-02-01T10:23:19Z</time>
      </trkpt>
      <trkpt lat="45.74805" lon="6.15941">
        <ele>1296.96</ele>
        <time>2014-02-01T10:23:34Z</time>
      </trkpt>
      <trkpt lat="45.74812" lon="6.15933">
        <ele>1298.4</ele>
        <time>2014-02-01T10:23:46Z</time>
      </trkpt>
      <trkpt lat="45.74813" lon="6.15931">
        <ele>1298.88</ele>
        <time>2014-02-01T10:23:59Z</time>
      </trkpt>
      <trkpt lat="45.74813" lon="6.15935">
        <ele>1299.84</ele>
        <time>2014-02-01T10:24:07Z</time>
      </trkpt>
      <trkpt lat="45.7481" lon="6.15953">
        <ele>1302.24</ele>
        <time>2014-02-01T10:24:24Z</time>
      </trkpt>
      <trkpt lat="45.74808" lon="6.15961">
        <ele>1303.2</ele>
        <time>2014-02-01T10:24:31Z</time>
      </trkpt>
      <trkpt lat="45.74804" lon="6.15979">
        <ele>1306.09</ele>
        <time>2014-02-01T10:24:48Z</time>
      </trkpt>
      <trkpt lat="45.74801" lon="6.15997">
        <ele>1307.53</ele>
        <time>2014-02-01T10:25:02Z</time>
      </trkpt>
      <trkpt lat="45.74797" lon="6.16017">
        <ele>1309.93</ele>
        <time>2014-02-01T10:25:17Z</time>
      </trkpt>
      <trkpt lat="45.74795" lon="6.16027">
        <ele>1311.86</ele>
        <time>2014-02-01T10:25:24Z</time>
      </trkpt>
      <trkpt lat="45.7479" lon="6.16043">
        <ele>1313.78</ele>
        <time>2014-02-01T10:25:39Z</time>
      </trkpt>
      <trkpt lat="45.74786" lon="6.16058">
        <ele>1316.18</ele>
        <time>2014-02-01T10:25:54Z</time>
      </trkpt>
      <trkpt lat="45.74782" lon="6.16072">
        <ele>1317.62</ele>
        <time>2014-02-01T10:26:09Z</time>
      </trkpt>
      <trkpt lat="45.74782" lon="6.16074">
        <ele>1317.62</ele>
        <time>2014-02-01T10:26:22Z</time>
      </trkpt>
      <trkpt lat="45.74783" lon="6.16079">
        <ele>1318.1</ele>
        <time>2014-02-01T10:26:40Z</time>
      </trkpt>
      <trkpt lat="45.74774" lon="6.16092">
        <ele>1320.03</ele>
        <time>2014-02-01T10:26:53Z</time>
      </trkpt>
      <trkpt lat="45.74767" lon="6.16101">
        <ele>1321.95</ele>
        <time>2014-02-01T10:27:05Z</time>
      </trkpt>
      <trkpt lat="45.74757" lon="6.16115">
        <ele>1323.87</ele>
        <time>2014-02-01T10:27:17Z</time>
      </trkpt>
      <trkpt lat="45.74749" lon="6.16132">
        <ele>1325.8</ele>
        <time>2014-02-01T10:27:31Z</time>
      </trkpt>
      <trkpt lat="45.74742" lon="6.16145">
        <ele>1326.76</ele>
        <time>2014-02-01T10:27:43Z</time>
      </trkpt>
      <trkpt lat="45.74739" lon="6.16155">
        <ele>1328.68</ele>
        <time>2014-02-01T10:27:56Z</time>
      </trkpt>
      <trkpt lat="45.74732" lon="6.16159">
        <ele>1328.68</ele>
        <time>2014-02-01T10:28:29Z</time>
      </trkpt>
      <trkpt lat="45.74732" lon="6.16169">
        <ele>1329.16</ele>
        <time>2014-02-01T10:28:44Z</time>
      </trkpt>
      <trkpt lat="45.74729" lon="6.1618">
        <ele>1329.64</ele>
        <time>2014-02-01T10:28:53Z</time>
      </trkpt>
      <trkpt lat="45.7472" lon="6.16189">
        <ele>1331.56</ele>
        <time>2014-02-01T10:29:07Z</time>
      </trkpt>
      <trkpt lat="45.74713" lon="6.16197">
        <ele>1332.04</ele>
        <time>2014-02-01T10:29:15Z</time>
      </trkpt>
      <trkpt lat="45.74698" lon="6.16228">
        <ele>1334.93</ele>
        <time>2014-02-01T10:29:35Z</time>
      </trkpt>
      <trkpt lat="45.74691" lon="6.16239">
        <ele>1336.37</ele>
        <time>2014-02-01T10:29:44Z</time>
      </trkpt>
      <trkpt lat="45.74681" lon="6.16249">
        <ele>1338.29</ele>
        <time>2014-02-01T10:29:58Z</time>
      </trkpt>
      <trkpt lat="45.74676" lon="6.16253">
        <ele>1338.77</ele>
        <time>2014-02-01T10:30:14Z</time>
      </trkpt>
      <trkpt lat="45.74668" lon="6.16261">
        <ele>1339.73</ele>
        <time>2014-02-01T10:30:29Z</time>
      </trkpt>
      <trkpt lat="45.74667" lon="6.16262">
        <ele>1339.73</ele>
        <time>2014-02-01T10:30:56Z</time>
      </trkpt>
      <trkpt lat="45.74667" lon="6.16265">
        <ele>1339.73</ele>
        <time>2014-02-01T10:31:31Z</time>
      </trkpt>
      <trkpt lat="45.74669" lon="6.16261">
        <ele>1339.73</ele>
        <time>2014-02-01T10:32:06Z</time>
      </trkpt>
      <trkpt lat="45.74664" lon="6.16268">
        <ele>1340.22</ele>
        <time>2014-02-01T10:32:22Z</time>
      </trkpt>
      <trkpt lat="45.74653" lon="6.16282">
        <ele>1341.66</ele>
        <time>2014-02-01T10:32:37Z</time>
      </trkpt>
      <trkpt lat="45.74653" lon="6.16283">
        <ele>1341.66</ele>
        <time>2014-02-01T10:32:38Z</time>
      </trkpt>
      <trkpt lat="45.74646" lon="6.16299">
        <ele>1343.58</ele>
        <time>2014-02-01T10:32:52Z</time>
      </trkpt>
      <trkpt lat="45.74645" lon="6.16308">
        <ele>1344.54</ele>
        <time>2014-02-01T10:33:09Z</time>
      </trkpt>
      <trkpt lat="45.74652" lon="6.16313">
        <ele>1345.98</ele>
        <time>2014-02-01T10:33:23Z</time>
      </trkpt>
      <trkpt lat="45.74659" lon="6.16313">
        <ele>1347.91</ele>
        <time>2014-02-01T10:33:39Z</time>
      </trkpt>
      <trkpt lat="45.74667" lon="6.16309">
        <ele>1349.83</ele>
        <time>2014-02-01T10:33:54Z</time>
      </trkpt>
      <trkpt lat="45.74678" lon="6.16306">
        <ele>1352.71</ele>
        <time>2014-02-01T10:34:07Z</time>
      </trkpt>
      <trkpt lat="45.74687" lon="6.16302">
        <ele>1354.63</ele>
        <time>2014-02-01T10:34:20Z</time>
      </trkpt>
      <trkpt lat="45.747" lon="6.163">
        <ele>1356.56</ele>
        <time>2014-02-01T10:34:33Z</time>
      </trkpt>
      <trkpt lat="45.7471" lon="6.16296">
        <ele>1358.48</ele>
        <time>2014-02-01T10:34:46Z</time>
      </trkpt>
      <trkpt lat="45.74722" lon="6.16292">
        <ele>1360.4</ele>
        <time>2014-02-01T10:35:00Z</time>
      </trkpt>
      <trkpt lat="45.74735" lon="6.16285">
        <ele>1362.81</ele>
        <time>2014-02-01T10:35:15Z</time>
      </trkpt>
      <trkpt lat="45.74746" lon="6.16279">
        <ele>1365.21</ele>
        <time>2014-02-01T10:35:28Z</time>
      </trkpt>
      <trkpt lat="45.74761" lon="6.16274">
        <ele>1367.13</ele>
        <time>2014-02-01T10:35:41Z</time>
      </trkpt>
      <trkpt lat="45.74774" lon="6.16264">
        <ele>1370.5</ele>
        <time>2014-02-01T10:35:57Z</time>
      </trkpt>
      <trkpt lat="45.74785" lon="6.16256">
        <ele>1372.9</ele>
        <time>2014-02-01T10:36:11Z</time>
      </trkpt>
      <trkpt lat="45.74796" lon="6.16245">
        <ele>1374.34</ele>
        <time>2014-02-01T10:36:24Z</time>
      </trkpt>
      <trkpt lat="45.74812" lon="6.16233">
        <ele>1376.75</ele>
        <time>2014-02-01T10:36:39Z</time>
      </trkpt>
      <trkpt lat="45.74824" lon="6.16226">
        <ele>1379.15</ele>
        <time>2014-02-01T10:36:51Z</time>
      </trkpt>
      <trkpt lat="45.74834" lon="6.16218">
        <ele>1381.55</ele>
        <time>2014-02-01T10:37:04Z</time>
      </trkpt>
      <trkpt lat="45.74845" lon="6.16209">
        <ele>1383.47</ele>
        <time>2014-02-01T10:37:16Z</time>
      </trkpt>
      <trkpt lat="45.74852" lon="6.16204">
        <ele>1384.44</ele>
        <time>2014-02-01T10:37:24Z</time>
      </trkpt>
      <trkpt lat="45.74858" lon="6.16202">
        <ele>1385.4</ele>
        <time>2014-02-01T10:37:29Z</time>
      </trkpt>
      <trkpt lat="45.74871" lon="6.16193">
        <ele>1388.76</ele>
        <time>2014-02-01T10:37:45Z</time>
      </trkpt>
      <trkpt lat="45.74884" lon="6.16183">
        <ele>1391.17</ele>
        <time>2014-02-01T10:38:00Z</time>
      </trkpt>
      <trkpt lat="45.74892" lon="6.1618">
        <ele>1391.17</ele>
        <time>2014-02-01T10:38:28Z</time>
      </trkpt>
      <trkpt lat="45.74896" lon="6.1616">
        <ele>1390.2</ele>
        <time>2014-02-01T10:38:42Z</time>
      </trkpt>
      <trkpt lat="45.74895" lon="6.16163">
        <ele>1389.72</ele>
        <time>2014-02-01T10:39:07Z</time>
      </trkpt>
      <trkpt lat="45.74893" lon="6.16168">
        <ele>1391.17</ele>
        <time>2014-02-01T10:39:35Z</time>
      </trkpt>
      <trkpt lat="45.74896" lon="6.16167">
        <ele>1391.65</ele>
        <time>2014-02-01T10:39:52Z</time>
      </trkpt>
      <trkpt lat="45.74907" lon="6.16165">
        <ele>1394.53</ele>
        <time>2014-02-01T10:40:08Z</time>
      </trkpt>
      <trkpt lat="45.74924" lon="6.16159">
        <ele>1396.93</ele>
        <time>2014-02-01T10:40:25Z</time>
      </trkpt>
      <trkpt lat="45.74926" lon="6.16154">
        <ele>1397.41</ele>
        <time>2014-02-01T10:40:40Z</time>
      </trkpt>
      <trkpt lat="45.74929" lon="6.16151">
        <ele>1397.89</ele>
        <time>2014-02-01T10:40:57Z</time>
      </trkpt>
      <trkpt lat="45.7494" lon="6.16149">
        <ele>1399.82</ele>
        <time>2014-02-01T10:41:11Z</time>
      </trkpt>
      <trkpt lat="45.74948" lon="6.1614">
        <ele>1400.3</ele>
        <time>2014-02-01T10:41:24Z</time>
      </trkpt>
      <trkpt lat="45.74958" lon="6.16132">
        <ele>1402.7</ele>
        <time>2014-02-01T10:41:39Z</time>
      </trkpt>
      <trkpt lat="45.74973" lon="6.16124">
        <ele>1405.58</ele>
        <time>2014-02-01T10:41:55Z</time>
      </trkpt>
      <trkpt lat="45.74979" lon="6.16119">
        <ele>1406.07</ele>
        <time>2014-02-01T10:42:06Z</time>
      </trkpt>
      <trkpt lat="45.74984" lon="6.16116">
        <ele>1407.03</ele>
        <time>2014-02-01T10:42:19Z</time>
      </trkpt>
      <trkpt lat="45.74991" lon="6.16112">
        <ele>1407.51</ele>
        <time>2014-02-01T10:42:33Z</time>
      </trkpt>
      <trkpt lat="45.75001" lon="6.16105">
        <ele>1409.91</ele>
        <time>2014-02-01T10:42:48Z</time>
      </trkpt>
      <trkpt lat="45.75013" lon="6.16096">
        <ele>1412.79</ele>
        <time>2014-02-01T10:43:04Z</time>
      </trkpt>
      <trkpt lat="45.75022" lon="6.1609">
        <ele>1414.24</ele>
        <time>2014-02-01T10:43:19Z</time>
      </trkpt>
      <trkpt lat="45.75031" lon="6.16083">
        <ele>1414.24</ele>
        <time>2014-02-01T10:43:43Z</time>
      </trkpt>
      <trkpt lat="45.7503" lon="6.16084">
        <ele>1414.72</ele>
        <time>2014-02-01T10:44:19Z</time>
      </trkpt>
      <trkpt lat="45.75041" lon="6.16076">
        <ele>1416.16</ele>
        <time>2014-02-01T10:44:33Z</time>
      </trkpt>
      <trkpt lat="45.75048" lon="6.16069">
        <ele>1417.6</ele>
        <time>2014-02-01T10:44:47Z</time>
      </trkpt>
      <trkpt lat="45.75056" lon="6.16062">
        <ele>1419.04</ele>
        <time>2014-02-01T10:45:01Z</time>
      </trkpt>
      <trkpt lat="45.75064" lon="6.16057">
        <ele>1421.45</ele>
        <time>2014-02-01T10:45:16Z</time>
      </trkpt>
      <trkpt lat="45.7507" lon="6.1605">
        <ele>1422.41</ele>
        <time>2014-02-01T10:45:33Z</time>
      </trkpt>
      <trkpt lat="45.75071" lon="6.16046">
        <ele>1422.41</ele>
        <time>2014-02-01T10:45:58Z</time>
      </trkpt>
      <trkpt lat="45.75071" lon="6.16047">
        <ele>1422.89</ele>
        <time>2014-02-01T10:46:35Z</time>
      </trkpt>
      <trkpt lat="45.75069" lon="6.16047">
        <ele>1423.37</ele>
        <time>2014-02-01T10:47:13Z</time>
      </trkpt>
      <trkpt lat="45.75073" lon="6.16046">
        <ele>1423.37</ele>
        <time>2014-02-01T10:47:53Z</time>
      </trkpt>
      <trkpt lat="45.75078" lon="6.16041">
        <ele>1424.33</ele>
        <time>2014-02-01T10:48:16Z</time>
      </trkpt>
      <trkpt lat="45.75088" lon="6.16036">
        <ele>1426.73</ele>
        <time>2014-02-01T10:48:30Z</time>
      </trkpt>
      <trkpt lat="45.75096" lon="6.1603">
        <ele>1428.66</ele>
        <time>2014-02-01T10:48:43Z</time>
      </trkpt>
      <trkpt lat="45.75098" lon="6.16029">
        <ele>1429.14</ele>
        <time>2014-02-01T10:48:46Z</time>
      </trkpt>
      <trkpt lat="45.75109" lon="6.16022">
        <ele>1431.54</ele>
        <time>2014-02-01T10:49:00Z</time>
      </trkpt>
      <trkpt lat="45.75119" lon="6.16016">
        <ele>1433.46</ele>
        <time>2014-02-01T10:49:14Z</time>
      </trkpt>
      <trkpt lat="45.75122" lon="6.16013">
        <ele>1433.94</ele>
        <time>2014-02-01T10:49:18Z</time>
      </trkpt>
      <trkpt lat="45.75133" lon="6.16005">
        <ele>1435.87</ele>
        <time>2014-02-01T10:49:32Z</time>
      </trkpt>
      <trkpt lat="45.75145" lon="6.15995">
        <ele>1437.31</ele>
        <time>2014-02-01T10:49:46Z</time>
      </trkpt>
      <trkpt lat="45.75158" lon="6.15983">
        <ele>1439.23</ele>
        <time>2014-02-01T10:50:01Z</time>
      </trkpt>
      <trkpt lat="45.75171" lon="6.15968">
        <ele>1442.11</ele>
        <time>2014-02-01T10:50:17Z</time>
      </trkpt>
      <trkpt lat="45.75184" lon="6.15953">
        <ele>1444.52</ele>
        <time>2014-02-01T10:50:32Z</time>
      </trkpt>
      <trkpt lat="45.7519" lon="6.15945">
        <ele>1446.44</ele>
        <time>2014-02-01T10:50:45Z</time>
      </trkpt>
      <trkpt lat="45.75195" lon="6.15942">
        <ele>1447.88</ele>
        <time>2014-02-01T10:50:57Z</time>
      </trkpt>
      <trkpt lat="45.75196" lon="6.15942">
        <ele>1447.88</ele>
        <time>2014-02-01T10:50:58Z</time>
      </trkpt>
      <trkpt lat="45.75209" lon="6.1594">
        <ele>1450.29</ele>
        <time>2014-02-01T10:51:13Z</time>
      </trkpt>
      <trkpt lat="45.75226" lon="6.15935">
        <ele>1452.69</ele>
        <time>2014-02-01T10:51:30Z</time>
      </trkpt>
      <trkpt lat="45.7524" lon="6.15936">
        <ele>1455.57</ele>
        <time>2014-02-01T10:51:46Z</time>
      </trkpt>
      <trkpt lat="45.75248" lon="6.15937">
        <ele>1457.5</ele>
        <time>2014-02-01T10:51:55Z</time>
      </trkpt>
      <trkpt lat="45.75252" lon="6.15938">
        <ele>1458.46</ele>
        <time>2014-02-01T10:52:00Z</time>
      </trkpt>
      <trkpt lat="45.75259" lon="6.15941">
        <ele>1460.38</ele>
        <time>2014-02-01T10:52:16Z</time>
      </trkpt>
      <trkpt lat="45.75263" lon="6.15939">
        <ele>1460.38</ele>
        <time>2014-02-01T10:52:32Z</time>
      </trkpt>
      <trkpt lat="45.75265" lon="6.15937">
        <ele>1460.38</ele>
        <time>2014-02-01T10:53:01Z</time>
      </trkpt>
      <trkpt lat="45.75266" lon="6.15942">
        <ele>1459.9</ele>
        <time>2014-02-01T10:53:40Z</time>
      </trkpt>
      <trkpt lat="45.75264" lon="6.15943">
        <ele>1459.9</ele>
        <time>2014-02-01T10:54:12Z</time>
      </trkpt>
      <trkpt lat="45.75268" lon="6.15942">
        <ele>1459.9</ele>
        <time>2014-02-01T10:54:46Z</time>
      </trkpt>
      <trkpt lat="45.75268" lon="6.15943">
        <ele>1459.42</ele>
        <time>2014-02-01T10:55:19Z</time>
      </trkpt>
      <trkpt lat="45.75267" lon="6.15943">
        <ele>1459.42</ele>
        <time>2014-02-01T10:56:02Z</time>
      </trkpt>
      <trkpt lat="45.75263" lon="6.15944">
        <ele>1459.42</ele>
        <time>2014-02-01T10:56:17Z</time>
      </trkpt>
      <trkpt lat="45.75262" lon="6.15943">
        <ele>1459.42</ele>
        <time>2014-02-01T10:56:42Z</time>
      </trkpt>
      <trkpt lat="45.75263" lon="6.15944">
        <ele>1459.42</ele>
        <time>2014-02-01T10:57:02Z</time>
      </trkpt>
      <trkpt lat="45.75263" lon="6.15943">
        <ele>1459.42</ele>
        <time>2014-02-01T10:57:31Z</time>
      </trkpt>
      <trkpt lat="45.75263" lon="6.15945">
        <ele>1459.42</ele>
        <time>2014-02-01T10:57:57Z</time>
      </trkpt>
      <trkpt lat="45.75263" lon="6.15948">
        <ele>1458.94</ele>
        <time>2014-02-01T10:58:53Z</time>
      </trkpt>
      <trkpt lat="45.75262" lon="6.15946">
        <ele>1458.94</ele>
        <time>2014-02-01T10:59:15Z</time>
      </trkpt>
      <trkpt lat="45.75262" lon="6.15946">
        <ele>1458.94</ele>
        <time>2014-02-01T10:59:28Z</time>
      </trkpt>
      <trkpt lat="45.75272" lon="6.15955">
        <ele>1460.38</ele>
        <time>2014-02-01T10:59:42Z</time>
      </trkpt>
      <trkpt lat="45.75274" lon="6.15956">
        <ele>1461.34</ele>
        <time>2014-02-01T10:59:57Z</time>
      </trkpt>
      <trkpt lat="45.75281" lon="6.1596">
        <ele>1461.82</ele>
        <time>2014-02-01T11:00:20Z</time>
      </trkpt>
      <trkpt lat="45.75288" lon="6.15963">
        <ele>1462.78</ele>
        <time>2014-02-01T11:00:28Z</time>
      </trkpt>
      <trkpt lat="45.75301" lon="6.15969">
        <ele>1465.19</ele>
        <time>2014-02-01T11:00:43Z</time>
      </trkpt>
      <trkpt lat="45.75314" lon="6.15973">
        <ele>1466.63</ele>
        <time>2014-02-01T11:00:56Z</time>
      </trkpt>
      <trkpt lat="45.75318" lon="6.15974">
        <ele>1468.07</ele>
        <time>2014-02-01T11:01:01Z</time>
      </trkpt>
      <trkpt lat="45.75321" lon="6.15975">
        <ele>1468.55</ele>
        <time>2014-02-01T11:01:04Z</time>
      </trkpt>
      <trkpt lat="45.75334" lon="6.15981">
        <ele>1470.95</ele>
        <time>2014-02-01T11:01:19Z</time>
      </trkpt>
      <trkpt lat="45.75349" lon="6.15986">
        <ele>1473.36</ele>
        <time>2014-02-01T11:01:34Z</time>
      </trkpt>
      <trkpt lat="45.75361" lon="6.15986">
        <ele>1474.8</ele>
        <time>2014-02-01T11:01:46Z</time>
      </trkpt>
      <trkpt lat="45.75366" lon="6.15988">
        <ele>1476.24</ele>
        <time>2014-02-01T11:02:00Z</time>
      </trkpt>
      <trkpt lat="45.75365" lon="6.15988">
        <ele>1477.68</ele>
        <time>2014-02-01T11:02:06Z</time>
      </trkpt>
      <trkpt lat="45.75365" lon="6.15988">
        <ele>1477.68</ele>
        <time>2014-02-01T11:02:07Z</time>
      </trkpt>
      <trkpt lat="45.75355" lon="6.15992">
        <ele>1478.65</ele>
        <time>2014-02-01T11:02:20Z</time>
      </trkpt>
      <trkpt lat="45.75355" lon="6.15991">
        <ele>1477.68</ele>
        <time>2014-02-01T11:02:21Z</time>
      </trkpt>
      <trkpt lat="45.75356" lon="6.15994">
        <ele>1477.68</ele>
        <time>2014-02-01T11:02:28Z</time>
      </trkpt>
      <trkpt lat="45.75364" lon="6.16">
        <ele>1480.09</ele>
        <time>2014-02-01T11:02:41Z</time>
      </trkpt>
      <trkpt lat="45.75379" lon="6.16004">
        <ele>1482.49</ele>
        <time>2014-02-01T11:02:57Z</time>
      </trkpt>
      <trkpt lat="45.75394" lon="6.16006">
        <ele>1483.45</ele>
        <time>2014-02-01T11:03:12Z</time>
      </trkpt>
      <trkpt lat="45.75407" lon="6.16016">
        <ele>1485.85</ele>
        <time>2014-02-01T11:03:29Z</time>
      </trkpt>
      <trkpt lat="45.75415" lon="6.1603">
        <ele>1489.22</ele>
        <time>2014-02-01T11:03:44Z</time>
      </trkpt>
      <trkpt lat="45.75419" lon="6.16037">
        <ele>1491.14</ele>
        <time>2014-02-01T11:03:58Z</time>
      </trkpt>
      <trkpt lat="45.75416" lon="6.16038">
        <ele>1491.62</ele>
        <time>2014-02-01T11:04:13Z</time>
      </trkpt>
      <trkpt lat="45.75413" lon="6.16038">
        <ele>1493.55</ele>
        <time>2014-02-01T11:04:19Z</time>
      </trkpt>
      <trkpt lat="45.75404" lon="6.16041">
        <ele>1495.95</ele>
        <time>2014-02-01T11:04:34Z</time>
      </trkpt>
      <trkpt lat="45.75402" lon="6.16042">
        <ele>1496.43</ele>
        <time>2014-02-01T11:04:37Z</time>
      </trkpt>
      <trkpt lat="45.75391" lon="6.16048">
        <ele>1499.79</ele>
        <time>2014-02-01T11:04:52Z</time>
      </trkpt>
      <trkpt lat="45.7539" lon="6.16048">
        <ele>1499.79</ele>
        <time>2014-02-01T11:04:54Z</time>
      </trkpt>
      <trkpt lat="45.75381" lon="6.16053">
        <ele>1502.2</ele>
        <time>2014-02-01T11:05:09Z</time>
      </trkpt>
      <trkpt lat="45.75379" lon="6.16056">
        <ele>1503.64</ele>
        <time>2014-02-01T11:05:21Z</time>
      </trkpt>
      <trkpt lat="45.75381" lon="6.16059">
        <ele>1504.12</ele>
        <time>2014-02-01T11:05:35Z</time>
      </trkpt>
      <trkpt lat="45.75387" lon="6.16066">
        <ele>1505.08</ele>
        <time>2014-02-01T11:05:53Z</time>
      </trkpt>
      <trkpt lat="45.75389" lon="6.16066">
        <ele>1505.08</ele>
        <time>2014-02-01T11:06:17Z</time>
      </trkpt>
      <trkpt lat="45.75396" lon="6.16073">
        <ele>1507.48</ele>
        <time>2014-02-01T11:06:33Z</time>
      </trkpt>
      <trkpt lat="45.75399" lon="6.16077">
        <ele>1508.45</ele>
        <time>2014-02-01T11:06:38Z</time>
      </trkpt>
      <trkpt lat="45.75406" lon="6.16088">
        <ele>1510.85</ele>
        <time>2014-02-01T11:06:50Z</time>
      </trkpt>
      <trkpt lat="45.7541" lon="6.16091">
        <ele>1512.29</ele>
        <time>2014-02-01T11:07:04Z</time>
      </trkpt>
      <trkpt lat="45.75407" lon="6.16092">
        <ele>1513.25</ele>
        <time>2014-02-01T11:07:14Z</time>
      </trkpt>
      <trkpt lat="45.75404" lon="6.16094">
        <ele>1514.69</ele>
        <time>2014-02-01T11:07:28Z</time>
      </trkpt>
      <trkpt lat="45.75408" lon="6.16098">
        <ele>1515.66</ele>
        <time>2014-02-01T11:07:43Z</time>
      </trkpt>
      <trkpt lat="45.75409" lon="6.161">
        <ele>1515.66</ele>
        <time>2014-02-01T11:08:07Z</time>
      </trkpt>
      <trkpt lat="45.7541" lon="6.16101">
        <ele>1515.18</ele>
        <time>2014-02-01T11:08:30Z</time>
      </trkpt>
      <trkpt lat="45.75407" lon="6.161">
        <ele>1515.18</ele>
        <time>2014-02-01T11:08:52Z</time>
      </trkpt>
      <trkpt lat="45.75404" lon="6.16097">
        <ele>1516.14</ele>
        <time>2014-02-01T11:09:03Z</time>
      </trkpt>
      <trkpt lat="45.75404" lon="6.16099">
        <ele>1516.62</ele>
        <time>2014-02-01T11:09:16Z</time>
      </trkpt>
      <trkpt lat="45.75406" lon="6.16106">
        <ele>1518.06</ele>
        <time>2014-02-01T11:09:28Z</time>
      </trkpt>
      <trkpt lat="45.7541" lon="6.16109">
        <ele>1519.5</ele>
        <time>2014-02-01T11:09:44Z</time>
      </trkpt>
      <trkpt lat="45.75411" lon="6.1611">
        <ele>1520.46</ele>
        <time>2014-02-01T11:09:57Z</time>
      </trkpt>
      <trkpt lat="45.7541" lon="6.1611">
        <ele>1520.94</ele>
        <time>2014-02-01T11:09:59Z</time>
      </trkpt>
      <trkpt lat="45.75398" lon="6.16114">
        <ele>1523.35</ele>
        <time>2014-02-01T11:10:13Z</time>
      </trkpt>
      <trkpt lat="45.754" lon="6.1612">
        <ele>1524.79</ele>
        <time>2014-02-01T11:10:23Z</time>
      </trkpt>
      <trkpt lat="45.75411" lon="6.16131">
        <ele>1528.15</ele>
        <time>2014-02-01T11:10:38Z</time>
      </trkpt>
      <trkpt lat="45.75421" lon="6.16142">
        <ele>1531.04</ele>
        <time>2014-02-01T11:10:54Z</time>
      </trkpt>
      <trkpt lat="45.75428" lon="6.16148">
        <ele>1533.92</ele>
        <time>2014-02-01T11:11:10Z</time>
      </trkpt>
      <trkpt lat="45.75424" lon="6.16151">
        <ele>1534.88</ele>
        <time>2014-02-01T11:11:22Z</time>
      </trkpt>
      <trkpt lat="45.7542" lon="6.1615">
        <ele>1536.32</ele>
        <time>2014-02-01T11:11:35Z</time>
      </trkpt>
      <trkpt lat="45.75419" lon="6.16152">
        <ele>1536.8</ele>
        <time>2014-02-01T11:11:57Z</time>
      </trkpt>
      <trkpt lat="45.75419" lon="6.16152">
        <ele>1537.29</ele>
        <time>2014-02-01T11:12:15Z</time>
      </trkpt>
      <trkpt lat="45.75413" lon="6.16156">
        <ele>1538.73</ele>
        <time>2014-02-01T11:12:30Z</time>
      </trkpt>
      <trkpt lat="45.75402" lon="6.16163">
        <ele>1541.61</ele>
        <time>2014-02-01T11:12:46Z</time>
      </trkpt>
      <trkpt lat="45.75392" lon="6.1617">
        <ele>1544.5</ele>
        <time>2014-02-01T11:13:00Z</time>
      </trkpt>
      <trkpt lat="45.75382" lon="6.16176">
        <ele>1547.86</ele>
        <time>2014-02-01T11:13:14Z</time>
      </trkpt>
      <trkpt lat="45.75375" lon="6.16181">
        <ele>1550.26</ele>
        <time>2014-02-01T11:13:26Z</time>
      </trkpt>
      <trkpt lat="45.75373" lon="6.16186">
        <ele>1551.71</ele>
        <time>2014-02-01T11:13:39Z</time>
      </trkpt>
      <trkpt lat="45.75383" lon="6.1619">
        <ele>1553.15</ele>
        <time>2014-02-01T11:13:53Z</time>
      </trkpt>
      <trkpt lat="45.75393" lon="6.16195">
        <ele>1555.55</ele>
        <time>2014-02-01T11:14:11Z</time>
      </trkpt>
      <trkpt lat="45.75402" lon="6.16201">
        <ele>1558.43</ele>
        <time>2014-02-01T11:14:26Z</time>
      </trkpt>
      <trkpt lat="45.75402" lon="6.16201">
        <ele>1558.43</ele>
        <time>2014-02-01T11:14:27Z</time>
      </trkpt>
      <trkpt lat="45.75412" lon="6.16208">
        <ele>1560.84</ele>
        <time>2014-02-01T11:14:42Z</time>
      </trkpt>
      <trkpt lat="45.75422" lon="6.16214">
        <ele>1564.2</ele>
        <time>2014-02-01T11:14:56Z</time>
      </trkpt>
      <trkpt lat="45.75422" lon="6.16216">
        <ele>1564.2</ele>
        <time>2014-02-01T11:15:09Z</time>
      </trkpt>
      <trkpt lat="45.75416" lon="6.16218">
        <ele>1565.64</ele>
        <time>2014-02-01T11:15:16Z</time>
      </trkpt>
      <trkpt lat="45.75405" lon="6.1622">
        <ele>1567.57</ele>
        <time>2014-02-01T11:15:32Z</time>
      </trkpt>
      <trkpt lat="45.75405" lon="6.16219">
        <ele>1567.09</ele>
        <time>2014-02-01T11:15:47Z</time>
      </trkpt>
      <trkpt lat="45.75402" lon="6.1622">
        <ele>1568.05</ele>
        <time>2014-02-01T11:15:51Z</time>
      </trkpt>
      <trkpt lat="45.75392" lon="6.16224">
        <ele>1569.01</ele>
        <time>2014-02-01T11:16:02Z</time>
      </trkpt>
      <trkpt lat="45.75381" lon="6.16231">
        <ele>1571.89</ele>
        <time>2014-02-01T11:16:16Z</time>
      </trkpt>
      <trkpt lat="45.75377" lon="6.16233">
        <ele>1572.85</ele>
        <time>2014-02-01T11:16:21Z</time>
      </trkpt>
      <trkpt lat="45.75366" lon="6.16244">
        <ele>1575.26</ele>
        <time>2014-02-01T11:16:36Z</time>
      </trkpt>
      <trkpt lat="45.75358" lon="6.16253">
        <ele>1578.14</ele>
        <time>2014-02-01T11:16:49Z</time>
      </trkpt>
      <trkpt lat="45.7536" lon="6.16253">
        <ele>1577.66</ele>
        <time>2014-02-01T11:17:04Z</time>
      </trkpt>
      <trkpt lat="45.75363" lon="6.16256">
        <ele>1577.66</ele>
        <time>2014-02-01T11:17:25Z</time>
      </trkpt>
      <trkpt lat="45.75372" lon="6.1626">
        <ele>1580.06</ele>
        <time>2014-02-01T11:17:39Z</time>
      </trkpt>
      <trkpt lat="45.75385" lon="6.16267">
        <ele>1582.95</ele>
        <time>2014-02-01T11:17:55Z</time>
      </trkpt>
      <trkpt lat="45.75388" lon="6.16268">
        <ele>1583.91</ele>
        <time>2014-02-01T11:17:59Z</time>
      </trkpt>
      <trkpt lat="45.75399" lon="6.16274">
        <ele>1586.31</ele>
        <time>2014-02-01T11:18:13Z</time>
      </trkpt>
      <trkpt lat="45.75392" lon="6.16272">
        <ele>1587.27</ele>
        <time>2014-02-01T11:18:29Z</time>
      </trkpt>
      <trkpt lat="45.75389" lon="6.16274">
        <ele>1587.75</ele>
        <time>2014-02-01T11:18:33Z</time>
      </trkpt>
      <trkpt lat="45.75377" lon="6.16281">
        <ele>1590.16</ele>
        <time>2014-02-01T11:18:47Z</time>
      </trkpt>
      <trkpt lat="45.75371" lon="6.16285">
        <ele>1591.6</ele>
        <time>2014-02-01T11:18:55Z</time>
      </trkpt>
      <trkpt lat="45.75361" lon="6.16291">
        <ele>1594.48</ele>
        <time>2014-02-01T11:19:09Z</time>
      </trkpt>
      <trkpt lat="45.75354" lon="6.16298">
        <ele>1595.45</ele>
        <time>2014-02-01T11:19:19Z</time>
      </trkpt>
      <trkpt lat="45.75352" lon="6.16304">
        <ele>1596.89</ele>
        <time>2014-02-01T11:19:32Z</time>
      </trkpt>
      <trkpt lat="45.75356" lon="6.16306">
        <ele>1596.89</ele>
        <time>2014-02-01T11:19:53Z</time>
      </trkpt>
      <trkpt lat="45.7536" lon="6.16308">
        <ele>1597.85</ele>
        <time>2014-02-01T11:20:05Z</time>
      </trkpt>
      <trkpt lat="45.75371" lon="6.16311">
        <ele>1599.77</ele>
        <time>2014-02-01T11:20:20Z</time>
      </trkpt>
      <trkpt lat="45.75372" lon="6.16311">
        <ele>1600.25</ele>
        <time>2014-02-01T11:20:22Z</time>
      </trkpt>
      <trkpt lat="45.75385" lon="6.16316">
        <ele>1603.14</ele>
        <time>2014-02-01T11:20:39Z</time>
      </trkpt>
      <trkpt lat="45.75394" lon="6.16321">
        <ele>1605.54</ele>
        <time>2014-02-01T11:20:53Z</time>
      </trkpt>
      <trkpt lat="45.75405" lon="6.16327">
        <ele>1607.94</ele>
        <time>2014-02-01T11:21:08Z</time>
      </trkpt>
      <trkpt lat="45.75416" lon="6.16331">
        <ele>1609.86</ele>
        <time>2014-02-01T11:21:24Z</time>
      </trkpt>
      <trkpt lat="45.75421" lon="6.16334">
        <ele>1611.79</ele>
        <time>2014-02-01T11:21:39Z</time>
      </trkpt>
      <trkpt lat="45.75421" lon="6.16335">
        <ele>1611.31</ele>
        <time>2014-02-01T11:22:14Z</time>
      </trkpt>
      <trkpt lat="45.75416" lon="6.16335">
        <ele>1611.31</ele>
        <time>2014-02-01T11:22:55Z</time>
      </trkpt>
      <trkpt lat="45.75418" lon="6.16335">
        <ele>1611.31</ele>
        <time>2014-02-01T11:23:21Z</time>
      </trkpt>
      <trkpt lat="45.75419" lon="6.16335">
        <ele>1611.79</ele>
        <time>2014-02-01T11:23:54Z</time>
      </trkpt>
      <trkpt lat="45.75426" lon="6.16339">
        <ele>1613.23</ele>
        <time>2014-02-01T11:24:12Z</time>
      </trkpt>
      <trkpt lat="45.75431" lon="6.16341">
        <ele>1615.15</ele>
        <time>2014-02-01T11:24:27Z</time>
      </trkpt>
      <trkpt lat="45.75424" lon="6.16344">
        <ele>1616.59</ele>
        <time>2014-02-01T11:24:40Z</time>
      </trkpt>
      <trkpt lat="45.75414" lon="6.16345">
        <ele>1618.52</ele>
        <time>2014-02-01T11:24:53Z</time>
      </trkpt>
      <trkpt lat="45.75413" lon="6.16345">
        <ele>1619</ele>
        <time>2014-02-01T11:25:09Z</time>
      </trkpt>
      <trkpt lat="45.75402" lon="6.1635">
        <ele>1620.92</ele>
        <time>2014-02-01T11:25:28Z</time>
      </trkpt>
      <trkpt lat="45.7539" lon="6.16355">
        <ele>1623.32</ele>
        <time>2014-02-01T11:25:44Z</time>
      </trkpt>
      <trkpt lat="45.75387" lon="6.16356">
        <ele>1624.28</ele>
        <time>2014-02-01T11:25:47Z</time>
      </trkpt>
      <trkpt lat="45.75377" lon="6.16361">
        <ele>1626.21</ele>
        <time>2014-02-01T11:26:02Z</time>
      </trkpt>
      <trkpt lat="45.75377" lon="6.16363">
        <ele>1626.21</ele>
        <time>2014-02-01T11:26:23Z</time>
      </trkpt>
      <trkpt lat="45.7537" lon="6.16367">
        <ele>1628.13</ele>
        <time>2014-02-01T11:26:34Z</time>
      </trkpt>
      <trkpt lat="45.75371" lon="6.16368">
        <ele>1628.13</ele>
        <time>2014-02-01T11:26:55Z</time>
      </trkpt>
      <trkpt lat="45.75372" lon="6.16371">
        <ele>1628.61</ele>
        <time>2014-02-01T11:27:07Z</time>
      </trkpt>
      <trkpt lat="45.75377" lon="6.16374">
        <ele>1629.09</ele>
        <time>2014-02-01T11:27:31Z</time>
      </trkpt>
      <trkpt lat="45.75387" lon="6.16379">
        <ele>1631.98</ele>
        <time>2014-02-01T11:27:45Z</time>
      </trkpt>
      <trkpt lat="45.75397" lon="6.16384">
        <ele>1634.38</ele>
        <time>2014-02-01T11:28:01Z</time>
      </trkpt>
      <trkpt lat="45.75399" lon="6.16386">
        <ele>1636.3</ele>
        <time>2014-02-01T11:28:16Z</time>
      </trkpt>
      <trkpt lat="45.75397" lon="6.16385">
        <ele>1636.78</ele>
        <time>2014-02-01T11:28:20Z</time>
      </trkpt>
      <trkpt lat="45.75393" lon="6.16385">
        <ele>1637.26</ele>
        <time>2014-02-01T11:28:24Z</time>
      </trkpt>
      <trkpt lat="45.75383" lon="6.16388">
        <ele>1639.19</ele>
        <time>2014-02-01T11:28:37Z</time>
      </trkpt>
      <trkpt lat="45.75382" lon="6.16388">
        <ele>1639.67</ele>
        <time>2014-02-01T11:28:38Z</time>
      </trkpt>
      <trkpt lat="45.75372" lon="6.16393">
        <ele>1642.55</ele>
        <time>2014-02-01T11:28:52Z</time>
      </trkpt>
      <trkpt lat="45.75369" lon="6.16393">
        <ele>1643.03</ele>
        <time>2014-02-01T11:29:07Z</time>
      </trkpt>
      <trkpt lat="45.7536" lon="6.16401">
        <ele>1645.91</ele>
        <time>2014-02-01T11:29:20Z</time>
      </trkpt>
      <trkpt lat="45.75356" lon="6.16406">
        <ele>1647.84</ele>
        <time>2014-02-01T11:29:31Z</time>
      </trkpt>
      <trkpt lat="45.75352" lon="6.16408">
        <ele>1649.28</ele>
        <time>2014-02-01T11:29:44Z</time>
      </trkpt>
      <trkpt lat="45.75347" lon="6.16412">
        <ele>1650.72</ele>
        <time>2014-02-01T11:29:57Z</time>
      </trkpt>
      <trkpt lat="45.75346" lon="6.1642">
        <ele>1651.2</ele>
        <time>2014-02-01T11:30:14Z</time>
      </trkpt>
      <trkpt lat="45.75355" lon="6.16422">
        <ele>1652.64</ele>
        <time>2014-02-01T11:30:24Z</time>
      </trkpt>
      <trkpt lat="45.75366" lon="6.16422">
        <ele>1653.12</ele>
        <time>2014-02-01T11:30:38Z</time>
      </trkpt>
      <trkpt lat="45.75372" lon="6.16421">
        <ele>1654.57</ele>
        <time>2014-02-01T11:30:53Z</time>
      </trkpt>
      <trkpt lat="45.75375" lon="6.16421">
        <ele>1654.57</ele>
        <time>2014-02-01T11:31:19Z</time>
      </trkpt>
      <trkpt lat="45.75378" lon="6.16422">
        <ele>1654.57</ele>
        <time>2014-02-01T11:31:46Z</time>
      </trkpt>
      <trkpt lat="45.75384" lon="6.16428">
        <ele>1657.45</ele>
        <time>2014-02-01T11:32:00Z</time>
      </trkpt>
      <trkpt lat="45.75386" lon="6.16431">
        <ele>1659.37</ele>
        <time>2014-02-01T11:32:12Z</time>
      </trkpt>
      <trkpt lat="45.7539" lon="6.16434">
        <ele>1660.81</ele>
        <time>2014-02-01T11:32:25Z</time>
      </trkpt>
      <trkpt lat="45.75386" lon="6.16432">
        <ele>1661.78</ele>
        <time>2014-02-01T11:32:40Z</time>
      </trkpt>
      <trkpt lat="45.75377" lon="6.16433">
        <ele>1664.18</ele>
        <time>2014-02-01T11:32:55Z</time>
      </trkpt>
      <trkpt lat="45.75371" lon="6.16437">
        <ele>1666.1</ele>
        <time>2014-02-01T11:33:07Z</time>
      </trkpt>
      <trkpt lat="45.75373" lon="6.16444">
        <ele>1667.06</ele>
        <time>2014-02-01T11:33:22Z</time>
      </trkpt>
      <trkpt lat="45.75374" lon="6.16444">
        <ele>1666.58</ele>
        <time>2014-02-01T11:33:51Z</time>
      </trkpt>
      <trkpt lat="45.75379" lon="6.16447">
        <ele>1668.99</ele>
        <time>2014-02-01T11:34:04Z</time>
      </trkpt>
      <trkpt lat="45.75383" lon="6.16449">
        <ele>1669.95</ele>
        <time>2014-02-01T11:34:17Z</time>
      </trkpt>
      <trkpt lat="45.7539" lon="6.1645">
        <ele>1670.91</ele>
        <time>2014-02-01T11:34:29Z</time>
      </trkpt>
      <trkpt lat="45.7539" lon="6.16452">
        <ele>1671.39</ele>
        <time>2014-02-01T11:34:53Z</time>
      </trkpt>
      <trkpt lat="45.75394" lon="6.16451">
        <ele>1671.39</ele>
        <time>2014-02-01T11:35:25Z</time>
      </trkpt>
      <trkpt lat="45.75396" lon="6.1645">
        <ele>1671.39</ele>
        <time>2014-02-01T11:35:46Z</time>
      </trkpt>
      <trkpt lat="45.75402" lon="6.16453">
        <ele>1672.35</ele>
        <time>2014-02-01T11:35:58Z</time>
      </trkpt>
      <trkpt lat="45.75411" lon="6.16459">
        <ele>1675.72</ele>
        <time>2014-02-01T11:36:13Z</time>
      </trkpt>
      <trkpt lat="45.75408" lon="6.16457">
        <ele>1676.68</ele>
        <time>2014-02-01T11:36:28Z</time>
      </trkpt>
      <trkpt lat="45.75406" lon="6.1646">
        <ele>1677.16</ele>
        <time>2014-02-01T11:36:43Z</time>
      </trkpt>
      <trkpt lat="45.75404" lon="6.16462">
        <ele>1677.16</ele>
        <time>2014-02-01T11:37:02Z</time>
      </trkpt>
      <trkpt lat="45.75415" lon="6.16465">
        <ele>1678.12</ele>
        <time>2014-02-01T11:37:15Z</time>
      </trkpt>
      <trkpt lat="45.7542" lon="6.16465">
        <ele>1679.56</ele>
        <time>2014-02-01T11:37:29Z</time>
      </trkpt>
      <trkpt lat="45.7542" lon="6.16464">
        <ele>1679.56</ele>
        <time>2014-02-01T11:37:47Z</time>
      </trkpt>
      <trkpt lat="45.75424" lon="6.16463">
        <ele>1680.52</ele>
        <time>2014-02-01T11:38:15Z</time>
      </trkpt>
      <trkpt lat="45.75426" lon="6.16466">
        <ele>1680.52</ele>
        <time>2014-02-01T11:38:50Z</time>
      </trkpt>
      <trkpt lat="45.75427" lon="6.16469">
        <ele>1680.04</ele>
        <time>2014-02-01T11:39:10Z</time>
      </trkpt>
      <trkpt lat="45.75424" lon="6.16469">
        <ele>1680.52</ele>
        <time>2014-02-01T11:39:42Z</time>
      </trkpt>
      <trkpt lat="45.75426" lon="6.16469">
        <ele>1680.52</ele>
        <time>2014-02-01T11:40:13Z</time>
      </trkpt>
      <trkpt lat="45.75427" lon="6.16467">
        <ele>1681</ele>
        <time>2014-02-01T11:40:41Z</time>
      </trkpt>
      <trkpt lat="45.75427" lon="6.1647">
        <ele>1680.52</ele>
        <time>2014-02-01T11:41:07Z</time>
      </trkpt>
      <trkpt lat="45.7543" lon="6.16472">
        <ele>1681.48</ele>
        <time>2014-02-01T11:41:29Z</time>
      </trkpt>
      <trkpt lat="45.75425" lon="6.16472">
        <ele>1681.96</ele>
        <time>2014-02-01T11:41:46Z</time>
      </trkpt>
      <trkpt lat="45.75422" lon="6.16469">
        <ele>1682.44</ele>
        <time>2014-02-01T11:42:04Z</time>
      </trkpt>
      <trkpt lat="45.75422" lon="6.16472">
        <ele>1682.44</ele>
        <time>2014-02-01T11:42:16Z</time>
      </trkpt>
      <trkpt lat="45.75424" lon="6.16477">
        <ele>1683.89</ele>
        <time>2014-02-01T11:42:30Z</time>
      </trkpt>
      <trkpt lat="45.75426" lon="6.16478">
        <ele>1684.37</ele>
        <time>2014-02-01T11:42:45Z</time>
      </trkpt>
      <trkpt lat="45.75427" lon="6.16481">
        <ele>1685.81</ele>
        <time>2014-02-01T11:43:03Z</time>
      </trkpt>
      <trkpt lat="45.75427" lon="6.1648">
        <ele>1685.81</ele>
        <time>2014-02-01T11:43:24Z</time>
      </trkpt>
      <trkpt lat="45.7543" lon="6.16474">
        <ele>1685.81</ele>
        <time>2014-02-01T11:43:41Z</time>
      </trkpt>
      <trkpt lat="45.7543" lon="6.16477">
        <ele>1685.81</ele>
        <time>2014-02-01T11:44:00Z</time>
      </trkpt>
      <trkpt lat="45.75429" lon="6.16474">
        <ele>1685.81</ele>
        <time>2014-02-01T11:44:20Z</time>
      </trkpt>
      <trkpt lat="45.7543" lon="6.16473">
        <ele>1685.81</ele>
        <time>2014-02-01T11:44:42Z</time>
      </trkpt>
      <trkpt lat="45.75431" lon="6.16476">
        <ele>1685.81</ele>
        <time>2014-02-01T11:45:13Z</time>
      </trkpt>
      <trkpt lat="45.75431" lon="6.16472">
        <ele>1685.81</ele>
        <time>2014-02-01T11:45:34Z</time>
      </trkpt>
      <trkpt lat="45.75432" lon="6.16472">
        <ele>1685.33</ele>
        <time>2014-02-01T11:45:51Z</time>
      </trkpt>
      <trkpt lat="45.75432" lon="6.1647">
        <ele>1685.33</ele>
        <time>2014-02-01T11:46:14Z</time>
      </trkpt>
      <trkpt lat="45.75429" lon="6.1647">
        <ele>1685.33</ele>
        <time>2014-02-01T11:46:38Z</time>
      </trkpt>
      <trkpt lat="45.75429" lon="6.1647">
        <ele>1685.81</ele>
        <time>2014-02-01T11:46:56Z</time>
      </trkpt>
      <trkpt lat="45.75429" lon="6.16473">
        <ele>1685.81</ele>
        <time>2014-02-01T11:47:31Z</time>
      </trkpt>
      <trkpt lat="45.75428" lon="6.16475">
        <ele>1686.29</ele>
        <time>2014-02-01T11:47:49Z</time>
      </trkpt>
      <trkpt lat="45.75423" lon="6.16474">
        <ele>1687.25</ele>
        <time>2014-02-01T11:48:05Z</time>
      </trkpt>
      <trkpt lat="45.75423" lon="6.16472">
        <ele>1687.25</ele>
        <time>2014-02-01T11:48:17Z</time>
      </trkpt>
      <trkpt lat="45.75422" lon="6.16474">
        <ele>1687.25</ele>
        <time>2014-02-01T11:48:34Z</time>
      </trkpt>
      <trkpt lat="45.75422" lon="6.16474">
        <ele>1687.25</ele>
        <time>2014-02-01T11:49:00Z</time>
      </trkpt>
      <trkpt lat="45.75422" lon="6.16474">
        <ele>1687.25</ele>
        <time>2014-02-01T11:49:22Z</time>
      </trkpt>
      <trkpt lat="45.75421" lon="6.16475">
        <ele>1686.77</ele>
        <time>2014-02-01T11:49:40Z</time>
      </trkpt>
      <trkpt lat="45.75423" lon="6.16476">
        <ele>1686.77</ele>
        <time>2014-02-01T11:49:56Z</time>
      </trkpt>
      <trkpt lat="45.75423" lon="6.16475">
        <ele>1686.77</ele>
        <time>2014-02-01T11:50:14Z</time>
      </trkpt>
      <trkpt lat="45.75423" lon="6.16474">
        <ele>1686.77</ele>
        <time>2014-02-01T11:50:41Z</time>
      </trkpt>
      <trkpt lat="45.75426" lon="6.16477">
        <ele>1686.77</ele>
        <time>2014-02-01T11:51:07Z</time>
      </trkpt>
      <trkpt lat="45.75424" lon="6.16476">
        <ele>1686.77</ele>
        <time>2014-02-01T11:51:25Z</time>
      </trkpt>
      <trkpt lat="45.75421" lon="6.16478">
        <ele>1686.29</ele>
        <time>2014-02-01T11:51:54Z</time>
      </trkpt>
      <trkpt lat="45.75421" lon="6.16477">
        <ele>1686.29</ele>
        <time>2014-02-01T11:52:09Z</time>
      </trkpt>
      <trkpt lat="45.75422" lon="6.16475">
        <ele>1686.29</ele>
        <time>2014-02-01T11:52:30Z</time>
      </trkpt>
      <trkpt lat="45.75421" lon="6.16477">
        <ele>1684.85</ele>
        <time>2014-02-01T11:52:43Z</time>
      </trkpt>
      <trkpt lat="45.75418" lon="6.16476">
        <ele>1684.85</ele>
        <time>2014-02-01T11:53:21Z</time>
      </trkpt>
      <trkpt lat="45.75413" lon="6.16489">
        <ele>1684.85</ele>
        <time>2014-02-01T11:54:05Z</time>
      </trkpt>
      <trkpt lat="45.75414" lon="6.16488">
        <ele>1684.37</ele>
        <time>2014-02-01T11:54:34Z</time>
      </trkpt>
      <trkpt lat="45.75417" lon="6.16486">
        <ele>1684.37</ele>
        <time>2014-02-01T11:55:20Z</time>
      </trkpt>
      <trkpt lat="45.75419" lon="6.16484">
        <ele>1683.89</ele>
        <time>2014-02-01T11:55:54Z</time>
      </trkpt>
      <trkpt lat="45.7542" lon="6.16479">
        <ele>1683.89</ele>
        <time>2014-02-01T11:56:33Z</time>
      </trkpt>
      <trkpt lat="45.75417" lon="6.1648">
        <ele>1683.89</ele>
        <time>2014-02-01T11:57:05Z</time>
      </trkpt>
      <trkpt lat="45.75414" lon="6.1648">
        <ele>1683.41</ele>
        <time>2014-02-01T11:57:40Z</time>
      </trkpt>
      <trkpt lat="45.75415" lon="6.16483">
        <ele>1683.41</ele>
        <time>2014-02-01T11:58:12Z</time>
      </trkpt>
      <trkpt lat="45.75416" lon="6.1648">
        <ele>1684.85</ele>
        <time>2014-02-01T11:58:15Z</time>
      </trkpt>
      <trkpt lat="45.75419" lon="6.16479">
        <ele>1684.37</ele>
        <time>2014-02-01T11:58:22Z</time>
      </trkpt>
      <trkpt lat="45.7542" lon="6.16481">
        <ele>1684.37</ele>
        <time>2014-02-01T11:58:44Z</time>
      </trkpt>
      <trkpt lat="45.75416" lon="6.16479">
        <ele>1685.33</ele>
        <time>2014-02-01T11:59:04Z</time>
      </trkpt>
      <trkpt lat="45.75412" lon="6.1648">
        <ele>1685.81</ele>
        <time>2014-02-01T11:59:24Z</time>
      </trkpt>
      <trkpt lat="45.75414" lon="6.16482">
        <ele>1685.81</ele>
        <time>2014-02-01T11:59:37Z</time>
      </trkpt>
      <trkpt lat="45.75414" lon="6.16477">
        <ele>1686.77</ele>
        <time>2014-02-01T11:59:55Z</time>
      </trkpt>
      <trkpt lat="45.75413" lon="6.16477">
        <ele>1687.73</ele>
        <time>2014-02-01T12:00:15Z</time>
      </trkpt>
      <trkpt lat="45.75414" lon="6.1648">
        <ele>1688.21</ele>
        <time>2014-02-01T12:00:27Z</time>
      </trkpt>
      <trkpt lat="45.75412" lon="6.16479">
        <ele>1688.69</ele>
        <time>2014-02-01T12:00:40Z</time>
      </trkpt>
      <trkpt lat="45.7541" lon="6.16482">
        <ele>1690.14</ele>
        <time>2014-02-01T12:01:07Z</time>
      </trkpt>
      <trkpt lat="45.75409" lon="6.16484">
        <ele>1690.62</ele>
        <time>2014-02-01T12:01:21Z</time>
      </trkpt>
      <trkpt lat="45.75409" lon="6.16486">
        <ele>1691.1</ele>
        <time>2014-02-01T12:01:37Z</time>
      </trkpt>
      <trkpt lat="45.75409" lon="6.16483">
        <ele>1691.1</ele>
        <time>2014-02-01T12:01:56Z</time>
      </trkpt>
      <trkpt lat="45.7541" lon="6.16484">
        <ele>1691.58</ele>
        <time>2014-02-01T12:02:11Z</time>
      </trkpt>
      <trkpt lat="45.75409" lon="6.16483">
        <ele>1691.58</ele>
        <time>2014-02-01T12:02:24Z</time>
      </trkpt>
      <trkpt lat="45.75411" lon="6.16484">
        <ele>1691.58</ele>
        <time>2014-02-01T12:02:41Z</time>
      </trkpt>
      <trkpt lat="45.75409" lon="6.16484">
        <ele>1692.06</ele>
        <time>2014-02-01T12:03:12Z</time>
      </trkpt>
      <trkpt lat="45.75406" lon="6.16485">
        <ele>1692.54</ele>
        <time>2014-02-01T12:03:29Z</time>
      </trkpt>
      <trkpt lat="45.75404" lon="6.16488">
        <ele>1693.5</ele>
        <time>2014-02-01T12:03:47Z</time>
      </trkpt>
      <trkpt lat="45.75403" lon="6.1649">
        <ele>1693.98</ele>
        <time>2014-02-01T12:04:22Z</time>
      </trkpt>
      <trkpt lat="45.75404" lon="6.16491">
        <ele>1694.94</ele>
        <time>2014-02-01T12:04:42Z</time>
      </trkpt>
      <trkpt lat="45.75404" lon="6.16494">
        <ele>1695.9</ele>
        <time>2014-02-01T12:04:55Z</time>
      </trkpt>
      <trkpt lat="45.75403" lon="6.16493">
        <ele>1696.86</ele>
        <time>2014-02-01T12:05:10Z</time>
      </trkpt>
      <trkpt lat="45.75403" lon="6.16497">
        <ele>1698.31</ele>
        <time>2014-02-01T12:05:25Z</time>
      </trkpt>
      <trkpt lat="45.75402" lon="6.165">
        <ele>1699.75</ele>
        <time>2014-02-01T12:05:39Z</time>
      </trkpt>
      <trkpt lat="45.75402" lon="6.16503">
        <ele>1702.15</ele>
        <time>2014-02-01T12:05:55Z</time>
      </trkpt>
      <trkpt lat="45.75401" lon="6.16504">
        <ele>1702.63</ele>
        <time>2014-02-01T12:06:17Z</time>
      </trkpt>
      <trkpt lat="45.754" lon="6.16506">
        <ele>1705.04</ele>
        <time>2014-02-01T12:06:32Z</time>
      </trkpt>
      <trkpt lat="45.754" lon="6.16507">
        <ele>1706</ele>
        <time>2014-02-01T12:06:47Z</time>
      </trkpt>
      <trkpt lat="45.75398" lon="6.16509">
        <ele>1706.96</ele>
        <time>2014-02-01T12:07:01Z</time>
      </trkpt>
      <trkpt lat="45.75396" lon="6.16512">
        <ele>1708.4</ele>
        <time>2014-02-01T12:07:18Z</time>
      </trkpt>
      <trkpt lat="45.75393" lon="6.16513">
        <ele>1709.36</ele>
        <time>2014-02-01T12:07:34Z</time>
      </trkpt>
      <trkpt lat="45.75391" lon="6.16514">
        <ele>1709.84</ele>
        <time>2014-02-01T12:08:00Z</time>
      </trkpt>
      <trkpt lat="45.75391" lon="6.16516">
        <ele>1711.28</ele>
        <time>2014-02-01T12:08:16Z</time>
      </trkpt>
      <trkpt lat="45.75389" lon="6.1652">
        <ele>1711.28</ele>
        <time>2014-02-01T12:08:31Z</time>
      </trkpt>
      <trkpt lat="45.75388" lon="6.16519">
        <ele>1712.73</ele>
        <time>2014-02-01T12:08:48Z</time>
      </trkpt>
      <trkpt lat="45.75387" lon="6.16521">
        <ele>1713.21</ele>
        <time>2014-02-01T12:09:03Z</time>
      </trkpt>
      <trkpt lat="45.75388" lon="6.16523">
        <ele>1714.65</ele>
        <time>2014-02-01T12:09:25Z</time>
      </trkpt>
      <trkpt lat="45.75389" lon="6.16523">
        <ele>1715.13</ele>
        <time>2014-02-01T12:09:37Z</time>
      </trkpt>
      <trkpt lat="45.75388" lon="6.16523">
        <ele>1715.13</ele>
        <time>2014-02-01T12:09:48Z</time>
      </trkpt>
      <trkpt lat="45.75387" lon="6.16521">
        <ele>1715.13</ele>
        <time>2014-02-01T12:10:02Z</time>
      </trkpt>
      <trkpt lat="45.75386" lon="6.16521">
        <ele>1715.61</ele>
        <time>2014-02-01T12:10:16Z</time>
      </trkpt>
      <trkpt lat="45.75389" lon="6.16528">
        <ele>1716.09</ele>
        <time>2014-02-01T12:10:32Z</time>
      </trkpt>
      <trkpt lat="45.7539" lon="6.16531">
        <ele>1716.09</ele>
        <time>2014-02-01T12:10:49Z</time>
      </trkpt>
      <trkpt lat="45.75394" lon="6.16532">
        <ele>1715.13</ele>
        <time>2014-02-01T12:11:16Z</time>
      </trkpt>
      <trkpt lat="45.75395" lon="6.16534">
        <ele>1716.09</ele>
        <time>2014-02-01T12:11:36Z</time>
      </trkpt>
      <trkpt lat="45.75397" lon="6.16533">
        <ele>1716.09</ele>
        <time>2014-02-01T12:11:53Z</time>
      </trkpt>
      <trkpt lat="45.75401" lon="6.16534">
        <ele>1716.09</ele>
        <time>2014-02-01T12:12:11Z</time>
      </trkpt>
      <trkpt lat="45.75405" lon="6.16533">
        <ele>1716.57</ele>
        <time>2014-02-01T12:12:24Z</time>
      </trkpt>
      <trkpt lat="45.75408" lon="6.16533">
        <ele>1716.57</ele>
        <time>2014-02-01T12:12:39Z</time>
      </trkpt>
      <trkpt lat="45.75413" lon="6.16533">
        <ele>1717.05</ele>
        <time>2014-02-01T12:12:57Z</time>
      </trkpt>
      <trkpt lat="45.75417" lon="6.16533">
        <ele>1717.53</ele>
        <time>2014-02-01T12:13:18Z</time>
      </trkpt>
      <trkpt lat="45.75418" lon="6.16532">
        <ele>1717.53</ele>
        <time>2014-02-01T12:13:48Z</time>
      </trkpt>
      <trkpt lat="45.7542" lon="6.16533">
        <ele>1717.05</ele>
        <time>2014-02-01T12:14:10Z</time>
      </trkpt>
      <trkpt lat="45.7542" lon="6.16531">
        <ele>1712.73</ele>
        <time>2014-02-01T12:14:22Z</time>
      </trkpt>
      <trkpt lat="45.7542" lon="6.16532">
        <ele>1718.01</ele>
        <time>2014-02-01T12:14:23Z</time>
      </trkpt>
      <trkpt lat="45.7542" lon="6.16531">
        <ele>1717.53</ele>
        <time>2014-02-01T12:14:39Z</time>
      </trkpt>
      <trkpt lat="45.7542" lon="6.16531">
        <ele>1716.57</ele>
        <time>2014-02-01T12:14:41Z</time>
      </trkpt>
      <trkpt lat="45.75421" lon="6.16534">
        <ele>1717.53</ele>
        <time>2014-02-01T12:14:57Z</time>
      </trkpt>
      <trkpt lat="45.75417" lon="6.16534">
        <ele>1717.53</ele>
        <time>2014-02-01T12:15:22Z</time>
      </trkpt>
      <trkpt lat="45.7542" lon="6.16533">
        <ele>1716.09</ele>
        <time>2014-02-01T12:15:40Z</time>
      </trkpt>
      <trkpt lat="45.75426" lon="6.16534">
        <ele>1715.61</ele>
        <time>2014-02-01T12:15:53Z</time>
      </trkpt>
      <trkpt lat="45.75427" lon="6.16536">
        <ele>1717.05</ele>
        <time>2014-02-01T12:16:04Z</time>
      </trkpt>
      <trkpt lat="45.75427" lon="6.16537">
        <ele>1720.42</ele>
        <time>2014-02-01T12:16:17Z</time>
      </trkpt>
      <trkpt lat="45.75428" lon="6.16541">
        <ele>1722.34</ele>
        <time>2014-02-01T12:16:31Z</time>
      </trkpt>
      <trkpt lat="45.75427" lon="6.16543">
        <ele>1722.34</ele>
        <time>2014-02-01T12:16:53Z</time>
      </trkpt>
      <trkpt lat="45.75429" lon="6.16543">
        <ele>1722.82</ele>
        <time>2014-02-01T12:17:10Z</time>
      </trkpt>
      <trkpt lat="45.75435" lon="6.16545">
        <ele>1722.82</ele>
        <time>2014-02-01T12:17:24Z</time>
      </trkpt>
      <trkpt lat="45.75437" lon="6.16552">
        <ele>1723.3</ele>
        <time>2014-02-01T12:17:51Z</time>
      </trkpt>
      <trkpt lat="45.75444" lon="6.16554">
        <ele>1723.3</ele>
        <time>2014-02-01T12:18:07Z</time>
      </trkpt>
      <trkpt lat="45.75447" lon="6.1655">
        <ele>1723.3</ele>
        <time>2014-02-01T12:18:32Z</time>
      </trkpt>
      <trkpt lat="45.75443" lon="6.16541">
        <ele>1723.3</ele>
        <time>2014-02-01T12:19:04Z</time>
      </trkpt>
      <trkpt lat="45.75445" lon="6.16543">
        <ele>1723.3</ele>
        <time>2014-02-01T12:19:35Z</time>
      </trkpt>
      <trkpt lat="45.75452" lon="6.16549">
        <ele>1723.3</ele>
        <time>2014-02-01T12:19:52Z</time>
      </trkpt>
      <trkpt lat="45.75459" lon="6.16548">
        <ele>1723.3</ele>
        <time>2014-02-01T12:20:07Z</time>
      </trkpt>
      <trkpt lat="45.7546" lon="6.16546">
        <ele>1723.78</ele>
        <time>2014-02-01T12:20:31Z</time>
      </trkpt>
      <trkpt lat="45.75461" lon="6.16546">
        <ele>1723.3</ele>
        <time>2014-02-01T12:21:02Z</time>
      </trkpt>
      <trkpt lat="45.75465" lon="6.16546">
        <ele>1723.3</ele>
        <time>2014-02-01T12:21:22Z</time>
      </trkpt>
      <trkpt lat="45.75466" lon="6.16547">
        <ele>1724.26</ele>
        <time>2014-02-01T12:21:50Z</time>
      </trkpt>
      <trkpt lat="45.75469" lon="6.16547">
        <ele>1724.26</ele>
        <time>2014-02-01T12:22:22Z</time>
      </trkpt>
      <trkpt lat="45.75469" lon="6.16549">
        <ele>1725.7</ele>
        <time>2014-02-01T12:22:42Z</time>
      </trkpt>
      <trkpt lat="45.75472" lon="6.16549">
        <ele>1726.18</ele>
        <time>2014-02-01T12:22:59Z</time>
      </trkpt>
      <trkpt lat="45.75473" lon="6.16549">
        <ele>1726.67</ele>
        <time>2014-02-01T12:23:11Z</time>
      </trkpt>
      <trkpt lat="45.75471" lon="6.16548">
        <ele>1726.67</ele>
        <time>2014-02-01T12:23:27Z</time>
      </trkpt>
      <trkpt lat="45.7547" lon="6.16548">
        <ele>1727.15</ele>
        <time>2014-02-01T12:23:53Z</time>
      </trkpt>
      <trkpt lat="45.75471" lon="6.16547">
        <ele>1727.15</ele>
        <time>2014-02-01T12:24:27Z</time>
      </trkpt>
      <trkpt lat="45.7547" lon="6.16547">
        <ele>1727.15</ele>
        <time>2014-02-01T12:25:01Z</time>
      </trkpt>
      <trkpt lat="45.75471" lon="6.16551">
        <ele>1728.11</ele>
        <time>2014-02-01T12:25:18Z</time>
      </trkpt>
      <trkpt lat="45.75472" lon="6.16553">
        <ele>1729.07</ele>
        <time>2014-02-01T12:25:34Z</time>
      </trkpt>
      <trkpt lat="45.75472" lon="6.16555">
        <ele>1730.99</ele>
        <time>2014-02-01T12:25:51Z</time>
      </trkpt>
      <trkpt lat="45.75471" lon="6.16555">
        <ele>1732.43</ele>
        <time>2014-02-01T12:26:10Z</time>
      </trkpt>
      <trkpt lat="45.75474" lon="6.16561">
        <ele>1734.36</ele>
        <time>2014-02-01T12:26:25Z</time>
      </trkpt>
      <trkpt lat="45.75477" lon="6.16563">
        <ele>1734.84</ele>
        <time>2014-02-01T12:26:42Z</time>
      </trkpt>
      <trkpt lat="45.75482" lon="6.16565">
        <ele>1735.32</ele>
        <time>2014-02-01T12:27:09Z</time>
      </trkpt>
      <trkpt lat="45.75482" lon="6.16564">
        <ele>1736.28</ele>
        <time>2014-02-01T12:27:27Z</time>
      </trkpt>
      <trkpt lat="45.75483" lon="6.16562">
        <ele>1735.8</ele>
        <time>2014-02-01T12:27:58Z</time>
      </trkpt>
      <trkpt lat="45.75486" lon="6.16561">
        <ele>1735.8</ele>
        <time>2014-02-01T12:28:28Z</time>
      </trkpt>
      <trkpt lat="45.75484" lon="6.16564">
        <ele>1735.8</ele>
        <time>2014-02-01T12:28:52Z</time>
      </trkpt>
      <trkpt lat="45.75486" lon="6.16562">
        <ele>1736.76</ele>
        <time>2014-02-01T12:29:17Z</time>
      </trkpt>
      <trkpt lat="45.75488" lon="6.16564">
        <ele>1737.72</ele>
        <time>2014-02-01T12:29:38Z</time>
      </trkpt>
      <trkpt lat="45.75489" lon="6.16566">
        <ele>1739.16</ele>
        <time>2014-02-01T12:30:02Z</time>
      </trkpt>
      <trkpt lat="45.7549" lon="6.16563">
        <ele>1740.12</ele>
        <time>2014-02-01T12:30:14Z</time>
      </trkpt>
      <trkpt lat="45.75487" lon="6.1656">
        <ele>1740.6</ele>
        <time>2014-02-01T12:30:27Z</time>
      </trkpt>
      <trkpt lat="45.75485" lon="6.16558">
        <ele>1741.08</ele>
        <time>2014-02-01T12:30:46Z</time>
      </trkpt>
      <trkpt lat="45.75485" lon="6.16554">
        <ele>1741.08</ele>
        <time>2014-02-01T12:31:13Z</time>
      </trkpt>
      <trkpt lat="45.75485" lon="6.16562">
        <ele>1743.01</ele>
        <time>2014-02-01T12:31:28Z</time>
      </trkpt>
      <trkpt lat="45.75489" lon="6.16569">
        <ele>1744.45</ele>
        <time>2014-02-01T12:31:41Z</time>
      </trkpt>
      <trkpt lat="45.75488" lon="6.16568">
        <ele>1745.89</ele>
        <time>2014-02-01T12:31:55Z</time>
      </trkpt>
      <trkpt lat="45.75485" lon="6.16568">
        <ele>1747.33</ele>
        <time>2014-02-01T12:32:10Z</time>
      </trkpt>
      <trkpt lat="45.75483" lon="6.16569">
        <ele>1748.29</ele>
        <time>2014-02-01T12:32:26Z</time>
      </trkpt>
      <trkpt lat="45.75482" lon="6.1657">
        <ele>1748.29</ele>
        <time>2014-02-01T12:32:43Z</time>
      </trkpt>
      <trkpt lat="45.75481" lon="6.16573">
        <ele>1748.78</ele>
        <time>2014-02-01T12:32:57Z</time>
      </trkpt>
      <trkpt lat="45.75483" lon="6.1658">
        <ele>1749.74</ele>
        <time>2014-02-01T12:33:18Z</time>
      </trkpt>
      <trkpt lat="45.75484" lon="6.16587">
        <ele>1749.74</ele>
        <time>2014-02-01T12:33:45Z</time>
      </trkpt>
      <trkpt lat="45.75485" lon="6.16587">
        <ele>1749.74</ele>
        <time>2014-02-01T12:34:18Z</time>
      </trkpt>
      <trkpt lat="45.75484" lon="6.1659">
        <ele>1750.22</ele>
        <time>2014-02-01T12:34:50Z</time>
      </trkpt>
      <trkpt lat="45.75486" lon="6.16589">
        <ele>1750.7</ele>
        <time>2014-02-01T12:35:21Z</time>
      </trkpt>
      <trkpt lat="45.75487" lon="6.16587">
        <ele>1751.18</ele>
        <time>2014-02-01T12:35:44Z</time>
      </trkpt>
      <trkpt lat="45.75492" lon="6.16588">
        <ele>1753.58</ele>
        <time>2014-02-01T12:36:01Z</time>
      </trkpt>
      <trkpt lat="45.75496" lon="6.16588">
        <ele>1755.5</ele>
        <time>2014-02-01T12:36:16Z</time>
      </trkpt>
      <trkpt lat="45.75502" lon="6.16592">
        <ele>1756.95</ele>
        <time>2014-02-01T12:36:32Z</time>
      </trkpt>
      <trkpt lat="45.75507" lon="6.16597">
        <ele>1760.31</ele>
        <time>2014-02-01T12:36:47Z</time>
      </trkpt>
      <trkpt lat="45.75509" lon="6.16599">
        <ele>1760.79</ele>
        <time>2014-02-01T12:37:06Z</time>
      </trkpt>
      <trkpt lat="45.75511" lon="6.16599">
        <ele>1761.75</ele>
        <time>2014-02-01T12:37:24Z</time>
      </trkpt>
      <trkpt lat="45.75511" lon="6.16598">
        <ele>1761.75</ele>
        <time>2014-02-01T12:37:49Z</time>
      </trkpt>
      <trkpt lat="45.75509" lon="6.16596">
        <ele>1761.75</ele>
        <time>2014-02-01T12:38:14Z</time>
      </trkpt>
      <trkpt lat="45.75508" lon="6.16601">
        <ele>1763.68</ele>
        <time>2014-02-01T12:38:29Z</time>
      </trkpt>
      <trkpt lat="45.75508" lon="6.16601">
        <ele>1765.6</ele>
        <time>2014-02-01T12:38:44Z</time>
      </trkpt>
      <trkpt lat="45.75509" lon="6.166">
        <ele>1765.6</ele>
        <time>2014-02-01T12:39:00Z</time>
      </trkpt>
      <trkpt lat="45.75503" lon="6.16601">
        <ele>1767.52</ele>
        <time>2014-02-01T12:39:16Z</time>
      </trkpt>
      <trkpt lat="45.75499" lon="6.16601">
        <ele>1769.92</ele>
        <time>2014-02-01T12:39:29Z</time>
      </trkpt>
      <trkpt lat="45.75495" lon="6.16604">
        <ele>1772.33</ele>
        <time>2014-02-01T12:39:44Z</time>
      </trkpt>
      <trkpt lat="45.75499" lon="6.16612">
        <ele>1773.77</ele>
        <time>2014-02-01T12:39:58Z</time>
      </trkpt>
      <trkpt lat="45.75503" lon="6.16615">
        <ele>1776.17</ele>
        <time>2014-02-01T12:40:14Z</time>
      </trkpt>
      <trkpt lat="45.75507" lon="6.16616">
        <ele>1778.1</ele>
        <time>2014-02-01T12:40:27Z</time>
      </trkpt>
      <trkpt lat="45.75507" lon="6.16616">
        <ele>1776.65</ele>
        <time>2014-02-01T12:40:31Z</time>
      </trkpt>
      <trkpt lat="45.75506" lon="6.16615">
        <ele>1776.65</ele>
        <time>2014-02-01T12:40:46Z</time>
      </trkpt>
      <trkpt lat="45.75508" lon="6.16614">
        <ele>1776.65</ele>
        <time>2014-02-01T12:41:09Z</time>
      </trkpt>
      <trkpt lat="45.75508" lon="6.16613">
        <ele>1778.1</ele>
        <time>2014-02-01T12:41:12Z</time>
      </trkpt>
      <trkpt lat="45.75506" lon="6.16613">
        <ele>1776.65</ele>
        <time>2014-02-01T12:41:38Z</time>
      </trkpt>
      <trkpt lat="45.75505" lon="6.16614">
        <ele>1777.61</ele>
        <time>2014-02-01T12:41:46Z</time>
      </trkpt>
      <trkpt lat="45.75506" lon="6.16615">
        <ele>1778.1</ele>
        <time>2014-02-01T12:42:19Z</time>
      </trkpt>
      <trkpt lat="45.75507" lon="6.16614">
        <ele>1778.1</ele>
        <time>2014-02-01T12:42:46Z</time>
      </trkpt>
      <trkpt lat="45.75506" lon="6.16615">
        <ele>1778.58</ele>
        <time>2014-02-01T12:43:14Z</time>
      </trkpt>
      <trkpt lat="45.75505" lon="6.16614">
        <ele>1777.13</ele>
        <time>2014-02-01T12:43:18Z</time>
      </trkpt>
      <trkpt lat="45.75503" lon="6.16614">
        <ele>1778.58</ele>
        <time>2014-02-01T12:43:44Z</time>
      </trkpt>
      <trkpt lat="45.75503" lon="6.16613">
        <ele>1776.65</ele>
        <time>2014-02-01T12:44:12Z</time>
      </trkpt>
      <trkpt lat="45.75503" lon="6.16613">
        <ele>1776.65</ele>
        <time>2014-02-01T12:44:42Z</time>
      </trkpt>
      <trkpt lat="45.75502" lon="6.16614">
        <ele>1777.61</ele>
        <time>2014-02-01T12:45:17Z</time>
      </trkpt>
      <trkpt lat="45.75502" lon="6.16613">
        <ele>1775.69</ele>
        <time>2014-02-01T12:45:34Z</time>
      </trkpt>
      <trkpt lat="45.75501" lon="6.16612">
        <ele>1776.65</ele>
        <time>2014-02-01T12:45:37Z</time>
      </trkpt>
      <trkpt lat="45.75501" lon="6.16614">
        <ele>1776.65</ele>
        <time>2014-02-01T12:45:52Z</time>
      </trkpt>
      <trkpt lat="45.75502" lon="6.16614">
        <ele>1777.13</ele>
        <time>2014-02-01T12:46:25Z</time>
      </trkpt>
      <trkpt lat="45.75501" lon="6.16613">
        <ele>1777.13</ele>
        <time>2014-02-01T12:46:53Z</time>
      </trkpt>
      <trkpt lat="45.755" lon="6.16613">
        <ele>1775.69</ele>
        <time>2014-02-01T12:47:16Z</time>
      </trkpt>
      <trkpt lat="45.75503" lon="6.16613">
        <ele>1776.17</ele>
        <time>2014-02-01T12:47:40Z</time>
      </trkpt>
      <trkpt lat="45.75501" lon="6.16612">
        <ele>1775.69</ele>
        <time>2014-02-01T12:48:00Z</time>
      </trkpt>
      <trkpt lat="45.75499" lon="6.1661">
        <ele>1774.73</ele>
        <time>2014-02-01T12:48:18Z</time>
      </trkpt>
      <trkpt lat="45.75497" lon="6.16609">
        <ele>1772.81</ele>
        <time>2014-02-01T12:48:31Z</time>
      </trkpt>
      <trkpt lat="45.75499" lon="6.1661">
        <ele>1771.85</ele>
        <time>2014-02-01T12:48:47Z</time>
      </trkpt>
      <trkpt lat="45.75501" lon="6.1661">
        <ele>1770.41</ele>
        <time>2014-02-01T12:49:08Z</time>
      </trkpt>
      <trkpt lat="45.75504" lon="6.16609">
        <ele>1767.52</ele>
        <time>2014-02-01T12:49:25Z</time>
      </trkpt>
      <trkpt lat="45.7551" lon="6.16612">
        <ele>1765.12</ele>
        <time>2014-02-01T12:49:42Z</time>
      </trkpt>
      <trkpt lat="45.75512" lon="6.16608">
        <ele>1763.68</ele>
        <time>2014-02-01T12:49:57Z</time>
      </trkpt>
      <trkpt lat="45.75514" lon="6.166">
        <ele>1761.75</ele>
        <time>2014-02-01T12:50:12Z</time>
      </trkpt>
      <trkpt lat="45.75515" lon="6.16594">
        <ele>1760.31</ele>
        <time>2014-02-01T12:50:26Z</time>
      </trkpt>
      <trkpt lat="45.75508" lon="6.16587">
        <ele>1757.43</ele>
        <time>2014-02-01T12:50:39Z</time>
      </trkpt>
      <trkpt lat="45.75505" lon="6.16585">
        <ele>1755.02</ele>
        <time>2014-02-01T12:50:52Z</time>
      </trkpt>
      <trkpt lat="45.75504" lon="6.16585">
        <ele>1754.06</ele>
        <time>2014-02-01T12:51:06Z</time>
      </trkpt>
      <trkpt lat="45.755" lon="6.16583">
        <ele>1753.1</ele>
        <time>2014-02-01T12:51:21Z</time>
      </trkpt>
      <trkpt lat="45.75493" lon="6.1658">
        <ele>1751.18</ele>
        <time>2014-02-01T12:51:37Z</time>
      </trkpt>
      <trkpt lat="45.75488" lon="6.1658">
        <ele>1749.26</ele>
        <time>2014-02-01T12:51:50Z</time>
      </trkpt>
      <trkpt lat="45.75483" lon="6.16579">
        <ele>1748.29</ele>
        <time>2014-02-01T12:52:04Z</time>
      </trkpt>
      <trkpt lat="45.75484" lon="6.16578">
        <ele>1746.85</ele>
        <time>2014-02-01T12:52:17Z</time>
      </trkpt>
      <trkpt lat="45.75487" lon="6.1658">
        <ele>1745.41</ele>
        <time>2014-02-01T12:52:33Z</time>
      </trkpt>
      <trkpt lat="45.75489" lon="6.16577">
        <ele>1743.97</ele>
        <time>2014-02-01T12:52:48Z</time>
      </trkpt>
      <trkpt lat="45.75488" lon="6.1657">
        <ele>1742.53</ele>
        <time>2014-02-01T12:53:04Z</time>
      </trkpt>
      <trkpt lat="45.75487" lon="6.16567">
        <ele>1741.08</ele>
        <time>2014-02-01T12:53:17Z</time>
      </trkpt>
      <trkpt lat="45.7549" lon="6.16571">
        <ele>1739.16</ele>
        <time>2014-02-01T12:53:31Z</time>
      </trkpt>
      <trkpt lat="45.7549" lon="6.16563">
        <ele>1737.72</ele>
        <time>2014-02-01T12:53:49Z</time>
      </trkpt>
      <trkpt lat="45.75484" lon="6.16556">
        <ele>1735.32</ele>
        <time>2014-02-01T12:54:01Z</time>
      </trkpt>
      <trkpt lat="45.75478" lon="6.16552">
        <ele>1732.43</ele>
        <time>2014-02-01T12:54:13Z</time>
      </trkpt>
      <trkpt lat="45.75477" lon="6.16553">
        <ele>1730.99</ele>
        <time>2014-02-01T12:54:29Z</time>
      </trkpt>
      <trkpt lat="45.75477" lon="6.16555">
        <ele>1729.55</ele>
        <time>2014-02-01T12:54:48Z</time>
      </trkpt>
      <trkpt lat="45.75476" lon="6.1655">
        <ele>1728.59</ele>
        <time>2014-02-01T12:55:10Z</time>
      </trkpt>
      <trkpt lat="45.75474" lon="6.16546">
        <ele>1726.18</ele>
        <time>2014-02-01T12:55:25Z</time>
      </trkpt>
      <trkpt lat="45.75474" lon="6.16544">
        <ele>1725.7</ele>
        <time>2014-02-01T12:55:41Z</time>
      </trkpt>
      <trkpt lat="45.75473" lon="6.16542">
        <ele>1724.26</ele>
        <time>2014-02-01T12:55:52Z</time>
      </trkpt>
      <trkpt lat="45.75471" lon="6.1654">
        <ele>1723.78</ele>
        <time>2014-02-01T12:56:06Z</time>
      </trkpt>
      <trkpt lat="45.7547" lon="6.1654">
        <ele>1722.82</ele>
        <time>2014-02-01T12:56:23Z</time>
      </trkpt>
      <trkpt lat="45.75467" lon="6.1654">
        <ele>1720.9</ele>
        <time>2014-02-01T12:56:34Z</time>
      </trkpt>
      <trkpt lat="45.75466" lon="6.16541">
        <ele>1720.42</ele>
        <time>2014-02-01T12:56:49Z</time>
      </trkpt>
      <trkpt lat="45.75466" lon="6.16541">
        <ele>1719.94</ele>
        <time>2014-02-01T12:57:14Z</time>
      </trkpt>
      <trkpt lat="45.75462" lon="6.16538">
        <ele>1719.94</ele>
        <time>2014-02-01T12:57:31Z</time>
      </trkpt>
      <trkpt lat="45.7546" lon="6.16537">
        <ele>1719.94</ele>
        <time>2014-02-01T12:57:43Z</time>
      </trkpt>
      <trkpt lat="45.75453" lon="6.16538">
        <ele>1718.49</ele>
        <time>2014-02-01T12:57:57Z</time>
      </trkpt>
      <trkpt lat="45.7545" lon="6.16538">
        <ele>1719.94</ele>
        <time>2014-02-01T12:58:06Z</time>
      </trkpt>
      <trkpt lat="45.7545" lon="6.16538">
        <ele>1719.94</ele>
        <time>2014-02-01T12:58:12Z</time>
      </trkpt>
      <trkpt lat="45.7545" lon="6.16542">
        <ele>1718.97</ele>
        <time>2014-02-01T12:58:28Z</time>
      </trkpt>
      <trkpt lat="45.75448" lon="6.16549">
        <ele>1718.49</ele>
        <time>2014-02-01T12:59:06Z</time>
      </trkpt>
      <trkpt lat="45.75448" lon="6.16549">
        <ele>1718.49</ele>
        <time>2014-02-01T12:59:38Z</time>
      </trkpt>
      <trkpt lat="45.7545" lon="6.16549">
        <ele>1718.49</ele>
        <time>2014-02-01T13:00:08Z</time>
      </trkpt>
      <trkpt lat="45.7545" lon="6.16549">
        <ele>1718.01</ele>
        <time>2014-02-01T13:00:45Z</time>
      </trkpt>
      <trkpt lat="45.7545" lon="6.16552">
        <ele>1717.53</ele>
        <time>2014-02-01T13:01:13Z</time>
      </trkpt>
      <trkpt lat="45.75449" lon="6.16545">
        <ele>1717.53</ele>
        <time>2014-02-01T13:01:45Z</time>
      </trkpt>
      <trkpt lat="45.75449" lon="6.16544">
        <ele>1717.53</ele>
        <time>2014-02-01T13:02:07Z</time>
      </trkpt>
      <trkpt lat="45.7545" lon="6.16546">
        <ele>1717.53</ele>
        <time>2014-02-01T13:02:48Z</time>
      </trkpt>
      <trkpt lat="45.75448" lon="6.16543">
        <ele>1717.53</ele>
        <time>2014-02-01T13:03:11Z</time>
      </trkpt>
      <trkpt lat="45.7545" lon="6.16543">
        <ele>1718.49</ele>
        <time>2014-02-01T13:03:27Z</time>
      </trkpt>
      <trkpt lat="45.75452" lon="6.16548">
        <ele>1718.49</ele>
        <time>2014-02-01T13:03:47Z</time>
      </trkpt>
      <trkpt lat="45.75451" lon="6.16546">
        <ele>1718.49</ele>
        <time>2014-02-01T13:04:04Z</time>
      </trkpt>
      <trkpt lat="45.75451" lon="6.16548">
        <ele>1718.49</ele>
        <time>2014-02-01T13:04:21Z</time>
      </trkpt>
      <trkpt lat="45.7545" lon="6.16546">
        <ele>1718.49</ele>
        <time>2014-02-01T13:04:37Z</time>
      </trkpt>
      <trkpt lat="45.75444" lon="6.16543">
        <ele>1718.49</ele>
        <time>2014-02-01T13:04:50Z</time>
      </trkpt>
      <trkpt lat="45.75437" lon="6.16544">
        <ele>1718.49</ele>
        <time>2014-02-01T13:05:09Z</time>
      </trkpt>
      <trkpt lat="45.75437" lon="6.16543">
        <ele>1718.49</ele>
        <time>2014-02-01T13:05:35Z</time>
      </trkpt>
      <trkpt lat="45.75435" lon="6.1654">
        <ele>1717.53</ele>
        <time>2014-02-01T13:05:54Z</time>
      </trkpt>
      <trkpt lat="45.75434" lon="6.16537">
        <ele>1716.57</ele>
        <time>2014-02-01T13:06:16Z</time>
      </trkpt>
      <trkpt lat="45.75434" lon="6.16537">
        <ele>1716.57</ele>
        <time>2014-02-01T13:06:33Z</time>
      </trkpt>
      <trkpt lat="45.75434" lon="6.16535">
        <ele>1716.57</ele>
        <time>2014-02-01T13:06:57Z</time>
      </trkpt>
      <trkpt lat="45.75434" lon="6.16532">
        <ele>1715.13</ele>
        <time>2014-02-01T13:07:02Z</time>
      </trkpt>
      <trkpt lat="45.75434" lon="6.16531">
        <ele>1713.69</ele>
        <time>2014-02-01T13:07:07Z</time>
      </trkpt>
      <trkpt lat="45.75426" lon="6.16524">
        <ele>1711.28</ele>
        <time>2014-02-01T13:07:11Z</time>
      </trkpt>
      <trkpt lat="45.75426" lon="6.16528">
        <ele>1709.84</ele>
        <time>2014-02-01T13:07:26Z</time>
      </trkpt>
      <trkpt lat="45.75422" lon="6.16525">
        <ele>1709.36</ele>
        <time>2014-02-01T13:07:43Z</time>
      </trkpt>
      <trkpt lat="45.75423" lon="6.16524">
        <ele>1709.36</ele>
        <time>2014-02-01T13:08:10Z</time>
      </trkpt>
      <trkpt lat="45.75422" lon="6.16517">
        <ele>1709.36</ele>
        <time>2014-02-01T13:08:40Z</time>
      </trkpt>
      <trkpt lat="45.75422" lon="6.1652">
        <ele>1709.36</ele>
        <time>2014-02-01T13:09:19Z</time>
      </trkpt>
      <trkpt lat="45.75426" lon="6.16514">
        <ele>1709.84</ele>
        <time>2014-02-01T13:10:00Z</time>
      </trkpt>
      <trkpt lat="45.75423" lon="6.16519">
        <ele>1709.84</ele>
        <time>2014-02-01T13:10:31Z</time>
      </trkpt>
      <trkpt lat="45.75425" lon="6.16521">
        <ele>1709.84</ele>
        <time>2014-02-01T13:10:49Z</time>
      </trkpt>
      <trkpt lat="45.75413" lon="6.16515">
        <ele>1706.48</ele>
        <time>2014-02-01T13:10:56Z</time>
      </trkpt>
      <trkpt lat="45.75406" lon="6.16513">
        <ele>1705.52</ele>
        <time>2014-02-01T13:11:01Z</time>
      </trkpt>
      <trkpt lat="45.75404" lon="6.16512">
        <ele>1705.04</ele>
        <time>2014-02-01T13:11:03Z</time>
      </trkpt>
      <trkpt lat="45.75406" lon="6.16513">
        <ele>1703.11</ele>
        <time>2014-02-01T13:11:10Z</time>
      </trkpt>
      <trkpt lat="45.75404" lon="6.16512">
        <ele>1703.11</ele>
        <time>2014-02-01T13:11:12Z</time>
      </trkpt>
      <trkpt lat="45.75393" lon="6.16506">
        <ele>1700.23</ele>
        <time>2014-02-01T13:11:17Z</time>
      </trkpt>
      <trkpt lat="45.75392" lon="6.16503">
        <ele>1696.86</ele>
        <time>2014-02-01T13:11:21Z</time>
      </trkpt>
      <trkpt lat="45.75392" lon="6.16507">
        <ele>1696.86</ele>
        <time>2014-02-01T13:11:27Z</time>
      </trkpt>
      <trkpt lat="45.7539" lon="6.16501">
        <ele>1694.94</ele>
        <time>2014-02-01T13:11:30Z</time>
      </trkpt>
      <trkpt lat="45.75387" lon="6.16497">
        <ele>1693.02</ele>
        <time>2014-02-01T13:11:33Z</time>
      </trkpt>
      <trkpt lat="45.75385" lon="6.16493">
        <ele>1689.17</ele>
        <time>2014-02-01T13:11:36Z</time>
      </trkpt>
      <trkpt lat="45.75386" lon="6.16493">
        <ele>1687.73</ele>
        <time>2014-02-01T13:11:43Z</time>
      </trkpt>
      <trkpt lat="45.75387" lon="6.16489">
        <ele>1684.85</ele>
        <time>2014-02-01T13:11:48Z</time>
      </trkpt>
      <trkpt lat="45.75388" lon="6.16479">
        <ele>1679.56</ele>
        <time>2014-02-01T13:11:52Z</time>
      </trkpt>
      <trkpt lat="45.75389" lon="6.16475">
        <ele>1679.56</ele>
        <time>2014-02-01T13:12:04Z</time>
      </trkpt>
      <trkpt lat="45.75389" lon="6.16472">
        <ele>1679.08</ele>
        <time>2014-02-01T13:12:22Z</time>
      </trkpt>
      <trkpt lat="45.75385" lon="6.16467">
        <ele>1676.2</ele>
        <time>2014-02-01T13:12:27Z</time>
      </trkpt>
      <trkpt lat="45.75384" lon="6.1647">
        <ele>1673.79</ele>
        <time>2014-02-01T13:12:39Z</time>
      </trkpt>
      <trkpt lat="45.75384" lon="6.16471">
        <ele>1673.31</ele>
        <time>2014-02-01T13:12:47Z</time>
      </trkpt>
      <trkpt lat="45.75387" lon="6.16469">
        <ele>1672.35</ele>
        <time>2014-02-01T13:12:50Z</time>
      </trkpt>
      <trkpt lat="45.75391" lon="6.16466">
        <ele>1669.47</ele>
        <time>2014-02-01T13:12:57Z</time>
      </trkpt>
      <trkpt lat="45.75391" lon="6.16457">
        <ele>1665.62</ele>
        <time>2014-02-01T13:13:02Z</time>
      </trkpt>
      <trkpt lat="45.75386" lon="6.16451">
        <ele>1664.18</ele>
        <time>2014-02-01T13:13:05Z</time>
      </trkpt>
      <trkpt lat="45.75384" lon="6.16445">
        <ele>1663.22</ele>
        <time>2014-02-01T13:13:20Z</time>
      </trkpt>
      <trkpt lat="45.75385" lon="6.16441">
        <ele>1662.74</ele>
        <time>2014-02-01T13:13:39Z</time>
      </trkpt>
      <trkpt lat="45.75385" lon="6.16442">
        <ele>1662.74</ele>
        <time>2014-02-01T13:14:05Z</time>
      </trkpt>
      <trkpt lat="45.75382" lon="6.16438">
        <ele>1658.89</ele>
        <time>2014-02-01T13:14:09Z</time>
      </trkpt>
      <trkpt lat="45.75383" lon="6.16439">
        <ele>1657.93</ele>
        <time>2014-02-01T13:14:11Z</time>
      </trkpt>
      <trkpt lat="45.75388" lon="6.16442">
        <ele>1656.01</ele>
        <time>2014-02-01T13:14:23Z</time>
      </trkpt>
      <trkpt lat="45.75391" lon="6.16444">
        <ele>1655.53</ele>
        <time>2014-02-01T13:14:38Z</time>
      </trkpt>
      <trkpt lat="45.75391" lon="6.16433">
        <ele>1652.16</ele>
        <time>2014-02-01T13:14:44Z</time>
      </trkpt>
      <trkpt lat="45.75392" lon="6.16432">
        <ele>1652.16</ele>
        <time>2014-02-01T13:14:45Z</time>
      </trkpt>
      <trkpt lat="45.7539" lon="6.16426">
        <ele>1652.16</ele>
        <time>2014-02-01T13:15:09Z</time>
      </trkpt>
      <trkpt lat="45.75386" lon="6.16422">
        <ele>1650.72</ele>
        <time>2014-02-01T13:15:14Z</time>
      </trkpt>
      <trkpt lat="45.7538" lon="6.16418">
        <ele>1647.84</ele>
        <time>2014-02-01T13:15:23Z</time>
      </trkpt>
      <trkpt lat="45.75379" lon="6.16416">
        <ele>1647.36</ele>
        <time>2014-02-01T13:15:47Z</time>
      </trkpt>
      <trkpt lat="45.75377" lon="6.16416">
        <ele>1647.36</ele>
        <time>2014-02-01T13:16:04Z</time>
      </trkpt>
      <trkpt lat="45.75376" lon="6.16416">
        <ele>1647.36</ele>
        <time>2014-02-01T13:16:06Z</time>
      </trkpt>
      <trkpt lat="45.75362" lon="6.16408">
        <ele>1642.07</ele>
        <time>2014-02-01T13:16:16Z</time>
      </trkpt>
      <trkpt lat="45.75362" lon="6.16408">
        <ele>1642.07</ele>
        <time>2014-02-01T13:16:17Z</time>
      </trkpt>
      <trkpt lat="45.75364" lon="6.16416">
        <ele>1641.11</ele>
        <time>2014-02-01T13:16:36Z</time>
      </trkpt>
      <trkpt lat="45.75363" lon="6.16417">
        <ele>1641.11</ele>
        <time>2014-02-01T13:16:49Z</time>
      </trkpt>
      <trkpt lat="45.75372" lon="6.16405">
        <ele>1636.78</ele>
        <time>2014-02-01T13:16:54Z</time>
      </trkpt>
      <trkpt lat="45.75375" lon="6.16403">
        <ele>1635.82</ele>
        <time>2014-02-01T13:16:56Z</time>
      </trkpt>
      <trkpt lat="45.75383" lon="6.16396">
        <ele>1631.98</ele>
        <time>2014-02-01T13:17:01Z</time>
      </trkpt>
      <trkpt lat="45.75385" lon="6.16395">
        <ele>1631.98</ele>
        <time>2014-02-01T13:17:02Z</time>
      </trkpt>
      <trkpt lat="45.7539" lon="6.16392">
        <ele>1630.05</ele>
        <time>2014-02-01T13:17:04Z</time>
      </trkpt>
      <trkpt lat="45.75392" lon="6.16384">
        <ele>1627.17</ele>
        <time>2014-02-01T13:17:08Z</time>
      </trkpt>
      <trkpt lat="45.7539" lon="6.1638">
        <ele>1626.21</ele>
        <time>2014-02-01T13:17:10Z</time>
      </trkpt>
      <trkpt lat="45.75387" lon="6.16378">
        <ele>1625.25</ele>
        <time>2014-02-01T13:17:11Z</time>
      </trkpt>
      <trkpt lat="45.75385" lon="6.16377">
        <ele>1624.28</ele>
        <time>2014-02-01T13:17:12Z</time>
      </trkpt>
      <trkpt lat="45.75383" lon="6.16377">
        <ele>1623.8</ele>
        <time>2014-02-01T13:17:13Z</time>
      </trkpt>
      <trkpt lat="45.75382" lon="6.16376">
        <ele>1623.8</ele>
        <time>2014-02-01T13:17:14Z</time>
      </trkpt>
      <trkpt lat="45.7538" lon="6.16374">
        <ele>1622.84</ele>
        <time>2014-02-01T13:17:15Z</time>
      </trkpt>
      <trkpt lat="45.75379" lon="6.16371">
        <ele>1621.88</ele>
        <time>2014-02-01T13:17:16Z</time>
      </trkpt>
      <trkpt lat="45.75383" lon="6.16365">
        <ele>1618.52</ele>
        <time>2014-02-01T13:17:18Z</time>
      </trkpt>
      <trkpt lat="45.75386" lon="6.16363">
        <ele>1617.07</ele>
        <time>2014-02-01T13:17:19Z</time>
      </trkpt>
      <trkpt lat="45.75388" lon="6.1636">
        <ele>1616.11</ele>
        <time>2014-02-01T13:17:20Z</time>
      </trkpt>
      <trkpt lat="45.75387" lon="6.16356">
        <ele>1614.19</ele>
        <time>2014-02-01T13:17:21Z</time>
      </trkpt>
      <trkpt lat="45.75386" lon="6.16348">
        <ele>1611.31</ele>
        <time>2014-02-01T13:17:23Z</time>
      </trkpt>
      <trkpt lat="45.75388" lon="6.16345">
        <ele>1608.42</ele>
        <time>2014-02-01T13:17:24Z</time>
      </trkpt>
      <trkpt lat="45.75389" lon="6.16344">
        <ele>1607.46</ele>
        <time>2014-02-01T13:17:25Z</time>
      </trkpt>
      <trkpt lat="45.7539" lon="6.16344">
        <ele>1607.46</ele>
        <time>2014-02-01T13:17:26Z</time>
      </trkpt>
      <trkpt lat="45.75391" lon="6.16343">
        <ele>1606.5</ele>
        <time>2014-02-01T13:17:29Z</time>
      </trkpt>
      <trkpt lat="45.75392" lon="6.16342">
        <ele>1606.5</ele>
        <time>2014-02-01T13:17:30Z</time>
      </trkpt>
      <trkpt lat="45.75394" lon="6.16339">
        <ele>1605.54</ele>
        <time>2014-02-01T13:17:31Z</time>
      </trkpt>
      <trkpt lat="45.75395" lon="6.16335">
        <ele>1604.1</ele>
        <time>2014-02-01T13:17:32Z</time>
      </trkpt>
      <trkpt lat="45.75392" lon="6.16328">
        <ele>1600.73</ele>
        <time>2014-02-01T13:17:34Z</time>
      </trkpt>
      <trkpt lat="45.75394" lon="6.16318">
        <ele>1597.37</ele>
        <time>2014-02-01T13:17:36Z</time>
      </trkpt>
      <trkpt lat="45.75386" lon="6.16308">
        <ele>1592.56</ele>
        <time>2014-02-01T13:17:39Z</time>
      </trkpt>
      <trkpt lat="45.75389" lon="6.16301">
        <ele>1587.75</ele>
        <time>2014-02-01T13:17:41Z</time>
      </trkpt>
      <trkpt lat="45.7539" lon="6.16301">
        <ele>1588.24</ele>
        <time>2014-02-01T13:17:42Z</time>
      </trkpt>
      <trkpt lat="45.75386" lon="6.16303">
        <ele>1588.24</ele>
        <time>2014-02-01T13:17:56Z</time>
      </trkpt>
      <trkpt lat="45.75385" lon="6.16304">
        <ele>1588.24</ele>
        <time>2014-02-01T13:18:14Z</time>
      </trkpt>
      <trkpt lat="45.75387" lon="6.16287">
        <ele>1584.87</ele>
        <time>2014-02-01T13:18:19Z</time>
      </trkpt>
      <trkpt lat="45.75384" lon="6.16279">
        <ele>1579.1</ele>
        <time>2014-02-01T13:18:21Z</time>
      </trkpt>
      <trkpt lat="45.75381" lon="6.16272">
        <ele>1576.22</ele>
        <time>2014-02-01T13:18:23Z</time>
      </trkpt>
      <trkpt lat="45.75386" lon="6.16267">
        <ele>1573.33</ele>
        <time>2014-02-01T13:18:26Z</time>
      </trkpt>
      <trkpt lat="45.75392" lon="6.16265">
        <ele>1571.89</ele>
        <time>2014-02-01T13:18:39Z</time>
      </trkpt>
      <trkpt lat="45.75394" lon="6.16264">
        <ele>1571.41</ele>
        <time>2014-02-01T13:18:54Z</time>
      </trkpt>
      <trkpt lat="45.75397" lon="6.16259">
        <ele>1569.97</ele>
        <time>2014-02-01T13:18:57Z</time>
      </trkpt>
      <trkpt lat="45.754" lon="6.16257">
        <ele>1569.49</ele>
        <time>2014-02-01T13:18:58Z</time>
      </trkpt>
      <trkpt lat="45.75402" lon="6.16256">
        <ele>1568.53</ele>
        <time>2014-02-01T13:18:59Z</time>
      </trkpt>
      <trkpt lat="45.75405" lon="6.16254">
        <ele>1568.05</ele>
        <time>2014-02-01T13:19:00Z</time>
      </trkpt>
      <trkpt lat="45.75407" lon="6.16251">
        <ele>1567.09</ele>
        <time>2014-02-01T13:19:01Z</time>
      </trkpt>
      <trkpt lat="45.75409" lon="6.16249">
        <ele>1566.61</ele>
        <time>2014-02-01T13:19:02Z</time>
      </trkpt>
      <trkpt lat="45.7541" lon="6.16248">
        <ele>1566.61</ele>
        <time>2014-02-01T13:19:03Z</time>
      </trkpt>
      <trkpt lat="45.7541" lon="6.1624">
        <ele>1564.68</ele>
        <time>2014-02-01T13:19:05Z</time>
      </trkpt>
      <trkpt lat="45.7541" lon="6.16229">
        <ele>1560.84</ele>
        <time>2014-02-01T13:19:07Z</time>
      </trkpt>
      <trkpt lat="45.75412" lon="6.16217">
        <ele>1556.99</ele>
        <time>2014-02-01T13:19:09Z</time>
      </trkpt>
      <trkpt lat="45.75413" lon="6.16206">
        <ele>1550.26</ele>
        <time>2014-02-01T13:19:11Z</time>
      </trkpt>
      <trkpt lat="45.75412" lon="6.16183">
        <ele>1540.17</ele>
        <time>2014-02-01T13:19:15Z</time>
      </trkpt>
      <trkpt lat="45.75414" lon="6.16181">
        <ele>1538.73</ele>
        <time>2014-02-01T13:19:17Z</time>
      </trkpt>
      <trkpt lat="45.75411" lon="6.16181">
        <ele>1539.21</ele>
        <time>2014-02-01T13:19:27Z</time>
      </trkpt>
      <trkpt lat="45.7541" lon="6.16184">
        <ele>1539.21</ele>
        <time>2014-02-01T13:19:50Z</time>
      </trkpt>
      <trkpt lat="45.7541" lon="6.16181">
        <ele>1538.73</ele>
        <time>2014-02-01T13:20:14Z</time>
      </trkpt>
      <trkpt lat="45.7541" lon="6.16183">
        <ele>1538.73</ele>
        <time>2014-02-01T13:20:33Z</time>
      </trkpt>
      <trkpt lat="45.75413" lon="6.16182">
        <ele>1538.73</ele>
        <time>2014-02-01T13:20:54Z</time>
      </trkpt>
      <trkpt lat="45.75421" lon="6.16174">
        <ele>1535.84</ele>
        <time>2014-02-01T13:20:59Z</time>
      </trkpt>
      <trkpt lat="45.75424" lon="6.16163">
        <ele>1532</ele>
        <time>2014-02-01T13:21:02Z</time>
      </trkpt>
      <trkpt lat="45.75424" lon="6.16154">
        <ele>1527.67</ele>
        <time>2014-02-01T13:21:04Z</time>
      </trkpt>
      <trkpt lat="45.75412" lon="6.16144">
        <ele>1524.31</ele>
        <time>2014-02-01T13:21:08Z</time>
      </trkpt>
      <trkpt lat="45.75411" lon="6.16142">
        <ele>1523.35</ele>
        <time>2014-02-01T13:21:09Z</time>
      </trkpt>
      <trkpt lat="45.75413" lon="6.16139">
        <ele>1521.9</ele>
        <time>2014-02-01T13:21:10Z</time>
      </trkpt>
      <trkpt lat="45.75415" lon="6.16137">
        <ele>1520.46</ele>
        <time>2014-02-01T13:21:11Z</time>
      </trkpt>
      <trkpt lat="45.75416" lon="6.16134">
        <ele>1519.02</ele>
        <time>2014-02-01T13:21:12Z</time>
      </trkpt>
      <trkpt lat="45.75415" lon="6.16132">
        <ele>1518.06</ele>
        <time>2014-02-01T13:21:13Z</time>
      </trkpt>
      <trkpt lat="45.75415" lon="6.16129">
        <ele>1516.62</ele>
        <time>2014-02-01T13:21:14Z</time>
      </trkpt>
      <trkpt lat="45.75416" lon="6.16127">
        <ele>1514.21</ele>
        <time>2014-02-01T13:21:16Z</time>
      </trkpt>
      <trkpt lat="45.75416" lon="6.16125">
        <ele>1514.21</ele>
        <time>2014-02-01T13:21:17Z</time>
      </trkpt>
      <trkpt lat="45.75413" lon="6.16122">
        <ele>1514.21</ele>
        <time>2014-02-01T13:21:24Z</time>
      </trkpt>
      <trkpt lat="45.75412" lon="6.16121">
        <ele>1514.21</ele>
        <time>2014-02-01T13:21:25Z</time>
      </trkpt>
      <trkpt lat="45.75411" lon="6.16118">
        <ele>1512.77</ele>
        <time>2014-02-01T13:21:26Z</time>
      </trkpt>
      <trkpt lat="45.75411" lon="6.16117">
        <ele>1511.81</ele>
        <time>2014-02-01T13:21:27Z</time>
      </trkpt>
      <trkpt lat="45.75413" lon="6.16116">
        <ele>1511.33</ele>
        <time>2014-02-01T13:21:28Z</time>
      </trkpt>
      <trkpt lat="45.75415" lon="6.16115">
        <ele>1510.85</ele>
        <time>2014-02-01T13:21:29Z</time>
      </trkpt>
      <trkpt lat="45.75415" lon="6.16112">
        <ele>1508.93</ele>
        <time>2014-02-01T13:21:30Z</time>
      </trkpt>
      <trkpt lat="45.75415" lon="6.1611">
        <ele>1507.97</ele>
        <time>2014-02-01T13:21:31Z</time>
      </trkpt>
      <trkpt lat="45.75413" lon="6.16108">
        <ele>1507.48</ele>
        <time>2014-02-01T13:21:32Z</time>
      </trkpt>
      <trkpt lat="45.75411" lon="6.16106">
        <ele>1506.52</ele>
        <time>2014-02-01T13:21:33Z</time>
      </trkpt>
      <trkpt lat="45.7541" lon="6.16104">
        <ele>1506.04</ele>
        <time>2014-02-01T13:21:34Z</time>
      </trkpt>
      <trkpt lat="45.75409" lon="6.16101">
        <ele>1505.56</ele>
        <time>2014-02-01T13:21:35Z</time>
      </trkpt>
      <trkpt lat="45.7541" lon="6.16098">
        <ele>1503.64</ele>
        <time>2014-02-01T13:21:36Z</time>
      </trkpt>
      <trkpt lat="45.75412" lon="6.16094">
        <ele>1502.68</ele>
        <time>2014-02-01T13:21:37Z</time>
      </trkpt>
      <trkpt lat="45.75412" lon="6.1609">
        <ele>1500.27</ele>
        <time>2014-02-01T13:21:38Z</time>
      </trkpt>
      <trkpt lat="45.7541" lon="6.16088">
        <ele>1499.31</ele>
        <time>2014-02-01T13:21:39Z</time>
      </trkpt>
      <trkpt lat="45.75408" lon="6.16086">
        <ele>1498.83</ele>
        <time>2014-02-01T13:21:40Z</time>
      </trkpt>
      <trkpt lat="45.75408" lon="6.16082">
        <ele>1498.83</ele>
        <time>2014-02-01T13:21:53Z</time>
      </trkpt>
      <trkpt lat="45.75403" lon="6.1608">
        <ele>1498.83</ele>
        <time>2014-02-01T13:22:14Z</time>
      </trkpt>
      <trkpt lat="45.75403" lon="6.16077">
        <ele>1497.87</ele>
        <time>2014-02-01T13:22:27Z</time>
      </trkpt>
      <trkpt lat="45.75402" lon="6.16075">
        <ele>1497.39</ele>
        <time>2014-02-01T13:22:28Z</time>
      </trkpt>
      <trkpt lat="45.75401" lon="6.16072">
        <ele>1496.91</ele>
        <time>2014-02-01T13:22:29Z</time>
      </trkpt>
      <trkpt lat="45.75402" lon="6.16069">
        <ele>1495.95</ele>
        <time>2014-02-01T13:22:30Z</time>
      </trkpt>
      <trkpt lat="45.75406" lon="6.1606">
        <ele>1491.62</ele>
        <time>2014-02-01T13:22:33Z</time>
      </trkpt>
      <trkpt lat="45.75408" lon="6.16051">
        <ele>1487.3</ele>
        <time>2014-02-01T13:22:35Z</time>
      </trkpt>
      <trkpt lat="45.75406" lon="6.16043">
        <ele>1483.93</ele>
        <time>2014-02-01T13:22:37Z</time>
      </trkpt>
      <trkpt lat="45.75408" lon="6.16035">
        <ele>1482.01</ele>
        <time>2014-02-01T13:22:40Z</time>
      </trkpt>
      <trkpt lat="45.754" lon="6.16024">
        <ele>1478.65</ele>
        <time>2014-02-01T13:22:43Z</time>
      </trkpt>
      <trkpt lat="45.75399" lon="6.16017">
        <ele>1475.28</ele>
        <time>2014-02-01T13:22:46Z</time>
      </trkpt>
      <trkpt lat="45.75389" lon="6.16003">
        <ele>1471.44</ele>
        <time>2014-02-01T13:22:50Z</time>
      </trkpt>
      <trkpt lat="45.75386" lon="6.15995">
        <ele>1468.55</ele>
        <time>2014-02-01T13:22:52Z</time>
      </trkpt>
      <trkpt lat="45.75386" lon="6.15986">
        <ele>1464.71</ele>
        <time>2014-02-01T13:22:54Z</time>
      </trkpt>
      <trkpt lat="45.75374" lon="6.15972">
        <ele>1461.34</ele>
        <time>2014-02-01T13:22:57Z</time>
      </trkpt>
      <trkpt lat="45.7536" lon="6.15969">
        <ele>1458.94</ele>
        <time>2014-02-01T13:23:00Z</time>
      </trkpt>
      <trkpt lat="45.75342" lon="6.15964">
        <ele>1456.05</ele>
        <time>2014-02-01T13:23:04Z</time>
      </trkpt>
      <trkpt lat="45.75322" lon="6.15958">
        <ele>1452.21</ele>
        <time>2014-02-01T13:23:09Z</time>
      </trkpt>
      <trkpt lat="45.75299" lon="6.15955">
        <ele>1449.32</ele>
        <time>2014-02-01T13:23:17Z</time>
      </trkpt>
      <trkpt lat="45.7528" lon="6.15948">
        <ele>1446.44</ele>
        <time>2014-02-01T13:23:22Z</time>
      </trkpt>
      <trkpt lat="45.75276" lon="6.15945">
        <ele>1446.44</ele>
        <time>2014-02-01T13:23:23Z</time>
      </trkpt>
      <trkpt lat="45.75259" lon="6.15938">
        <ele>1444.04</ele>
        <time>2014-02-01T13:23:29Z</time>
      </trkpt>
      <trkpt lat="45.75256" lon="6.15936">
        <ele>1443.08</ele>
        <time>2014-02-01T13:23:45Z</time>
      </trkpt>
      <trkpt lat="45.75257" lon="6.15937">
        <ele>1443.08</ele>
        <time>2014-02-01T13:24:03Z</time>
      </trkpt>
      <trkpt lat="45.75255" lon="6.15937">
        <ele>1443.08</ele>
        <time>2014-02-01T13:24:10Z</time>
      </trkpt>
      <trkpt lat="45.75253" lon="6.15934">
        <ele>1443.08</ele>
        <time>2014-02-01T13:24:12Z</time>
      </trkpt>
      <trkpt lat="45.75251" lon="6.15929">
        <ele>1442.6</ele>
        <time>2014-02-01T13:24:13Z</time>
      </trkpt>
      <trkpt lat="45.75251" lon="6.15922">
        <ele>1441.63</ele>
        <time>2014-02-01T13:24:14Z</time>
      </trkpt>
      <trkpt lat="45.75252" lon="6.15913">
        <ele>1438.27</ele>
        <time>2014-02-01T13:24:15Z</time>
      </trkpt>
      <trkpt lat="45.75253" lon="6.15903">
        <ele>1436.83</ele>
        <time>2014-02-01T13:24:16Z</time>
      </trkpt>
      <trkpt lat="45.75255" lon="6.15894">
        <ele>1435.87</ele>
        <time>2014-02-01T13:24:17Z</time>
      </trkpt>
      <trkpt lat="45.75256" lon="6.15886">
        <ele>1435.87</ele>
        <time>2014-02-01T13:24:18Z</time>
      </trkpt>
      <trkpt lat="45.75256" lon="6.15879">
        <ele>1435.39</ele>
        <time>2014-02-01T13:24:19Z</time>
      </trkpt>
      <trkpt lat="45.75256" lon="6.15873">
        <ele>1435.39</ele>
        <time>2014-02-01T13:24:23Z</time>
      </trkpt>
      <trkpt lat="45.75255" lon="6.15877">
        <ele>1435.39</ele>
        <time>2014-02-01T13:24:36Z</time>
      </trkpt>
      <trkpt lat="45.75256" lon="6.15878">
        <ele>1435.39</ele>
        <time>2014-02-01T13:24:55Z</time>
      </trkpt>
      <trkpt lat="45.75255" lon="6.15879">
        <ele>1434.91</ele>
        <time>2014-02-01T13:25:10Z</time>
      </trkpt>
      <trkpt lat="45.75255" lon="6.15878">
        <ele>1434.91</ele>
        <time>2014-02-01T13:25:24Z</time>
      </trkpt>
      <trkpt lat="45.75255" lon="6.15879">
        <ele>1434.42</ele>
        <time>2014-02-01T13:25:47Z</time>
      </trkpt>
      <trkpt lat="45.75254" lon="6.1588">
        <ele>1433.94</ele>
        <time>2014-02-01T13:26:13Z</time>
      </trkpt>
      <trkpt lat="45.75253" lon="6.15882">
        <ele>1433.94</ele>
        <time>2014-02-01T13:26:35Z</time>
      </trkpt>
      <trkpt lat="45.75253" lon="6.15881">
        <ele>1433.94</ele>
        <time>2014-02-01T13:26:59Z</time>
      </trkpt>
      <trkpt lat="45.75252" lon="6.15878">
        <ele>1433.94</ele>
        <time>2014-02-01T13:27:33Z</time>
      </trkpt>
      <trkpt lat="45.75251" lon="6.15877">
        <ele>1433.94</ele>
        <time>2014-02-01T13:28:04Z</time>
      </trkpt>
      <trkpt lat="45.75252" lon="6.15878">
        <ele>1433.94</ele>
        <time>2014-02-01T13:28:36Z</time>
      </trkpt>
      <trkpt lat="45.75251" lon="6.15875">
        <ele>1433.94</ele>
        <time>2014-02-01T13:29:10Z</time>
      </trkpt>
      <trkpt lat="45.75251" lon="6.15874">
        <ele>1433.94</ele>
        <time>2014-02-01T13:29:38Z</time>
      </trkpt>
      <trkpt lat="45.75251" lon="6.15873">
        <ele>1433.94</ele>
        <time>2014-02-01T13:30:08Z</time>
      </trkpt>
      <trkpt lat="45.75249" lon="6.15873">
        <ele>1433.94</ele>
        <time>2014-02-01T13:30:42Z</time>
      </trkpt>
      <trkpt lat="45.7525" lon="6.15874">
        <ele>1434.42</ele>
        <time>2014-02-01T13:31:14Z</time>
      </trkpt>
      <trkpt lat="45.75253" lon="6.15872">
        <ele>1434.42</ele>
        <time>2014-02-01T13:31:46Z</time>
      </trkpt>
      <trkpt lat="45.75252" lon="6.15876">
        <ele>1434.42</ele>
        <time>2014-02-01T13:32:12Z</time>
      </trkpt>
      <trkpt lat="45.75253" lon="6.15879">
        <ele>1434.42</ele>
        <time>2014-02-01T13:32:45Z</time>
      </trkpt>
      <trkpt lat="45.75254" lon="6.15878">
        <ele>1434.42</ele>
        <time>2014-02-01T13:33:17Z</time>
      </trkpt>
      <trkpt lat="45.75253" lon="6.15876">
        <ele>1434.91</ele>
        <time>2014-02-01T13:33:48Z</time>
      </trkpt>
      <trkpt lat="45.75253" lon="6.15876">
        <ele>1434.91</ele>
        <time>2014-02-01T13:34:16Z</time>
      </trkpt>
      <trkpt lat="45.75251" lon="6.15876">
        <ele>1434.91</ele>
        <time>2014-02-01T13:34:42Z</time>
      </trkpt>
      <trkpt lat="45.75254" lon="6.15875">
        <ele>1435.39</ele>
        <time>2014-02-01T13:35:17Z</time>
      </trkpt>
      <trkpt lat="45.75254" lon="6.15877">
        <ele>1435.39</ele>
        <time>2014-02-01T13:35:57Z</time>
      </trkpt>
      <trkpt lat="45.75254" lon="6.15878">
        <ele>1435.39</ele>
        <time>2014-02-01T13:36:35Z</time>
      </trkpt>
      <trkpt lat="45.75253" lon="6.15877">
        <ele>1435.87</ele>
        <time>2014-02-01T13:37:12Z</time>
      </trkpt>
      <trkpt lat="45.75253" lon="6.15878">
        <ele>1435.87</ele>
        <time>2014-02-01T13:37:46Z</time>
      </trkpt>
      <trkpt lat="45.75254" lon="6.15877">
        <ele>1436.35</ele>
        <time>2014-02-01T13:38:31Z</time>
      </trkpt>
      <trkpt lat="45.75254" lon="6.15879">
        <ele>1436.35</ele>
        <time>2014-02-01T13:39:14Z</time>
      </trkpt>
      <trkpt lat="45.75254" lon="6.15879">
        <ele>1436.83</ele>
        <time>2014-02-01T13:39:50Z</time>
      </trkpt>
      <trkpt lat="45.75253" lon="6.15878">
        <ele>1436.83</ele>
        <time>2014-02-01T13:40:38Z</time>
      </trkpt>
      <trkpt lat="45.75254" lon="6.15879">
        <ele>1436.83</ele>
        <time>2014-02-01T13:41:16Z</time>
      </trkpt>
      <trkpt lat="45.75254" lon="6.1588">
        <ele>1437.31</ele>
        <time>2014-02-01T13:41:52Z</time>
      </trkpt>
      <trkpt lat="45.75254" lon="6.1588">
        <ele>1437.31</ele>
        <time>2014-02-01T13:42:39Z</time>
      </trkpt>
      <trkpt lat="45.75254" lon="6.1588">
        <ele>1437.31</ele>
        <time>2014-02-01T13:43:18Z</time>
      </trkpt>
      <trkpt lat="45.75254" lon="6.1588">
        <ele>1433.46</ele>
        <time>2014-02-01T13:43:20Z</time>
      </trkpt>
      <trkpt lat="45.75254" lon="6.1588">
        <ele>1439.23</ele>
        <time>2014-02-01T13:43:21Z</time>
      </trkpt>
      <trkpt lat="45.75253" lon="6.15879">
        <ele>1437.79</ele>
        <time>2014-02-01T13:43:53Z</time>
      </trkpt>
      <trkpt lat="45.75252" lon="6.15879">
        <ele>1437.79</ele>
        <time>2014-02-01T13:44:25Z</time>
      </trkpt>
      <trkpt lat="45.75253" lon="6.15879">
        <ele>1437.79</ele>
        <time>2014-02-01T13:45:00Z</time>
      </trkpt>
      <trkpt lat="45.75253" lon="6.15878">
        <ele>1437.79</ele>
        <time>2014-02-01T13:45:32Z</time>
      </trkpt>
      <trkpt lat="45.75252" lon="6.1588">
        <ele>1437.79</ele>
        <time>2014-02-01T13:46:03Z</time>
      </trkpt>
      <trkpt lat="45.75251" lon="6.15881">
        <ele>1437.79</ele>
        <time>2014-02-01T13:46:38Z</time>
      </trkpt>
      <trkpt lat="45.75252" lon="6.15882">
        <ele>1437.79</ele>
        <time>2014-02-01T13:47:17Z</time>
      </trkpt>
      <trkpt lat="45.75252" lon="6.15882">
        <ele>1437.31</ele>
        <time>2014-02-01T13:47:53Z</time>
      </trkpt>
      <trkpt lat="45.75253" lon="6.15882">
        <ele>1437.79</ele>
        <time>2014-02-01T13:48:28Z</time>
      </trkpt>
      <trkpt lat="45.75252" lon="6.15882">
        <ele>1437.79</ele>
        <time>2014-02-01T13:49:04Z</time>
      </trkpt>
      <trkpt lat="45.75252" lon="6.15882">
        <ele>1437.79</ele>
        <time>2014-02-01T13:49:30Z</time>
      </trkpt>
      <trkpt lat="45.75252" lon="6.15884">
        <ele>1437.79</ele>
        <time>2014-02-01T13:49:55Z</time>
      </trkpt>
      <trkpt lat="45.75251" lon="6.15886">
        <ele>1437.79</ele>
        <time>2014-02-01T13:50:21Z</time>
      </trkpt>
      <trkpt lat="45.75252" lon="6.15887">
        <ele>1437.79</ele>
        <time>2014-02-01T13:50:58Z</time>
      </trkpt>
      <trkpt lat="45.75253" lon="6.15886">
        <ele>1437.79</ele>
        <time>2014-02-01T13:51:24Z</time>
      </trkpt>
      <trkpt lat="45.75253" lon="6.15885">
        <ele>1437.31</ele>
        <time>2014-02-01T13:51:52Z</time>
      </trkpt>
      <trkpt lat="45.75253" lon="6.15884">
        <ele>1437.31</ele>
        <time>2014-02-01T13:52:12Z</time>
      </trkpt>
      <trkpt lat="45.75254" lon="6.15884">
        <ele>1437.31</ele>
        <time>2014-02-01T13:52:36Z</time>
      </trkpt>
      <trkpt lat="45.75254" lon="6.15884">
        <ele>1437.31</ele>
        <time>2014-02-01T13:53:00Z</time>
      </trkpt>
      <trkpt lat="45.75254" lon="6.15883">
        <ele>1437.31</ele>
        <time>2014-02-01T13:53:25Z</time>
      </trkpt>
      <trkpt lat="45.75254" lon="6.15883">
        <ele>1438.75</ele>
        <time>2014-02-01T13:53:27Z</time>
      </trkpt>
      <trkpt lat="45.75253" lon="6.15881">
        <ele>1438.27</ele>
        <time>2014-02-01T13:53:40Z</time>
      </trkpt>
      <trkpt lat="45.75253" lon="6.15879">
        <ele>1438.27</ele>
        <time>2014-02-01T13:53:58Z</time>
      </trkpt>
      <trkpt lat="45.75254" lon="6.15879">
        <ele>1437.31</ele>
        <time>2014-02-01T13:54:19Z</time>
      </trkpt>
      <trkpt lat="45.75253" lon="6.15877">
        <ele>1437.31</ele>
        <time>2014-02-01T13:54:44Z</time>
      </trkpt>
      <trkpt lat="45.75252" lon="6.15877">
        <ele>1437.31</ele>
        <time>2014-02-01T13:55:05Z</time>
      </trkpt>
      <trkpt lat="45.75252" lon="6.1588">
        <ele>1437.31</ele>
        <time>2014-02-01T13:55:16Z</time>
      </trkpt>
      <trkpt lat="45.75252" lon="6.15881">
        <ele>1436.83</ele>
        <time>2014-02-01T13:55:30Z</time>
      </trkpt>
      <trkpt lat="45.75251" lon="6.15882">
        <ele>1436.83</ele>
        <time>2014-02-01T13:55:45Z</time>
      </trkpt>
      <trkpt lat="45.75251" lon="6.1588">
        <ele>1436.35</ele>
        <time>2014-02-01T13:55:58Z</time>
      </trkpt>
      <trkpt lat="45.75251" lon="6.15879">
        <ele>1436.35</ele>
        <time>2014-02-01T13:56:15Z</time>
      </trkpt>
      <trkpt lat="45.75251" lon="6.15877">
        <ele>1436.35</ele>
        <time>2014-02-01T13:56:30Z</time>
      </trkpt>
      <trkpt lat="45.75251" lon="6.15878">
        <ele>1436.35</ele>
        <time>2014-02-01T13:56:39Z</time>
      </trkpt>
      <trkpt lat="45.75249" lon="6.15881">
        <ele>1436.35</ele>
        <time>2014-02-01T13:56:42Z</time>
      </trkpt>
      <trkpt lat="45.75219" lon="6.15902">
        <ele>1433.46</ele>
        <time>2014-02-01T13:56:51Z</time>
      </trkpt>
      <trkpt lat="45.75203" lon="6.15906">
        <ele>1431.06</ele>
        <time>2014-02-01T13:56:55Z</time>
      </trkpt>
      <trkpt lat="45.75199" lon="6.15908">
        <ele>1430.58</ele>
        <time>2014-02-01T13:56:56Z</time>
      </trkpt>
      <trkpt lat="45.75196" lon="6.15912">
        <ele>1429.62</ele>
        <time>2014-02-01T13:56:57Z</time>
      </trkpt>
      <trkpt lat="45.75193" lon="6.15915">
        <ele>1428.66</ele>
        <time>2014-02-01T13:56:58Z</time>
      </trkpt>
      <trkpt lat="45.75192" lon="6.15919">
        <ele>1428.66</ele>
        <time>2014-02-01T13:57:08Z</time>
      </trkpt>
      <trkpt lat="45.75192" lon="6.15919">
        <ele>1428.18</ele>
        <time>2014-02-01T13:57:21Z</time>
      </trkpt>
      <trkpt lat="45.7519" lon="6.15919">
        <ele>1428.18</ele>
        <time>2014-02-01T13:57:22Z</time>
      </trkpt>
      <trkpt lat="45.75187" lon="6.1592">
        <ele>1428.18</ele>
        <time>2014-02-01T13:57:23Z</time>
      </trkpt>
      <trkpt lat="45.75184" lon="6.15922">
        <ele>1427.21</ele>
        <time>2014-02-01T13:57:24Z</time>
      </trkpt>
      <trkpt lat="45.7518" lon="6.15924">
        <ele>1426.73</ele>
        <time>2014-02-01T13:57:25Z</time>
      </trkpt>
      <trkpt lat="45.75176" lon="6.15925">
        <ele>1425.29</ele>
        <time>2014-02-01T13:57:26Z</time>
      </trkpt>
      <trkpt lat="45.75173" lon="6.15929">
        <ele>1424.33</ele>
        <time>2014-02-01T13:57:27Z</time>
      </trkpt>
      <trkpt lat="45.75171" lon="6.15932">
        <ele>1422.89</ele>
        <time>2014-02-01T13:57:28Z</time>
      </trkpt>
      <trkpt lat="45.75169" lon="6.15936">
        <ele>1422.89</ele>
        <time>2014-02-01T13:57:29Z</time>
      </trkpt>
      <trkpt lat="45.75167" lon="6.15938">
        <ele>1422.41</ele>
        <time>2014-02-01T13:57:30Z</time>
      </trkpt>
      <trkpt lat="45.75163" lon="6.1594">
        <ele>1421.93</ele>
        <time>2014-02-01T13:57:31Z</time>
      </trkpt>
      <trkpt lat="45.75158" lon="6.15941">
        <ele>1420.97</ele>
        <time>2014-02-01T13:57:32Z</time>
      </trkpt>
      <trkpt lat="45.75154" lon="6.15941">
        <ele>1418.56</ele>
        <time>2014-02-01T13:57:33Z</time>
      </trkpt>
      <trkpt lat="45.75146" lon="6.15935">
        <ele>1413.76</ele>
        <time>2014-02-01T13:57:35Z</time>
      </trkpt>
      <trkpt lat="45.75141" lon="6.15935">
        <ele>1413.76</ele>
        <time>2014-02-01T13:57:36Z</time>
      </trkpt>
      <trkpt lat="45.75131" lon="6.15938">
        <ele>1410.39</ele>
        <time>2014-02-01T13:57:38Z</time>
      </trkpt>
      <trkpt lat="45.75123" lon="6.15938">
        <ele>1407.03</ele>
        <time>2014-02-01T13:57:40Z</time>
      </trkpt>
      <trkpt lat="45.75113" lon="6.15947">
        <ele>1403.66</ele>
        <time>2014-02-01T13:57:43Z</time>
      </trkpt>
      <trkpt lat="45.75104" lon="6.15954">
        <ele>1402.7</ele>
        <time>2014-02-01T13:57:46Z</time>
      </trkpt>
      <trkpt lat="45.75094" lon="6.15951">
        <ele>1397.89</ele>
        <time>2014-02-01T13:57:49Z</time>
      </trkpt>
      <trkpt lat="45.75087" lon="6.15948">
        <ele>1394.53</ele>
        <time>2014-02-01T13:57:51Z</time>
      </trkpt>
      <trkpt lat="45.75074" lon="6.15954">
        <ele>1391.17</ele>
        <time>2014-02-01T13:57:55Z</time>
      </trkpt>
      <trkpt lat="45.75063" lon="6.15958">
        <ele>1387.8</ele>
        <time>2014-02-01T13:57:58Z</time>
      </trkpt>
      <trkpt lat="45.75059" lon="6.15957">
        <ele>1384.92</ele>
        <time>2014-02-01T13:58:00Z</time>
      </trkpt>
      <trkpt lat="45.7506" lon="6.15956">
        <ele>1383.96</ele>
        <time>2014-02-01T13:58:02Z</time>
      </trkpt>
      <trkpt lat="45.75059" lon="6.15956">
        <ele>1384.44</ele>
        <time>2014-02-01T13:58:03Z</time>
      </trkpt>
      <trkpt lat="45.75048" lon="6.15957">
        <ele>1380.59</ele>
        <time>2014-02-01T13:58:09Z</time>
      </trkpt>
      <trkpt lat="45.75026" lon="6.15977">
        <ele>1376.75</ele>
        <time>2014-02-01T13:58:17Z</time>
      </trkpt>
      <trkpt lat="45.75019" lon="6.15979">
        <ele>1375.78</ele>
        <time>2014-02-01T13:58:19Z</time>
      </trkpt>
      <trkpt lat="45.75011" lon="6.15974">
        <ele>1371.94</ele>
        <time>2014-02-01T13:58:22Z</time>
      </trkpt>
      <trkpt lat="45.75009" lon="6.15969">
        <ele>1369.05</ele>
        <time>2014-02-01T13:58:24Z</time>
      </trkpt>
      <trkpt lat="45.75004" lon="6.15963">
        <ele>1365.21</ele>
        <time>2014-02-01T13:58:27Z</time>
      </trkpt>
      <trkpt lat="45.74999" lon="6.15966">
        <ele>1364.73</ele>
        <time>2014-02-01T13:58:29Z</time>
      </trkpt>
      <trkpt lat="45.74998" lon="6.15971">
        <ele>1363.29</ele>
        <time>2014-02-01T13:58:39Z</time>
      </trkpt>
      <trkpt lat="45.74995" lon="6.15971">
        <ele>1363.29</ele>
        <time>2014-02-01T13:58:43Z</time>
      </trkpt>
      <trkpt lat="45.74984" lon="6.15977">
        <ele>1361.36</ele>
        <time>2014-02-01T13:58:51Z</time>
      </trkpt>
      <trkpt lat="45.74971" lon="6.15988">
        <ele>1358.48</ele>
        <time>2014-02-01T13:58:55Z</time>
      </trkpt>
      <trkpt lat="45.74966" lon="6.15989">
        <ele>1357.52</ele>
        <time>2014-02-01T13:58:57Z</time>
      </trkpt>
      <trkpt lat="45.74962" lon="6.1598">
        <ele>1353.19</ele>
        <time>2014-02-01T13:59:00Z</time>
      </trkpt>
      <trkpt lat="45.74951" lon="6.15973">
        <ele>1348.87</ele>
        <time>2014-02-01T13:59:03Z</time>
      </trkpt>
      <trkpt lat="45.74948" lon="6.15969">
        <ele>1345.98</ele>
        <time>2014-02-01T13:59:04Z</time>
      </trkpt>
      <trkpt lat="45.74946" lon="6.15969">
        <ele>1343.58</ele>
        <time>2014-02-01T13:59:18Z</time>
      </trkpt>
      <trkpt lat="45.74946" lon="6.15968">
        <ele>1343.58</ele>
        <time>2014-02-01T13:59:44Z</time>
      </trkpt>
      <trkpt lat="45.74945" lon="6.15965">
        <ele>1343.1</ele>
        <time>2014-02-01T14:00:05Z</time>
      </trkpt>
      <trkpt lat="45.74946" lon="6.1596">
        <ele>1342.14</ele>
        <time>2014-02-01T14:00:28Z</time>
      </trkpt>
      <trkpt lat="45.74929" lon="6.15961">
        <ele>1337.81</ele>
        <time>2014-02-01T14:00:33Z</time>
      </trkpt>
      <trkpt lat="45.74918" lon="6.1596">
        <ele>1334.45</ele>
        <time>2014-02-01T14:00:36Z</time>
      </trkpt>
      <trkpt lat="45.74918" lon="6.15952">
        <ele>1332.04</ele>
        <time>2014-02-01T14:00:38Z</time>
      </trkpt>
      <trkpt lat="45.74911" lon="6.15941">
        <ele>1328.2</ele>
        <time>2014-02-01T14:00:41Z</time>
      </trkpt>
      <trkpt lat="45.74905" lon="6.15936">
        <ele>1323.87</ele>
        <time>2014-02-01T14:00:43Z</time>
      </trkpt>
      <trkpt lat="45.74896" lon="6.15928">
        <ele>1319.07</ele>
        <time>2014-02-01T14:00:46Z</time>
      </trkpt>
      <trkpt lat="45.7489" lon="6.15922">
        <ele>1315.7</ele>
        <time>2014-02-01T14:00:48Z</time>
      </trkpt>
      <trkpt lat="45.74886" lon="6.15917">
        <ele>1312.34</ele>
        <time>2014-02-01T14:00:50Z</time>
      </trkpt>
      <trkpt lat="45.74888" lon="6.15912">
        <ele>1311.38</ele>
        <time>2014-02-01T14:01:02Z</time>
      </trkpt>
      <trkpt lat="45.74877" lon="6.15903">
        <ele>1307.05</ele>
        <time>2014-02-01T14:01:06Z</time>
      </trkpt>
      <trkpt lat="45.74872" lon="6.15899">
        <ele>1304.65</ele>
        <time>2014-02-01T14:01:09Z</time>
      </trkpt>
      <trkpt lat="45.74869" lon="6.15901">
        <ele>1303.2</ele>
        <time>2014-02-01T14:01:20Z</time>
      </trkpt>
      <trkpt lat="45.74867" lon="6.15902">
        <ele>1303.2</ele>
        <time>2014-02-01T14:01:44Z</time>
      </trkpt>
      <trkpt lat="45.74868" lon="6.15901">
        <ele>1302.72</ele>
        <time>2014-02-01T14:02:15Z</time>
      </trkpt>
      <trkpt lat="45.74867" lon="6.15902">
        <ele>1302.72</ele>
        <time>2014-02-01T14:02:45Z</time>
      </trkpt>
      <trkpt lat="45.74867" lon="6.15898">
        <ele>1302.72</ele>
        <time>2014-02-01T14:03:09Z</time>
      </trkpt>
      <trkpt lat="45.74867" lon="6.15897">
        <ele>1302.72</ele>
        <time>2014-02-01T14:03:20Z</time>
      </trkpt>
      <trkpt lat="45.74855" lon="6.15897">
        <ele>1298.88</ele>
        <time>2014-02-01T14:03:26Z</time>
      </trkpt>
      <trkpt lat="45.7484" lon="6.1591">
        <ele>1295.51</ele>
        <time>2014-02-01T14:03:31Z</time>
      </trkpt>
      <trkpt lat="45.74839" lon="6.1591">
        <ele>1294.07</ele>
        <time>2014-02-01T14:03:33Z</time>
      </trkpt>
      <trkpt lat="45.74839" lon="6.1591">
        <ele>1293.59</ele>
        <time>2014-02-01T14:03:38Z</time>
      </trkpt>
      <trkpt lat="45.74836" lon="6.15904">
        <ele>1290.71</ele>
        <time>2014-02-01T14:03:44Z</time>
      </trkpt>
      <trkpt lat="45.74836" lon="6.15903">
        <ele>1290.71</ele>
        <time>2014-02-01T14:03:45Z</time>
      </trkpt>
      <trkpt lat="45.74823" lon="6.15905">
        <ele>1288.3</ele>
        <time>2014-02-01T14:03:49Z</time>
      </trkpt>
      <trkpt lat="45.74819" lon="6.15909">
        <ele>1287.34</ele>
        <time>2014-02-01T14:03:50Z</time>
      </trkpt>
      <trkpt lat="45.74815" lon="6.15913">
        <ele>1287.34</ele>
        <time>2014-02-01T14:03:51Z</time>
      </trkpt>
      <trkpt lat="45.74814" lon="6.15917">
        <ele>1286.86</ele>
        <time>2014-02-01T14:03:58Z</time>
      </trkpt>
      <trkpt lat="45.74813" lon="6.15919">
        <ele>1286.38</ele>
        <time>2014-02-01T14:04:21Z</time>
      </trkpt>
      <trkpt lat="45.74812" lon="6.15919">
        <ele>1286.38</ele>
        <time>2014-02-01T14:04:44Z</time>
      </trkpt>
      <trkpt lat="45.7481" lon="6.15922">
        <ele>1286.38</ele>
        <time>2014-02-01T14:05:09Z</time>
      </trkpt>
      <trkpt lat="45.74809" lon="6.15922">
        <ele>1286.38</ele>
        <time>2014-02-01T14:05:11Z</time>
      </trkpt>
      <trkpt lat="45.74808" lon="6.15924">
        <ele>1286.38</ele>
        <time>2014-02-01T14:05:12Z</time>
      </trkpt>
      <trkpt lat="45.74806" lon="6.15925">
        <ele>1286.38</ele>
        <time>2014-02-01T14:05:13Z</time>
      </trkpt>
      <trkpt lat="45.74799" lon="6.15933">
        <ele>1284.94</ele>
        <time>2014-02-01T14:05:15Z</time>
      </trkpt>
      <trkpt lat="45.74795" lon="6.15937">
        <ele>1283.98</ele>
        <time>2014-02-01T14:05:16Z</time>
      </trkpt>
      <trkpt lat="45.74791" lon="6.15941">
        <ele>1282.06</ele>
        <time>2014-02-01T14:05:17Z</time>
      </trkpt>
      <trkpt lat="45.74787" lon="6.15944">
        <ele>1280.61</ele>
        <time>2014-02-01T14:05:18Z</time>
      </trkpt>
      <trkpt lat="45.74783" lon="6.15948">
        <ele>1280.61</ele>
        <time>2014-02-01T14:05:19Z</time>
      </trkpt>
      <trkpt lat="45.74779" lon="6.15951">
        <ele>1279.17</ele>
        <time>2014-02-01T14:05:20Z</time>
      </trkpt>
      <trkpt lat="45.74775" lon="6.15955">
        <ele>1278.21</ele>
        <time>2014-02-01T14:05:21Z</time>
      </trkpt>
      <trkpt lat="45.74769" lon="6.15964">
        <ele>1276.77</ele>
        <time>2014-02-01T14:05:23Z</time>
      </trkpt>
      <trkpt lat="45.74765" lon="6.15969">
        <ele>1275.33</ele>
        <time>2014-02-01T14:05:24Z</time>
      </trkpt>
      <trkpt lat="45.74758" lon="6.15977">
        <ele>1273.4</ele>
        <time>2014-02-01T14:05:26Z</time>
      </trkpt>
      <trkpt lat="45.74755" lon="6.15981">
        <ele>1272.44</ele>
        <time>2014-02-01T14:05:27Z</time>
      </trkpt>
      <trkpt lat="45.74751" lon="6.15984">
        <ele>1271.48</ele>
        <time>2014-02-01T14:05:28Z</time>
      </trkpt>
      <trkpt lat="45.74747" lon="6.15986">
        <ele>1271.48</ele>
        <time>2014-02-01T14:05:29Z</time>
      </trkpt>
      <trkpt lat="45.74743" lon="6.1599">
        <ele>1270.04</ele>
        <time>2014-02-01T14:05:30Z</time>
      </trkpt>
      <trkpt lat="45.7474" lon="6.15993">
        <ele>1269.56</ele>
        <time>2014-02-01T14:05:31Z</time>
      </trkpt>
      <trkpt lat="45.74738" lon="6.15995">
        <ele>1268.12</ele>
        <time>2014-02-01T14:05:32Z</time>
      </trkpt>
      <trkpt lat="45.74737" lon="6.15995">
        <ele>1267.16</ele>
        <time>2014-02-01T14:05:34Z</time>
      </trkpt>
      <trkpt lat="45.74736" lon="6.15996">
        <ele>1267.16</ele>
        <time>2014-02-01T14:05:37Z</time>
      </trkpt>
      <trkpt lat="45.74735" lon="6.15997">
        <ele>1267.16</ele>
        <time>2014-02-01T14:05:38Z</time>
      </trkpt>
      <trkpt lat="45.74726" lon="6.16005">
        <ele>1264.75</ele>
        <time>2014-02-01T14:05:51Z</time>
      </trkpt>
      <trkpt lat="45.74724" lon="6.1601">
        <ele>1263.79</ele>
        <time>2014-02-01T14:06:09Z</time>
      </trkpt>
      <trkpt lat="45.74722" lon="6.16011">
        <ele>1263.31</ele>
        <time>2014-02-01T14:06:13Z</time>
      </trkpt>
      <trkpt lat="45.7472" lon="6.16012">
        <ele>1263.31</ele>
        <time>2014-02-01T14:06:14Z</time>
      </trkpt>
      <trkpt lat="45.74717" lon="6.16013">
        <ele>1262.83</ele>
        <time>2014-02-01T14:06:15Z</time>
      </trkpt>
      <trkpt lat="45.74714" lon="6.16016">
        <ele>1262.35</ele>
        <time>2014-02-01T14:06:16Z</time>
      </trkpt>
      <trkpt lat="45.7471" lon="6.1602">
        <ele>1261.39</ele>
        <time>2014-02-01T14:06:17Z</time>
      </trkpt>
      <trkpt lat="45.74707" lon="6.16022">
        <ele>1260.43</ele>
        <time>2014-02-01T14:06:19Z</time>
      </trkpt>
      <trkpt lat="45.74705" lon="6.16021">
        <ele>1260.43</ele>
        <time>2014-02-01T14:06:35Z</time>
      </trkpt>
      <trkpt lat="45.74703" lon="6.16022">
        <ele>1260.43</ele>
        <time>2014-02-01T14:06:42Z</time>
      </trkpt>
      <trkpt lat="45.74699" lon="6.16025">
        <ele>1260.43</ele>
        <time>2014-02-01T14:06:47Z</time>
      </trkpt>
      <trkpt lat="45.74699" lon="6.16026">
        <ele>1260.43</ele>
        <time>2014-02-01T14:06:48Z</time>
      </trkpt>
      <trkpt lat="45.74686" lon="6.16037">
        <ele>1259.46</ele>
        <time>2014-02-01T14:06:54Z</time>
      </trkpt>
      <trkpt lat="45.74673" lon="6.16047">
        <ele>1257.54</ele>
        <time>2014-02-01T14:06:57Z</time>
      </trkpt>
      <trkpt lat="45.74665" lon="6.16057">
        <ele>1254.66</ele>
        <time>2014-02-01T14:06:59Z</time>
      </trkpt>
      <trkpt lat="45.7466" lon="6.16061">
        <ele>1253.22</ele>
        <time>2014-02-01T14:07:00Z</time>
      </trkpt>
      <trkpt lat="45.74654" lon="6.16063">
        <ele>1251.77</ele>
        <time>2014-02-01T14:07:01Z</time>
      </trkpt>
      <trkpt lat="45.74649" lon="6.16062">
        <ele>1250.33</ele>
        <time>2014-02-01T14:07:02Z</time>
      </trkpt>
      <trkpt lat="45.74645" lon="6.16059">
        <ele>1249.37</ele>
        <time>2014-02-01T14:07:03Z</time>
      </trkpt>
      <trkpt lat="45.74645" lon="6.16056">
        <ele>1248.41</ele>
        <time>2014-02-01T14:07:04Z</time>
      </trkpt>
      <trkpt lat="45.74647" lon="6.16052">
        <ele>1247.45</ele>
        <time>2014-02-01T14:07:05Z</time>
      </trkpt>
      <trkpt lat="45.7465" lon="6.16044">
        <ele>1246.97</ele>
        <time>2014-02-01T14:07:06Z</time>
      </trkpt>
      <trkpt lat="45.74653" lon="6.16035">
        <ele>1245.53</ele>
        <time>2014-02-01T14:07:07Z</time>
      </trkpt>
      <trkpt lat="45.74655" lon="6.16026">
        <ele>1244.56</ele>
        <time>2014-02-01T14:07:08Z</time>
      </trkpt>
      <trkpt lat="45.74656" lon="6.16021">
        <ele>1243.12</ele>
        <time>2014-02-01T14:07:09Z</time>
      </trkpt>
      <trkpt lat="45.74656" lon="6.1602">
        <ele>1243.12</ele>
        <time>2014-02-01T14:07:10Z</time>
      </trkpt>
      <trkpt lat="45.74661" lon="6.16017">
        <ele>1243.12</ele>
        <time>2014-02-01T14:07:21Z</time>
      </trkpt>
      <trkpt lat="45.74663" lon="6.16019">
        <ele>1243.6</ele>
        <time>2014-02-01T14:07:30Z</time>
      </trkpt>
      <trkpt lat="45.7467" lon="6.15998">
        <ele>1242.16</ele>
        <time>2014-02-01T14:07:35Z</time>
      </trkpt>
      <trkpt lat="45.74673" lon="6.15992">
        <ele>1241.2</ele>
        <time>2014-02-01T14:07:36Z</time>
      </trkpt>
      <trkpt lat="45.74675" lon="6.15984">
        <ele>1240.24</ele>
        <time>2014-02-01T14:07:37Z</time>
      </trkpt>
      <trkpt lat="45.74674" lon="6.15978">
        <ele>1238.32</ele>
        <time>2014-02-01T14:07:38Z</time>
      </trkpt>
      <trkpt lat="45.74671" lon="6.15977">
        <ele>1238.32</ele>
        <time>2014-02-01T14:07:39Z</time>
      </trkpt>
      <trkpt lat="45.74668" lon="6.15977">
        <ele>1237.35</ele>
        <time>2014-02-01T14:07:40Z</time>
      </trkpt>
      <trkpt lat="45.74664" lon="6.15975">
        <ele>1235.43</ele>
        <time>2014-02-01T14:07:48Z</time>
      </trkpt>
      <trkpt lat="45.74663" lon="6.15976">
        <ele>1235.43</ele>
        <time>2014-02-01T14:07:50Z</time>
      </trkpt>
      <trkpt lat="45.7466" lon="6.15977">
        <ele>1235.43</ele>
        <time>2014-02-01T14:07:51Z</time>
      </trkpt>
      <trkpt lat="45.74654" lon="6.15984">
        <ele>1233.99</ele>
        <time>2014-02-01T14:07:53Z</time>
      </trkpt>
      <trkpt lat="45.74652" lon="6.15987">
        <ele>1233.03</ele>
        <time>2014-02-01T14:07:54Z</time>
      </trkpt>
      <trkpt lat="45.74651" lon="6.15989">
        <ele>1233.03</ele>
        <time>2014-02-01T14:07:55Z</time>
      </trkpt>
      <trkpt lat="45.7465" lon="6.15991">
        <ele>1233.03</ele>
        <time>2014-02-01T14:07:56Z</time>
      </trkpt>
      <trkpt lat="45.74649" lon="6.15992">
        <ele>1233.03</ele>
        <time>2014-02-01T14:07:57Z</time>
      </trkpt>
      <trkpt lat="45.74648" lon="6.15992">
        <ele>1233.03</ele>
        <time>2014-02-01T14:07:58Z</time>
      </trkpt>
      <trkpt lat="45.74636" lon="6.15998">
        <ele>1230.14</ele>
        <time>2014-02-01T14:08:08Z</time>
      </trkpt>
      <trkpt lat="45.74638" lon="6.15991">
        <ele>1229.66</ele>
        <time>2014-02-01T14:08:15Z</time>
      </trkpt>
      <trkpt lat="45.74635" lon="6.15993">
        <ele>1228.7</ele>
        <time>2014-02-01T14:08:17Z</time>
      </trkpt>
      <trkpt lat="45.7463" lon="6.15997">
        <ele>1227.74</ele>
        <time>2014-02-01T14:08:19Z</time>
      </trkpt>
      <trkpt lat="45.74626" lon="6.15996">
        <ele>1226.78</ele>
        <time>2014-02-01T14:08:20Z</time>
      </trkpt>
      <trkpt lat="45.74622" lon="6.15996">
        <ele>1225.34</ele>
        <time>2014-02-01T14:08:21Z</time>
      </trkpt>
      <trkpt lat="45.74618" lon="6.15999">
        <ele>1225.34</ele>
        <time>2014-02-01T14:08:22Z</time>
      </trkpt>
      <trkpt lat="45.74613" lon="6.16002">
        <ele>1224.38</ele>
        <time>2014-02-01T14:08:23Z</time>
      </trkpt>
      <trkpt lat="45.74607" lon="6.16004">
        <ele>1223.42</ele>
        <time>2014-02-01T14:08:24Z</time>
      </trkpt>
      <trkpt lat="45.74602" lon="6.16006">
        <ele>1222.45</ele>
        <time>2014-02-01T14:08:25Z</time>
      </trkpt>
      <trkpt lat="45.74598" lon="6.16008">
        <ele>1221.01</ele>
        <time>2014-02-01T14:08:26Z</time>
      </trkpt>
      <trkpt lat="45.74593" lon="6.1601">
        <ele>1220.05</ele>
        <time>2014-02-01T14:08:27Z</time>
      </trkpt>
      <trkpt lat="45.7459" lon="6.16013">
        <ele>1218.13</ele>
        <time>2014-02-01T14:08:28Z</time>
      </trkpt>
      <trkpt lat="45.74589" lon="6.1602">
        <ele>1216.69</ele>
        <time>2014-02-01T14:08:40Z</time>
      </trkpt>
      <trkpt lat="45.74589" lon="6.16024">
        <ele>1217.65</ele>
        <time>2014-02-01T14:09:00Z</time>
      </trkpt>
      <trkpt lat="45.7459" lon="6.16027">
        <ele>1217.65</ele>
        <time>2014-02-01T14:09:21Z</time>
      </trkpt>
      <trkpt lat="45.74587" lon="6.16026">
        <ele>1218.13</ele>
        <time>2014-02-01T14:09:29Z</time>
      </trkpt>
      <trkpt lat="45.74585" lon="6.16026">
        <ele>1217.65</ele>
        <time>2014-02-01T14:09:30Z</time>
      </trkpt>
      <trkpt lat="45.74583" lon="6.16025">
        <ele>1216.21</ele>
        <time>2014-02-01T14:09:32Z</time>
      </trkpt>
      <trkpt lat="45.74571" lon="6.16026">
        <ele>1213.8</ele>
        <time>2014-02-01T14:09:46Z</time>
      </trkpt>
      <trkpt lat="45.74569" lon="6.16025">
        <ele>1213.32</ele>
        <time>2014-02-01T14:10:00Z</time>
      </trkpt>
      <trkpt lat="45.74568" lon="6.16024">
        <ele>1212.84</ele>
        <time>2014-02-01T14:10:21Z</time>
      </trkpt>
      <trkpt lat="45.74561" lon="6.16025">
        <ele>1212.36</ele>
        <time>2014-02-01T14:10:35Z</time>
      </trkpt>
      <trkpt lat="45.74558" lon="6.16026">
        <ele>1211.88</ele>
        <time>2014-02-01T14:10:36Z</time>
      </trkpt>
      <trkpt lat="45.74555" lon="6.16027">
        <ele>1211.4</ele>
        <time>2014-02-01T14:10:37Z</time>
      </trkpt>
      <trkpt lat="45.74553" lon="6.16028">
        <ele>1209.96</ele>
        <time>2014-02-01T14:10:38Z</time>
      </trkpt>
      <trkpt lat="45.74551" lon="6.16028">
        <ele>1209</ele>
        <time>2014-02-01T14:10:40Z</time>
      </trkpt>
      <trkpt lat="45.7455" lon="6.1603">
        <ele>1208.51</ele>
        <time>2014-02-01T14:10:44Z</time>
      </trkpt>
      <trkpt lat="45.74549" lon="6.16031">
        <ele>1208.51</ele>
        <time>2014-02-01T14:10:45Z</time>
      </trkpt>
      <trkpt lat="45.74546" lon="6.16033">
        <ele>1207.55</ele>
        <time>2014-02-01T14:10:46Z</time>
      </trkpt>
      <trkpt lat="45.74542" lon="6.16034">
        <ele>1206.59</ele>
        <time>2014-02-01T14:10:47Z</time>
      </trkpt>
      <trkpt lat="45.74536" lon="6.16035">
        <ele>1205.63</ele>
        <time>2014-02-01T14:10:48Z</time>
      </trkpt>
      <trkpt lat="45.74529" lon="6.16036">
        <ele>1204.19</ele>
        <time>2014-02-01T14:10:49Z</time>
      </trkpt>
      <trkpt lat="45.74521" lon="6.16037">
        <ele>1202.75</ele>
        <time>2014-02-01T14:10:50Z</time>
      </trkpt>
      <trkpt lat="45.74513" lon="6.16039">
        <ele>1200.34</ele>
        <time>2014-02-01T14:10:51Z</time>
      </trkpt>
      <trkpt lat="45.74506" lon="6.1604">
        <ele>1197.94</ele>
        <time>2014-02-01T14:10:52Z</time>
      </trkpt>
      <trkpt lat="45.74502" lon="6.16041">
        <ele>1195.06</ele>
        <time>2014-02-01T14:10:53Z</time>
      </trkpt>
      <trkpt lat="45.745" lon="6.16041">
        <ele>1195.06</ele>
        <time>2014-02-01T14:10:54Z</time>
      </trkpt>
      <trkpt lat="45.74502" lon="6.16045">
        <ele>1195.06</ele>
        <time>2014-02-01T14:11:02Z</time>
      </trkpt>
      <trkpt lat="45.74503" lon="6.1605">
        <ele>1194.58</ele>
        <time>2014-02-01T14:11:17Z</time>
      </trkpt>
      <trkpt lat="45.74503" lon="6.1605">
        <ele>1194.09</ele>
        <time>2014-02-01T14:11:23Z</time>
      </trkpt>
      <trkpt lat="45.745" lon="6.16051">
        <ele>1194.09</ele>
        <time>2014-02-01T14:11:24Z</time>
      </trkpt>
      <trkpt lat="45.74492" lon="6.16053">
        <ele>1192.17</ele>
        <time>2014-02-01T14:11:26Z</time>
      </trkpt>
      <trkpt lat="45.74488" lon="6.16053">
        <ele>1191.21</ele>
        <time>2014-02-01T14:11:27Z</time>
      </trkpt>
      <trkpt lat="45.74486" lon="6.16055">
        <ele>1189.29</ele>
        <time>2014-02-01T14:11:28Z</time>
      </trkpt>
      <trkpt lat="45.74484" lon="6.16056">
        <ele>1188.81</ele>
        <time>2014-02-01T14:11:29Z</time>
      </trkpt>
      <trkpt lat="45.74482" lon="6.16056">
        <ele>1188.33</ele>
        <time>2014-02-01T14:11:30Z</time>
      </trkpt>
      <trkpt lat="45.7447" lon="6.16056">
        <ele>1184.96</ele>
        <time>2014-02-01T14:11:34Z</time>
      </trkpt>
      <trkpt lat="45.74465" lon="6.16055">
        <ele>1184</ele>
        <time>2014-02-01T14:11:35Z</time>
      </trkpt>
      <trkpt lat="45.74459" lon="6.16055">
        <ele>1182.56</ele>
        <time>2014-02-01T14:11:36Z</time>
      </trkpt>
      <trkpt lat="45.74453" lon="6.16056">
        <ele>1181.12</ele>
        <time>2014-02-01T14:11:37Z</time>
      </trkpt>
      <trkpt lat="45.74446" lon="6.16057">
        <ele>1178.71</ele>
        <time>2014-02-01T14:11:38Z</time>
      </trkpt>
      <trkpt lat="45.7444" lon="6.16058">
        <ele>1177.75</ele>
        <time>2014-02-01T14:11:39Z</time>
      </trkpt>
      <trkpt lat="45.74434" lon="6.16058">
        <ele>1175.83</ele>
        <time>2014-02-01T14:11:40Z</time>
      </trkpt>
      <trkpt lat="45.7443" lon="6.16058">
        <ele>1174.39</ele>
        <time>2014-02-01T14:11:41Z</time>
      </trkpt>
      <trkpt lat="45.74427" lon="6.16059">
        <ele>1173.43</ele>
        <time>2014-02-01T14:11:43Z</time>
      </trkpt>
      <trkpt lat="45.74426" lon="6.16068">
        <ele>1173.91</ele>
        <time>2014-02-01T14:12:02Z</time>
      </trkpt>
      <trkpt lat="45.74425" lon="6.1607">
        <ele>1172.95</ele>
        <time>2014-02-01T14:12:18Z</time>
      </trkpt>
      <trkpt lat="45.74425" lon="6.16071">
        <ele>1173.91</ele>
        <time>2014-02-01T14:12:35Z</time>
      </trkpt>
      <trkpt lat="45.74429" lon="6.16066">
        <ele>1172.95</ele>
        <time>2014-02-01T14:12:50Z</time>
      </trkpt>
      <trkpt lat="45.74429" lon="6.16062">
        <ele>1173.43</ele>
        <time>2014-02-01T14:13:21Z</time>
      </trkpt>
      <trkpt lat="45.74428" lon="6.1606">
        <ele>1173.43</ele>
        <time>2014-02-01T14:13:44Z</time>
      </trkpt>
      <trkpt lat="45.74425" lon="6.1607">
        <ele>1173.91</ele>
        <time>2014-02-01T14:14:06Z</time>
      </trkpt>
      <trkpt lat="45.7442" lon="6.16065">
        <ele>1172.95</ele>
        <time>2014-02-01T14:14:19Z</time>
      </trkpt>
      <trkpt lat="45.74406" lon="6.16059">
        <ele>1170.54</ele>
        <time>2014-02-01T14:14:33Z</time>
      </trkpt>
      <trkpt lat="45.74405" lon="6.16064">
        <ele>1170.06</ele>
        <time>2014-02-01T14:14:47Z</time>
      </trkpt>
      <trkpt lat="45.74407" lon="6.16068">
        <ele>1169.58</ele>
        <time>2014-02-01T14:15:01Z</time>
      </trkpt>
      <trkpt lat="45.74388" lon="6.16071">
        <ele>1167.18</ele>
        <time>2014-02-01T14:15:10Z</time>
      </trkpt>
      <trkpt lat="45.74376" lon="6.16074">
        <ele>1165.26</ele>
        <time>2014-02-01T14:15:12Z</time>
      </trkpt>
      <trkpt lat="45.74371" lon="6.16077">
        <ele>1164.29</ele>
        <time>2014-02-01T14:15:13Z</time>
      </trkpt>
      <trkpt lat="45.74366" lon="6.16081">
        <ele>1162.85</ele>
        <time>2014-02-01T14:15:14Z</time>
      </trkpt>
      <trkpt lat="45.74354" lon="6.16086">
        <ele>1159.97</ele>
        <time>2014-02-01T14:15:16Z</time>
      </trkpt>
      <trkpt lat="45.74349" lon="6.16086">
        <ele>1157.56</ele>
        <time>2014-02-01T14:15:17Z</time>
      </trkpt>
      <trkpt lat="45.74346" lon="6.16086">
        <ele>1155.64</ele>
        <time>2014-02-01T14:15:19Z</time>
      </trkpt>
      <trkpt lat="45.74343" lon="6.16091">
        <ele>1155.64</ele>
        <time>2014-02-01T14:15:34Z</time>
      </trkpt>
      <trkpt lat="45.74339" lon="6.16093">
        <ele>1155.16</ele>
        <time>2014-02-01T14:15:52Z</time>
      </trkpt>
      <trkpt lat="45.74333" lon="6.16091">
        <ele>1153.24</ele>
        <time>2014-02-01T14:16:03Z</time>
      </trkpt>
      <trkpt lat="45.74334" lon="6.16097">
        <ele>1153.24</ele>
        <time>2014-02-01T14:16:20Z</time>
      </trkpt>
      <trkpt lat="45.74336" lon="6.16099">
        <ele>1153.24</ele>
        <time>2014-02-01T14:16:38Z</time>
      </trkpt>
      <trkpt lat="45.74335" lon="6.161">
        <ele>1153.24</ele>
        <time>2014-02-01T14:16:45Z</time>
      </trkpt>
      <trkpt lat="45.74333" lon="6.161">
        <ele>1152.76</ele>
        <time>2014-02-01T14:16:46Z</time>
      </trkpt>
      <trkpt lat="45.7433" lon="6.16101">
        <ele>1152.76</ele>
        <time>2014-02-01T14:16:47Z</time>
      </trkpt>
      <trkpt lat="45.74326" lon="6.16101">
        <ele>1152.28</ele>
        <time>2014-02-01T14:16:48Z</time>
      </trkpt>
      <trkpt lat="45.74321" lon="6.16102">
        <ele>1151.32</ele>
        <time>2014-02-01T14:16:49Z</time>
      </trkpt>
      <trkpt lat="45.74315" lon="6.16102">
        <ele>1150.84</ele>
        <time>2014-02-01T14:16:50Z</time>
      </trkpt>
      <trkpt lat="45.74311" lon="6.16102">
        <ele>1149.87</ele>
        <time>2014-02-01T14:16:51Z</time>
      </trkpt>
      <trkpt lat="45.74307" lon="6.16102">
        <ele>1148.43</ele>
        <time>2014-02-01T14:16:53Z</time>
      </trkpt>
      <trkpt lat="45.74299" lon="6.16104">
        <ele>1147.95</ele>
        <time>2014-02-01T14:16:56Z</time>
      </trkpt>
      <trkpt lat="45.74293" lon="6.16106">
        <ele>1146.99</ele>
        <time>2014-02-01T14:16:57Z</time>
      </trkpt>
      <trkpt lat="45.74287" lon="6.1611">
        <ele>1146.51</ele>
        <time>2014-02-01T14:16:58Z</time>
      </trkpt>
      <trkpt lat="45.74282" lon="6.16116">
        <ele>1144.59</ele>
        <time>2014-02-01T14:16:59Z</time>
      </trkpt>
      <trkpt lat="45.74277" lon="6.16125">
        <ele>1143.63</ele>
        <time>2014-02-01T14:17:00Z</time>
      </trkpt>
      <trkpt lat="45.74272" lon="6.16131">
        <ele>1142.18</ele>
        <time>2014-02-01T14:17:01Z</time>
      </trkpt>
      <trkpt lat="45.74268" lon="6.16133">
        <ele>1140.74</ele>
        <time>2014-02-01T14:17:02Z</time>
      </trkpt>
      <trkpt lat="45.74266" lon="6.16131">
        <ele>1140.74</ele>
        <time>2014-02-01T14:17:03Z</time>
      </trkpt>
      <trkpt lat="45.74265" lon="6.16127">
        <ele>1139.78</ele>
        <time>2014-02-01T14:17:04Z</time>
      </trkpt>
      <trkpt lat="45.74265" lon="6.16121">
        <ele>1139.3</ele>
        <time>2014-02-01T14:17:05Z</time>
      </trkpt>
      <trkpt lat="45.74266" lon="6.16116">
        <ele>1138.34</ele>
        <time>2014-02-01T14:17:06Z</time>
      </trkpt>
      <trkpt lat="45.74268" lon="6.16109">
        <ele>1137.86</ele>
        <time>2014-02-01T14:17:07Z</time>
      </trkpt>
      <trkpt lat="45.74269" lon="6.16103">
        <ele>1136.9</ele>
        <time>2014-02-01T14:17:08Z</time>
      </trkpt>
      <trkpt lat="45.7427" lon="6.16095">
        <ele>1135.94</ele>
        <time>2014-02-01T14:17:09Z</time>
      </trkpt>
      <trkpt lat="45.74273" lon="6.16078">
        <ele>1134.01</ele>
        <time>2014-02-01T14:17:11Z</time>
      </trkpt>
      <trkpt lat="45.74275" lon="6.16069">
        <ele>1132.57</ele>
        <time>2014-02-01T14:17:12Z</time>
      </trkpt>
      <trkpt lat="45.74277" lon="6.1606">
        <ele>1131.13</ele>
        <time>2014-02-01T14:17:13Z</time>
      </trkpt>
      <trkpt lat="45.7428" lon="6.16053">
        <ele>1129.21</ele>
        <time>2014-02-01T14:17:14Z</time>
      </trkpt>
      <trkpt lat="45.74281" lon="6.16049">
        <ele>1128.24</ele>
        <time>2014-02-01T14:17:15Z</time>
      </trkpt>
      <trkpt lat="45.74282" lon="6.16047">
        <ele>1127.76</ele>
        <time>2014-02-01T14:17:16Z</time>
      </trkpt>
      <trkpt lat="45.74283" lon="6.16047">
        <ele>1127.76</ele>
        <time>2014-02-01T14:17:17Z</time>
      </trkpt>
      <trkpt lat="45.74284" lon="6.16044">
        <ele>1127.76</ele>
        <time>2014-02-01T14:17:20Z</time>
      </trkpt>
      <trkpt lat="45.74285" lon="6.16041">
        <ele>1126.8</ele>
        <time>2014-02-01T14:17:21Z</time>
      </trkpt>
      <trkpt lat="45.74287" lon="6.16037">
        <ele>1126.8</ele>
        <time>2014-02-01T14:17:22Z</time>
      </trkpt>
      <trkpt lat="45.7429" lon="6.16031">
        <ele>1125.84</ele>
        <time>2014-02-01T14:17:23Z</time>
      </trkpt>
      <trkpt lat="45.74292" lon="6.16026">
        <ele>1124.88</ele>
        <time>2014-02-01T14:17:24Z</time>
      </trkpt>
      <trkpt lat="45.74295" lon="6.1602">
        <ele>1124.4</ele>
        <time>2014-02-01T14:17:25Z</time>
      </trkpt>
      <trkpt lat="45.74297" lon="6.16014">
        <ele>1123.44</ele>
        <time>2014-02-01T14:17:26Z</time>
      </trkpt>
      <trkpt lat="45.74299" lon="6.16009">
        <ele>1122.48</ele>
        <time>2014-02-01T14:17:27Z</time>
      </trkpt>
      <trkpt lat="45.743" lon="6.16004">
        <ele>1121.52</ele>
        <time>2014-02-01T14:17:28Z</time>
      </trkpt>
      <trkpt lat="45.74299" lon="6.16001">
        <ele>1121.52</ele>
        <time>2014-02-01T14:17:29Z</time>
      </trkpt>
      <trkpt lat="45.74296" lon="6.16">
        <ele>1121.03</ele>
        <time>2014-02-01T14:17:32Z</time>
      </trkpt>
      <trkpt lat="45.74294" lon="6.16001">
        <ele>1121.03</ele>
        <time>2014-02-01T14:17:33Z</time>
      </trkpt>
      <trkpt lat="45.74282" lon="6.16008">
        <ele>1118.63</ele>
        <time>2014-02-01T14:17:38Z</time>
      </trkpt>
      <trkpt lat="45.74284" lon="6.16007">
        <ele>1118.15</ele>
        <time>2014-02-01T14:17:57Z</time>
      </trkpt>
      <trkpt lat="45.74284" lon="6.16007">
        <ele>1118.63</ele>
        <time>2014-02-01T14:18:05Z</time>
      </trkpt>
      <trkpt lat="45.74285" lon="6.16009">
        <ele>1117.67</ele>
        <time>2014-02-01T14:18:17Z</time>
      </trkpt>
      <trkpt lat="45.74284" lon="6.16011">
        <ele>1118.15</ele>
        <time>2014-02-01T14:18:32Z</time>
      </trkpt>
      <trkpt lat="45.7428" lon="6.16012">
        <ele>1118.15</ele>
        <time>2014-02-01T14:18:58Z</time>
      </trkpt>
      <trkpt lat="45.74279" lon="6.16013">
        <ele>1118.15</ele>
        <time>2014-02-01T14:19:28Z</time>
      </trkpt>
      <trkpt lat="45.74279" lon="6.16013">
        <ele>1118.15</ele>
        <time>2014-02-01T14:20:02Z</time>
      </trkpt>
      <trkpt lat="45.74278" lon="6.16013">
        <ele>1116.71</ele>
        <time>2014-02-01T14:20:34Z</time>
      </trkpt>
      <trkpt lat="45.74279" lon="6.16014">
        <ele>1111.9</ele>
        <time>2014-02-01T14:21:10Z</time>
      </trkpt>
      <trkpt lat="45.74279" lon="6.16014">
        <ele>1119.11</ele>
        <time>2014-02-01T14:21:11Z</time>
      </trkpt>
      <trkpt lat="45.74279" lon="6.16013">
        <ele>1118.63</ele>
        <time>2014-02-01T14:21:28Z</time>
      </trkpt>
      <trkpt lat="45.74277" lon="6.16015">
        <ele>1118.63</ele>
        <time>2014-02-01T14:21:49Z</time>
      </trkpt>
      <trkpt lat="45.74279" lon="6.16014">
        <ele>1118.63</ele>
        <time>2014-02-01T14:22:08Z</time>
      </trkpt>
      <trkpt lat="45.74281" lon="6.16014">
        <ele>1118.63</ele>
        <time>2014-02-01T14:22:35Z</time>
      </trkpt>
      <trkpt lat="45.74282" lon="6.16011">
        <ele>1118.63</ele>
        <time>2014-02-01T14:22:57Z</time>
      </trkpt>
      <trkpt lat="45.7428" lon="6.16008">
        <ele>1118.63</ele>
        <time>2014-02-01T14:23:20Z</time>
      </trkpt>
      <trkpt lat="45.74281" lon="6.16006">
        <ele>1118.63</ele>
        <time>2014-02-01T14:23:41Z</time>
      </trkpt>
      <trkpt lat="45.74278" lon="6.16004">
        <ele>1119.11</ele>
        <time>2014-02-01T14:24:01Z</time>
      </trkpt>
      <trkpt lat="45.74283" lon="6.16007">
        <ele>1119.11</ele>
        <time>2014-02-01T14:24:24Z</time>
      </trkpt>
      <trkpt lat="45.74292" lon="6.16007">
        <ele>1120.55</ele>
        <time>2014-02-01T14:24:39Z</time>
      </trkpt>
      <trkpt lat="45.74293" lon="6.16007">
        <ele>1122.48</ele>
        <time>2014-02-01T14:24:54Z</time>
      </trkpt>
      <trkpt lat="45.74296" lon="6.16003">
        <ele>1121.03</ele>
        <time>2014-02-01T14:25:00Z</time>
      </trkpt>
      <trkpt lat="45.74297" lon="6.16001">
        <ele>1121.03</ele>
        <time>2014-02-01T14:25:01Z</time>
      </trkpt>
      <trkpt lat="45.74297" lon="6.16">
        <ele>1121.03</ele>
        <time>2014-02-01T14:25:02Z</time>
      </trkpt>
      <trkpt lat="45.74305" lon="6.15979">
        <ele>1118.15</ele>
        <time>2014-02-01T14:25:16Z</time>
      </trkpt>
      <trkpt lat="45.74308" lon="6.15964">
        <ele>1115.75</ele>
        <time>2014-02-01T14:25:29Z</time>
      </trkpt>
      <trkpt lat="45.74308" lon="6.15963">
        <ele>1115.75</ele>
        <time>2014-02-01T14:25:30Z</time>
      </trkpt>
      <trkpt lat="45.74309" lon="6.15947">
        <ele>1113.34</ele>
        <time>2014-02-01T14:25:43Z</time>
      </trkpt>
      <trkpt lat="45.74309" lon="6.15945">
        <ele>1112.86</ele>
        <time>2014-02-01T14:25:44Z</time>
      </trkpt>
      <trkpt lat="45.7431" lon="6.15937">
        <ele>1111.9</ele>
        <time>2014-02-01T14:25:49Z</time>
      </trkpt>
      <trkpt lat="45.74305" lon="6.15921">
        <ele>1110.46</ele>
        <time>2014-02-01T14:26:02Z</time>
      </trkpt>
      <trkpt lat="45.74287" lon="6.1591">
        <ele>1108.54</ele>
        <time>2014-02-01T14:26:15Z</time>
      </trkpt>
      <trkpt lat="45.74277" lon="6.15905">
        <ele>1105.65</ele>
        <time>2014-02-01T14:26:27Z</time>
      </trkpt>
      <trkpt lat="45.74276" lon="6.15904">
        <ele>1105.65</ele>
        <time>2014-02-01T14:26:28Z</time>
      </trkpt>
      <trkpt lat="45.74262" lon="6.159">
        <ele>1102.29</ele>
        <time>2014-02-01T14:26:43Z</time>
      </trkpt>
      <trkpt lat="45.74248" lon="6.15897">
        <ele>1099.4</ele>
        <time>2014-02-01T14:26:57Z</time>
      </trkpt>
      <trkpt lat="45.74242" lon="6.15896">
        <ele>1097.96</ele>
        <time>2014-02-01T14:27:03Z</time>
      </trkpt>
      <trkpt lat="45.74228" lon="6.15893">
        <ele>1095.08</ele>
        <time>2014-02-01T14:27:16Z</time>
      </trkpt>
      <trkpt lat="45.74217" lon="6.15892">
        <ele>1092.2</ele>
        <time>2014-02-01T14:27:28Z</time>
      </trkpt>
      <trkpt lat="45.74207" lon="6.15891">
        <ele>1090.75</ele>
        <time>2014-02-01T14:27:39Z</time>
      </trkpt>
      <trkpt lat="45.74206" lon="6.1589">
        <ele>1090.27</ele>
        <time>2014-02-01T14:27:40Z</time>
      </trkpt>
      <trkpt lat="45.74194" lon="6.15889">
        <ele>1087.39</ele>
        <time>2014-02-01T14:27:55Z</time>
      </trkpt>
      <trkpt lat="45.74181" lon="6.15889">
        <ele>1084.02</ele>
        <time>2014-02-01T14:28:10Z</time>
      </trkpt>
      <trkpt lat="45.74166" lon="6.1589">
        <ele>1081.14</ele>
        <time>2014-02-01T14:28:25Z</time>
      </trkpt>
      <trkpt lat="45.74163" lon="6.15892">
        <ele>1080.66</ele>
        <time>2014-02-01T14:28:28Z</time>
      </trkpt>
      <trkpt lat="45.74149" lon="6.15908">
        <ele>1077.78</ele>
        <time>2014-02-01T14:28:44Z</time>
      </trkpt>
      <trkpt lat="45.74138" lon="6.1591">
        <ele>1074.41</ele>
        <time>2014-02-01T14:29:00Z</time>
      </trkpt>
      <trkpt lat="45.74128" lon="6.15912">
        <ele>1071.53</ele>
        <time>2014-02-01T14:29:14Z</time>
      </trkpt>
      <trkpt lat="45.74117" lon="6.15904">
        <ele>1068.64</ele>
        <time>2014-02-01T14:29:29Z</time>
      </trkpt>
      <trkpt lat="45.7411" lon="6.15899">
        <ele>1067.2</ele>
        <time>2014-02-01T14:29:37Z</time>
      </trkpt>
      <trkpt lat="45.74109" lon="6.15898">
        <ele>1067.2</ele>
        <time>2014-02-01T14:29:38Z</time>
      </trkpt>
      <trkpt lat="45.74095" lon="6.15892">
        <ele>1064.32</ele>
        <time>2014-02-01T14:29:52Z</time>
      </trkpt>
      <trkpt lat="45.74079" lon="6.15887">
        <ele>1061.43</ele>
        <time>2014-02-01T14:30:08Z</time>
      </trkpt>
      <trkpt lat="45.74064" lon="6.15887">
        <ele>1058.55</ele>
        <time>2014-02-01T14:30:21Z</time>
      </trkpt>
      <trkpt lat="45.7405" lon="6.15887">
        <ele>1056.15</ele>
        <time>2014-02-01T14:30:36Z</time>
      </trkpt>
      <trkpt lat="45.7404" lon="6.1589">
        <ele>1054.22</ele>
        <time>2014-02-01T14:30:52Z</time>
      </trkpt>
      <trkpt lat="45.7404" lon="6.15896">
        <ele>1054.22</ele>
        <time>2014-02-01T14:31:05Z</time>
      </trkpt>
      <trkpt lat="45.74034" lon="6.15893">
        <ele>1054.22</ele>
        <time>2014-02-01T14:31:21Z</time>
      </trkpt>
      <trkpt lat="45.74022" lon="6.15893">
        <ele>1051.82</ele>
        <time>2014-02-01T14:31:36Z</time>
      </trkpt>
      <trkpt lat="45.7402" lon="6.15892">
        <ele>1051.34</ele>
        <time>2014-02-01T14:31:38Z</time>
      </trkpt>
      <trkpt lat="45.74004" lon="6.15892">
        <ele>1047.97</ele>
        <time>2014-02-01T14:31:54Z</time>
      </trkpt>
      <trkpt lat="45.73988" lon="6.15892">
        <ele>1045.09</ele>
        <time>2014-02-01T14:32:09Z</time>
      </trkpt>
      <trkpt lat="45.73972" lon="6.15894">
        <ele>1042.69</ele>
        <time>2014-02-01T14:32:25Z</time>
      </trkpt>
      <trkpt lat="45.73959" lon="6.159">
        <ele>1040.28</ele>
        <time>2014-02-01T14:32:40Z</time>
      </trkpt>
      <trkpt lat="45.73957" lon="6.15899">
        <ele>1039.8</ele>
        <time>2014-02-01T14:32:42Z</time>
      </trkpt>
      <trkpt lat="45.73943" lon="6.15898">
        <ele>1037.88</ele>
        <time>2014-02-01T14:32:56Z</time>
      </trkpt>
      <trkpt lat="45.73927" lon="6.15897">
        <ele>1035.96</ele>
        <time>2014-02-01T14:33:10Z</time>
      </trkpt>
      <trkpt lat="45.73925" lon="6.15897">
        <ele>1035.96</ele>
        <time>2014-02-01T14:33:12Z</time>
      </trkpt>
      <trkpt lat="45.73914" lon="6.1591">
        <ele>1034.52</ele>
        <time>2014-02-01T14:33:26Z</time>
      </trkpt>
      <trkpt lat="45.73913" lon="6.15914">
        <ele>1034.52</ele>
        <time>2014-02-01T14:33:30Z</time>
      </trkpt>
      <trkpt lat="45.73912" lon="6.15916">
        <ele>1034.52</ele>
        <time>2014-02-01T14:33:31Z</time>
      </trkpt>
      <trkpt lat="45.7391" lon="6.15917">
        <ele>1034.52</ele>
        <time>2014-02-01T14:33:32Z</time>
      </trkpt>
      <trkpt lat="45.73904" lon="6.15929">
        <ele>1034.04</ele>
        <time>2014-02-01T14:33:45Z</time>
      </trkpt>
      <trkpt lat="45.7389" lon="6.15933">
        <ele>1032.59</ele>
        <time>2014-02-01T14:33:59Z</time>
      </trkpt>
      <trkpt lat="45.73889" lon="6.15933">
        <ele>1032.59</ele>
        <time>2014-02-01T14:34:00Z</time>
      </trkpt>
      <trkpt lat="45.73873" lon="6.1594">
        <ele>1030.19</ele>
        <time>2014-02-01T14:34:16Z</time>
      </trkpt>
      <trkpt lat="45.73866" lon="6.15941">
        <ele>1029.23</ele>
        <time>2014-02-01T14:34:23Z</time>
      </trkpt>
      <trkpt lat="45.73865" lon="6.15941">
        <ele>1029.23</ele>
        <time>2014-02-01T14:34:24Z</time>
      </trkpt>
      <trkpt lat="45.73849" lon="6.15942">
        <ele>1027.79</ele>
        <time>2014-02-01T14:34:37Z</time>
      </trkpt>
      <trkpt lat="45.73834" lon="6.15954">
        <ele>1026.83</ele>
        <time>2014-02-01T14:34:50Z</time>
      </trkpt>
      <trkpt lat="45.73834" lon="6.15956">
        <ele>1026.83</ele>
        <time>2014-02-01T14:34:51Z</time>
      </trkpt>
      <trkpt lat="45.73823" lon="6.15979">
        <ele>1025.86</ele>
        <time>2014-02-01T14:35:06Z</time>
      </trkpt>
      <trkpt lat="45.73821" lon="6.15985">
        <ele>1025.38</ele>
        <time>2014-02-01T14:35:10Z</time>
      </trkpt>
      <trkpt lat="45.7382" lon="6.15987">
        <ele>1025.38</ele>
        <time>2014-02-01T14:35:11Z</time>
      </trkpt>
      <trkpt lat="45.7382" lon="6.15988">
        <ele>1025.38</ele>
        <time>2014-02-01T14:35:12Z</time>
      </trkpt>
      <trkpt lat="45.73819" lon="6.1599">
        <ele>1025.38</ele>
        <time>2014-02-01T14:35:13Z</time>
      </trkpt>
      <trkpt lat="45.73818" lon="6.15992">
        <ele>1025.38</ele>
        <time>2014-02-01T14:35:14Z</time>
      </trkpt>
      <trkpt lat="45.73805" lon="6.16001">
        <ele>1023.46</ele>
        <time>2014-02-01T14:35:29Z</time>
      </trkpt>
      <trkpt lat="45.73789" lon="6.15998">
        <ele>1021.54</ele>
        <time>2014-02-01T14:35:44Z</time>
      </trkpt>
      <trkpt lat="45.73768" lon="6.15994">
        <ele>1019.13</ele>
        <time>2014-02-01T14:36:01Z</time>
      </trkpt>
      <trkpt lat="45.73749" lon="6.15994">
        <ele>1017.69</ele>
        <time>2014-02-01T14:36:17Z</time>
      </trkpt>
      <trkpt lat="45.73733" lon="6.15993">
        <ele>1016.25</ele>
        <time>2014-02-01T14:36:30Z</time>
      </trkpt>
      <trkpt lat="45.73725" lon="6.15993">
        <ele>1016.25</ele>
        <time>2014-02-01T14:36:36Z</time>
      </trkpt>
      <trkpt lat="45.73716" lon="6.15994">
        <ele>1015.29</ele>
        <time>2014-02-01T14:36:45Z</time>
      </trkpt>
      <trkpt lat="45.73699" lon="6.15992">
        <ele>1013.37</ele>
        <time>2014-02-01T14:36:59Z</time>
      </trkpt>
      <trkpt lat="45.73682" lon="6.15997">
        <ele>1012.89</ele>
        <time>2014-02-01T14:37:14Z</time>
      </trkpt>
      <trkpt lat="45.73664" lon="6.15999">
        <ele>1010.96</ele>
        <time>2014-02-01T14:37:29Z</time>
      </trkpt>
      <trkpt lat="45.73661" lon="6.16005">
        <ele>1010.96</ele>
        <time>2014-02-01T14:37:47Z</time>
      </trkpt>
      <trkpt lat="45.73656" lon="6.16007">
        <ele>1010.96</ele>
        <time>2014-02-01T14:38:00Z</time>
      </trkpt>
      <trkpt lat="45.73652" lon="6.16002">
        <ele>1010.48</ele>
        <time>2014-02-01T14:38:14Z</time>
      </trkpt>
      <trkpt lat="45.7365" lon="6.16002">
        <ele>1010.48</ele>
        <time>2014-02-01T14:38:19Z</time>
      </trkpt>
      <trkpt lat="45.73648" lon="6.16003">
        <ele>1010.48</ele>
        <time>2014-02-01T14:38:20Z</time>
      </trkpt>
      <trkpt lat="45.73637" lon="6.16015">
        <ele>1011.93</ele>
        <time>2014-02-01T14:38:30Z</time>
      </trkpt>
      <trkpt lat="45.73632" lon="6.16018">
        <ele>1008.56</ele>
        <time>2014-02-01T14:38:42Z</time>
      </trkpt>
      <trkpt lat="45.73631" lon="6.16018">
        <ele>1011.93</ele>
        <time>2014-02-01T14:38:43Z</time>
      </trkpt>
      <trkpt lat="45.73631" lon="6.16017">
        <ele>1011.93</ele>
        <time>2014-02-01T14:39:17Z</time>
      </trkpt>
      <trkpt lat="45.73632" lon="6.16015">
        <ele>1011.93</ele>
        <time>2014-02-01T14:39:40Z</time>
      </trkpt>
      <trkpt lat="45.73635" lon="6.16017">
        <ele>1011.44</ele>
        <time>2014-02-01T14:40:24Z</time>
      </trkpt>
      <trkpt lat="45.73634" lon="6.16021">
        <ele>1011.44</ele>
        <time>2014-02-01T14:41:09Z</time>
      </trkpt>
      <trkpt lat="45.73635" lon="6.16024">
        <ele>1011.44</ele>
        <time>2014-02-01T14:41:41Z</time>
      </trkpt>
      <trkpt lat="45.73635" lon="6.16023">
        <ele>1011.44</ele>
        <time>2014-02-01T14:42:20Z</time>
      </trkpt>
      <trkpt lat="45.73636" lon="6.16024">
        <ele>1010.96</ele>
        <time>2014-02-01T14:43:05Z</time>
      </trkpt>
      <trkpt lat="45.73634" lon="6.16023">
        <ele>1010.96</ele>
        <time>2014-02-01T14:43:50Z</time>
      </trkpt>
      <trkpt lat="45.73634" lon="6.16022">
        <ele>1010.96</ele>
        <time>2014-02-01T14:44:31Z</time>
      </trkpt>
      <trkpt lat="45.73634" lon="6.16021">
        <ele>1010.96</ele>
        <time>2014-02-01T14:44:54Z</time>
      </trkpt>
      <trkpt lat="45.73632" lon="6.1602">
        <ele>1011.44</ele>
        <time>2014-02-01T14:45:16Z</time>
      </trkpt>
      <trkpt lat="45.73635" lon="6.16021">
        <ele>1011.44</ele>
        <time>2014-02-01T14:45:52Z</time>
      </trkpt>
      <trkpt lat="45.73635" lon="6.1602">
        <ele>1011.93</ele>
        <time>2014-02-01T14:46:28Z</time>
      </trkpt>
      <trkpt lat="45.73635" lon="6.16017">
        <ele>1011.93</ele>
        <time>2014-02-01T14:46:58Z</time>
      </trkpt>
      <trkpt lat="45.73633" lon="6.16019">
        <ele>1011.93</ele>
        <time>2014-02-01T14:47:39Z</time>
      </trkpt>
      <trkpt lat="45.73635" lon="6.1602">
        <ele>1010.48</ele>
        <time>2014-02-01T14:47:53Z</time>
      </trkpt>
    </trkseg>
  </trk>
</gpx>